<?xml version="1.0" encoding="UTF-8" standalone="no" ?>
<gpx xmlns="http://www.topografix.com/GPX/1/1" xmlns:xsi="http://www.w3.org/2001/XMLSchema-instance" xsi:schemaLocation="http://www.topografix.com/GPX/1/1 http://www.topografix.com/GPX/1/1/gpx.xsd" version="1.1" creator="VisuGPX - https://www.visugpx.com">
  <metadata>
    <name>Flagey - Belvédère de Norvaux - Rocher du Moine - Cascade de Boneille</name>
    <desc><![CDATA[Randonnée pédestre effectuée le 22 juillet 2021]]></desc>
  </metadata>
  <trk>
    <name><![CDATA[22 juil. 2021 à 09:37:57]]></name>
    <extensions>
      <line xmlns="http://www.topografix.com/GPX/gpx_style/0/2">
        <color>0000FF</color>
        <width>4</width>
      </line>
    </extensions>
    <trkseg>
      <trkpt lat="47.03778" lon="6.12265">
        <ele>623</ele>
        <time>2021-07-22T07:37:57Z</time>
      </trkpt>
      <trkpt lat="47.03781" lon="6.12259">
        <ele>624</ele>
        <time>2021-07-22T07:38:21Z</time>
      </trkpt>
      <trkpt lat="47.03783" lon="6.12254">
        <ele>624</ele>
        <time>2021-07-22T07:38:52Z</time>
      </trkpt>
      <trkpt lat="47.03779" lon="6.1224">
        <ele>623</ele>
        <time>2021-07-22T07:39:23Z</time>
      </trkpt>
      <trkpt lat="47.0378" lon="6.12232">
        <ele>623</ele>
        <time>2021-07-22T07:39:28Z</time>
      </trkpt>
      <trkpt lat="47.03786" lon="6.12216">
        <ele>623</ele>
        <time>2021-07-22T07:39:40Z</time>
      </trkpt>
      <trkpt lat="47.03789" lon="6.12209">
        <ele>622</ele>
        <time>2021-07-22T07:39:46Z</time>
      </trkpt>
      <trkpt lat="47.03793" lon="6.12199">
        <ele>622</ele>
        <time>2021-07-22T07:39:54Z</time>
      </trkpt>
      <trkpt lat="47.03796" lon="6.12186">
        <ele>622</ele>
        <time>2021-07-22T07:40:05Z</time>
      </trkpt>
      <trkpt lat="47.03807" lon="6.12164">
        <ele>621</ele>
        <time>2021-07-22T07:40:21Z</time>
      </trkpt>
      <trkpt lat="47.03814" lon="6.12162">
        <ele>620</ele>
        <time>2021-07-22T07:40:30Z</time>
      </trkpt>
      <trkpt lat="47.03817" lon="6.12145">
        <ele>619</ele>
        <time>2021-07-22T07:40:50Z</time>
      </trkpt>
      <trkpt lat="47.03832" lon="6.12116">
        <ele>617</ele>
        <time>2021-07-22T07:41:13Z</time>
      </trkpt>
      <trkpt lat="47.03832" lon="6.12106">
        <ele>616</ele>
        <time>2021-07-22T07:41:19Z</time>
      </trkpt>
      <trkpt lat="47.03829" lon="6.12085">
        <ele>615</ele>
        <time>2021-07-22T07:41:31Z</time>
      </trkpt>
      <trkpt lat="47.03829" lon="6.12067">
        <ele>614</ele>
        <time>2021-07-22T07:41:42Z</time>
      </trkpt>
      <trkpt lat="47.0381" lon="6.12021">
        <ele>610</ele>
        <time>2021-07-22T07:42:13Z</time>
      </trkpt>
      <trkpt lat="47.03806" lon="6.12013">
        <ele>609</ele>
        <time>2021-07-22T07:42:21Z</time>
      </trkpt>
      <trkpt lat="47.03803" lon="6.12004">
        <ele>609</ele>
        <time>2021-07-22T07:42:25Z</time>
      </trkpt>
      <trkpt lat="47.03788" lon="6.11983">
        <ele>607</ele>
        <time>2021-07-22T07:42:42Z</time>
      </trkpt>
      <trkpt lat="47.03785" lon="6.11976">
        <ele>607</ele>
        <time>2021-07-22T07:42:47Z</time>
      </trkpt>
      <trkpt lat="47.03781" lon="6.1197">
        <ele>607</ele>
        <time>2021-07-22T07:42:52Z</time>
      </trkpt>
      <trkpt lat="47.03773" lon="6.11967">
        <ele>606</ele>
        <time>2021-07-22T07:43:00Z</time>
      </trkpt>
      <trkpt lat="47.03766" lon="6.11953">
        <ele>605</ele>
        <time>2021-07-22T07:43:11Z</time>
      </trkpt>
      <trkpt lat="47.03747" lon="6.11931">
        <ele>602</ele>
        <time>2021-07-22T07:43:33Z</time>
      </trkpt>
      <trkpt lat="47.03743" lon="6.11921">
        <ele>601</ele>
        <time>2021-07-22T07:43:43Z</time>
      </trkpt>
      <trkpt lat="47.03743" lon="6.11892">
        <ele>600</ele>
        <time>2021-07-22T07:43:59Z</time>
      </trkpt>
      <trkpt lat="47.03746" lon="6.11866">
        <ele>598</ele>
        <time>2021-07-22T07:44:10Z</time>
      </trkpt>
      <trkpt lat="47.03766" lon="6.11821">
        <ele>595</ele>
        <time>2021-07-22T07:44:41Z</time>
      </trkpt>
      <trkpt lat="47.03769" lon="6.11814">
        <ele>595</ele>
        <time>2021-07-22T07:44:45Z</time>
      </trkpt>
      <trkpt lat="47.03781" lon="6.11794">
        <ele>595</ele>
        <time>2021-07-22T07:44:58Z</time>
      </trkpt>
      <trkpt lat="47.03784" lon="6.11786">
        <ele>594</ele>
        <time>2021-07-22T07:45:02Z</time>
      </trkpt>
      <trkpt lat="47.03792" lon="6.1178">
        <ele>594</ele>
        <time>2021-07-22T07:45:09Z</time>
      </trkpt>
      <trkpt lat="47.03799" lon="6.11767">
        <ele>594</ele>
        <time>2021-07-22T07:45:17Z</time>
      </trkpt>
      <trkpt lat="47.03807" lon="6.11746">
        <ele>594</ele>
        <time>2021-07-22T07:45:31Z</time>
      </trkpt>
      <trkpt lat="47.03812" lon="6.11741">
        <ele>595</ele>
        <time>2021-07-22T07:45:36Z</time>
      </trkpt>
      <trkpt lat="47.03815" lon="6.11734">
        <ele>595</ele>
        <time>2021-07-22T07:45:42Z</time>
      </trkpt>
      <trkpt lat="47.03826" lon="6.11725">
        <ele>596</ele>
        <time>2021-07-22T07:45:52Z</time>
      </trkpt>
      <trkpt lat="47.03849" lon="6.11722">
        <ele>598</ele>
        <time>2021-07-22T07:46:16Z</time>
      </trkpt>
      <trkpt lat="47.03889" lon="6.11717">
        <ele>602</ele>
        <time>2021-07-22T07:46:53Z</time>
      </trkpt>
      <trkpt lat="47.03895" lon="6.11716">
        <ele>602</ele>
        <time>2021-07-22T07:46:58Z</time>
      </trkpt>
      <trkpt lat="47.039" lon="6.11714">
        <ele>603</ele>
        <time>2021-07-22T07:47:03Z</time>
      </trkpt>
      <trkpt lat="47.03906" lon="6.11714">
        <ele>603</ele>
        <time>2021-07-22T07:47:08Z</time>
      </trkpt>
      <trkpt lat="47.03935" lon="6.11703">
        <ele>605</ele>
        <time>2021-07-22T07:47:33Z</time>
      </trkpt>
      <trkpt lat="47.0394" lon="6.11699">
        <ele>605</ele>
        <time>2021-07-22T07:47:37Z</time>
      </trkpt>
      <trkpt lat="47.03945" lon="6.11697">
        <ele>606</ele>
        <time>2021-07-22T07:47:41Z</time>
      </trkpt>
      <trkpt lat="47.03956" lon="6.11689">
        <ele>606</ele>
        <time>2021-07-22T07:47:51Z</time>
      </trkpt>
      <trkpt lat="47.03961" lon="6.11683">
        <ele>607</ele>
        <time>2021-07-22T07:47:55Z</time>
      </trkpt>
      <trkpt lat="47.03967" lon="6.1168">
        <ele>606</ele>
        <time>2021-07-22T07:48:00Z</time>
      </trkpt>
      <trkpt lat="47.03971" lon="6.11675">
        <ele>607</ele>
        <time>2021-07-22T07:48:04Z</time>
      </trkpt>
      <trkpt lat="47.03984" lon="6.11657">
        <ele>608</ele>
        <time>2021-07-22T07:48:18Z</time>
      </trkpt>
      <trkpt lat="47.03989" lon="6.11653">
        <ele>608</ele>
        <time>2021-07-22T07:48:23Z</time>
      </trkpt>
      <trkpt lat="47.04002" lon="6.11631">
        <ele>609</ele>
        <time>2021-07-22T07:48:39Z</time>
      </trkpt>
      <trkpt lat="47.04014" lon="6.11599">
        <ele>609</ele>
        <time>2021-07-22T07:49:03Z</time>
      </trkpt>
      <trkpt lat="47.04019" lon="6.11577">
        <ele>608</ele>
        <time>2021-07-22T07:49:16Z</time>
      </trkpt>
      <trkpt lat="47.04028" lon="6.11546">
        <ele>608</ele>
        <time>2021-07-22T07:49:34Z</time>
      </trkpt>
      <trkpt lat="47.04028" lon="6.11537">
        <ele>608</ele>
        <time>2021-07-22T07:49:39Z</time>
      </trkpt>
      <trkpt lat="47.04043" lon="6.11483">
        <ele>606</ele>
        <time>2021-07-22T07:50:11Z</time>
      </trkpt>
      <trkpt lat="47.04049" lon="6.11461">
        <ele>606</ele>
        <time>2021-07-22T07:50:24Z</time>
      </trkpt>
      <trkpt lat="47.04051" lon="6.11426">
        <ele>605</ele>
        <time>2021-07-22T07:50:44Z</time>
      </trkpt>
      <trkpt lat="47.04056" lon="6.11416">
        <ele>605</ele>
        <time>2021-07-22T07:50:50Z</time>
      </trkpt>
      <trkpt lat="47.04058" lon="6.11404">
        <ele>604</ele>
        <time>2021-07-22T07:50:57Z</time>
      </trkpt>
      <trkpt lat="47.04066" lon="6.11383">
        <ele>604</ele>
        <time>2021-07-22T07:51:08Z</time>
      </trkpt>
      <trkpt lat="47.04077" lon="6.1137">
        <ele>603</ele>
        <time>2021-07-22T07:51:23Z</time>
      </trkpt>
      <trkpt lat="47.04106" lon="6.11356">
        <ele>602</ele>
        <time>2021-07-22T07:51:44Z</time>
      </trkpt>
      <trkpt lat="47.04107" lon="6.11359">
        <ele>602</ele>
        <time>2021-07-22T07:53:26Z</time>
      </trkpt>
      <trkpt lat="47.04099" lon="6.11359">
        <ele>603</ele>
        <time>2021-07-22T07:53:38Z</time>
      </trkpt>
      <trkpt lat="47.04093" lon="6.11363">
        <ele>604</ele>
        <time>2021-07-22T07:53:42Z</time>
      </trkpt>
      <trkpt lat="47.04096" lon="6.11363">
        <ele>602</ele>
        <time>2021-07-22T07:54:19Z</time>
      </trkpt>
      <trkpt lat="47.04103" lon="6.1136">
        <ele>602</ele>
        <time>2021-07-22T07:54:25Z</time>
      </trkpt>
      <trkpt lat="47.04117" lon="6.11348">
        <ele>601</ele>
        <time>2021-07-22T07:55:09Z</time>
      </trkpt>
      <trkpt lat="47.04123" lon="6.11343">
        <ele>601</ele>
        <time>2021-07-22T07:55:14Z</time>
      </trkpt>
      <trkpt lat="47.04128" lon="6.11341">
        <ele>601</ele>
        <time>2021-07-22T07:55:19Z</time>
      </trkpt>
      <trkpt lat="47.04154" lon="6.11331">
        <ele>599</ele>
        <time>2021-07-22T07:55:40Z</time>
      </trkpt>
      <trkpt lat="47.04161" lon="6.11328">
        <ele>599</ele>
        <time>2021-07-22T07:55:47Z</time>
      </trkpt>
      <trkpt lat="47.04163" lon="6.11319">
        <ele>598</ele>
        <time>2021-07-22T07:55:54Z</time>
      </trkpt>
      <trkpt lat="47.04152" lon="6.11303">
        <ele>597</ele>
        <time>2021-07-22T07:56:06Z</time>
      </trkpt>
      <trkpt lat="47.04135" lon="6.11299">
        <ele>595</ele>
        <time>2021-07-22T07:56:21Z</time>
      </trkpt>
      <trkpt lat="47.04132" lon="6.11295">
        <ele>595</ele>
        <time>2021-07-22T07:56:24Z</time>
      </trkpt>
      <trkpt lat="47.04128" lon="6.11294">
        <ele>595</ele>
        <time>2021-07-22T07:56:28Z</time>
      </trkpt>
      <trkpt lat="47.04125" lon="6.11291">
        <ele>595</ele>
        <time>2021-07-22T07:56:32Z</time>
      </trkpt>
      <trkpt lat="47.04097" lon="6.11275">
        <ele>593</ele>
        <time>2021-07-22T07:57:03Z</time>
      </trkpt>
      <trkpt lat="47.04062" lon="6.11263">
        <ele>590</ele>
        <time>2021-07-22T07:57:38Z</time>
      </trkpt>
      <trkpt lat="47.04056" lon="6.11262">
        <ele>589</ele>
        <time>2021-07-22T07:57:43Z</time>
      </trkpt>
      <trkpt lat="47.04033" lon="6.11249">
        <ele>588</ele>
        <time>2021-07-22T07:58:07Z</time>
      </trkpt>
      <trkpt lat="47.04019" lon="6.11245">
        <ele>587</ele>
        <time>2021-07-22T07:58:21Z</time>
      </trkpt>
      <trkpt lat="47.0401" lon="6.11247">
        <ele>586</ele>
        <time>2021-07-22T07:58:31Z</time>
      </trkpt>
      <trkpt lat="47.0399" lon="6.11243">
        <ele>585</ele>
        <time>2021-07-22T07:58:49Z</time>
      </trkpt>
      <trkpt lat="47.03984" lon="6.11245">
        <ele>585</ele>
        <time>2021-07-22T07:58:53Z</time>
      </trkpt>
      <trkpt lat="47.03973" lon="6.11239">
        <ele>584</ele>
        <time>2021-07-22T07:59:02Z</time>
      </trkpt>
      <trkpt lat="47.03929" lon="6.11239">
        <ele>582</ele>
        <time>2021-07-22T07:59:43Z</time>
      </trkpt>
      <trkpt lat="47.03915" lon="6.1124">
        <ele>581</ele>
        <time>2021-07-22T08:00:02Z</time>
      </trkpt>
      <trkpt lat="47.03908" lon="6.11235">
        <ele>580</ele>
        <time>2021-07-22T08:00:09Z</time>
      </trkpt>
      <trkpt lat="47.039" lon="6.11235">
        <ele>580</ele>
        <time>2021-07-22T08:00:17Z</time>
      </trkpt>
      <trkpt lat="47.03892" lon="6.11235">
        <ele>579</ele>
        <time>2021-07-22T08:00:22Z</time>
      </trkpt>
      <trkpt lat="47.03886" lon="6.11238">
        <ele>579</ele>
        <time>2021-07-22T08:00:27Z</time>
      </trkpt>
      <trkpt lat="47.03881" lon="6.11235">
        <ele>579</ele>
        <time>2021-07-22T08:00:33Z</time>
      </trkpt>
      <trkpt lat="47.03876" lon="6.1123">
        <ele>578</ele>
        <time>2021-07-22T08:00:38Z</time>
      </trkpt>
      <trkpt lat="47.03874" lon="6.11227">
        <ele>579</ele>
        <time>2021-07-22T08:01:11Z</time>
      </trkpt>
      <trkpt lat="47.0387" lon="6.11221">
        <ele>579</ele>
        <time>2021-07-22T08:01:17Z</time>
      </trkpt>
      <trkpt lat="47.03864" lon="6.11222">
        <ele>579</ele>
        <time>2021-07-22T08:02:02Z</time>
      </trkpt>
      <trkpt lat="47.03863" lon="6.1121">
        <ele>579</ele>
        <time>2021-07-22T08:02:20Z</time>
      </trkpt>
      <trkpt lat="47.03864" lon="6.11205">
        <ele>580</ele>
        <time>2021-07-22T08:04:33Z</time>
      </trkpt>
      <trkpt lat="47.03859" lon="6.11199">
        <ele>580</ele>
        <time>2021-07-22T08:04:41Z</time>
      </trkpt>
      <trkpt lat="47.03856" lon="6.11193">
        <ele>580</ele>
        <time>2021-07-22T08:04:46Z</time>
      </trkpt>
      <trkpt lat="47.03851" lon="6.11185">
        <ele>580</ele>
        <time>2021-07-22T08:04:54Z</time>
      </trkpt>
      <trkpt lat="47.0385" lon="6.11169">
        <ele>580</ele>
        <time>2021-07-22T08:05:07Z</time>
      </trkpt>
      <trkpt lat="47.03848" lon="6.11158">
        <ele>580</ele>
        <time>2021-07-22T08:05:12Z</time>
      </trkpt>
      <trkpt lat="47.03848" lon="6.1115">
        <ele>580</ele>
        <time>2021-07-22T08:05:16Z</time>
      </trkpt>
      <trkpt lat="47.03851" lon="6.11142">
        <ele>581</ele>
        <time>2021-07-22T08:05:22Z</time>
      </trkpt>
      <trkpt lat="47.03856" lon="6.11134">
        <ele>581</ele>
        <time>2021-07-22T08:05:30Z</time>
      </trkpt>
      <trkpt lat="47.03865" lon="6.11131">
        <ele>582</ele>
        <time>2021-07-22T08:05:39Z</time>
      </trkpt>
      <trkpt lat="47.0387" lon="6.11126">
        <ele>581</ele>
        <time>2021-07-22T08:05:45Z</time>
      </trkpt>
      <trkpt lat="47.03875" lon="6.11124">
        <ele>583</ele>
        <time>2021-07-22T08:05:50Z</time>
      </trkpt>
      <trkpt lat="47.03882" lon="6.11125">
        <ele>583</ele>
        <time>2021-07-22T08:06:04Z</time>
      </trkpt>
      <trkpt lat="47.03897" lon="6.11112">
        <ele>582</ele>
        <time>2021-07-22T08:06:24Z</time>
      </trkpt>
      <trkpt lat="47.03907" lon="6.11111">
        <ele>582</ele>
        <time>2021-07-22T08:06:35Z</time>
      </trkpt>
      <trkpt lat="47.03914" lon="6.11106">
        <ele>582</ele>
        <time>2021-07-22T08:06:49Z</time>
      </trkpt>
      <trkpt lat="47.03931" lon="6.11105">
        <ele>582</ele>
        <time>2021-07-22T08:07:02Z</time>
      </trkpt>
      <trkpt lat="47.03938" lon="6.11108">
        <ele>582</ele>
        <time>2021-07-22T08:07:09Z</time>
      </trkpt>
      <trkpt lat="47.03949" lon="6.11106">
        <ele>582</ele>
        <time>2021-07-22T08:07:19Z</time>
      </trkpt>
      <trkpt lat="47.03986" lon="6.11107">
        <ele>582</ele>
        <time>2021-07-22T08:07:54Z</time>
      </trkpt>
      <trkpt lat="47.03994" lon="6.11094">
        <ele>582</ele>
        <time>2021-07-22T08:08:08Z</time>
      </trkpt>
      <trkpt lat="47.04047" lon="6.1108">
        <ele>582</ele>
        <time>2021-07-22T08:08:45Z</time>
      </trkpt>
      <trkpt lat="47.04073" lon="6.11069">
        <ele>583</ele>
        <time>2021-07-22T08:09:02Z</time>
      </trkpt>
      <trkpt lat="47.04092" lon="6.11044">
        <ele>584</ele>
        <time>2021-07-22T08:09:25Z</time>
      </trkpt>
      <trkpt lat="47.04099" lon="6.11039">
        <ele>584</ele>
        <time>2021-07-22T08:09:32Z</time>
      </trkpt>
      <trkpt lat="47.0411" lon="6.11022">
        <ele>585</ele>
        <time>2021-07-22T08:09:47Z</time>
      </trkpt>
      <trkpt lat="47.04114" lon="6.11014">
        <ele>585</ele>
        <time>2021-07-22T08:09:56Z</time>
      </trkpt>
      <trkpt lat="47.04137" lon="6.10998">
        <ele>587</ele>
        <time>2021-07-22T08:10:20Z</time>
      </trkpt>
      <trkpt lat="47.04143" lon="6.10992">
        <ele>587</ele>
        <time>2021-07-22T08:10:25Z</time>
      </trkpt>
      <trkpt lat="47.04154" lon="6.10973">
        <ele>588</ele>
        <time>2021-07-22T08:10:37Z</time>
      </trkpt>
      <trkpt lat="47.04167" lon="6.10962">
        <ele>589</ele>
        <time>2021-07-22T08:10:53Z</time>
      </trkpt>
      <trkpt lat="47.04181" lon="6.10954">
        <ele>589</ele>
        <time>2021-07-22T08:11:04Z</time>
      </trkpt>
      <trkpt lat="47.042" lon="6.10937">
        <ele>590</ele>
        <time>2021-07-22T08:11:20Z</time>
      </trkpt>
      <trkpt lat="47.04207" lon="6.10926">
        <ele>590</ele>
        <time>2021-07-22T08:11:28Z</time>
      </trkpt>
      <trkpt lat="47.04214" lon="6.10921">
        <ele>590</ele>
        <time>2021-07-22T08:11:34Z</time>
      </trkpt>
      <trkpt lat="47.0422" lon="6.10913">
        <ele>590</ele>
        <time>2021-07-22T08:11:41Z</time>
      </trkpt>
      <trkpt lat="47.04227" lon="6.10909">
        <ele>591</ele>
        <time>2021-07-22T08:11:49Z</time>
      </trkpt>
      <trkpt lat="47.04233" lon="6.109">
        <ele>592</ele>
        <time>2021-07-22T08:11:57Z</time>
      </trkpt>
      <trkpt lat="47.04245" lon="6.10889">
        <ele>592</ele>
        <time>2021-07-22T08:12:10Z</time>
      </trkpt>
      <trkpt lat="47.04255" lon="6.10872">
        <ele>592</ele>
        <time>2021-07-22T08:12:24Z</time>
      </trkpt>
      <trkpt lat="47.04287" lon="6.10838">
        <ele>593</ele>
        <time>2021-07-22T08:12:58Z</time>
      </trkpt>
      <trkpt lat="47.04312" lon="6.10815">
        <ele>594</ele>
        <time>2021-07-22T08:13:23Z</time>
      </trkpt>
      <trkpt lat="47.04318" lon="6.10804">
        <ele>595</ele>
        <time>2021-07-22T08:13:32Z</time>
      </trkpt>
      <trkpt lat="47.04338" lon="6.10783">
        <ele>596</ele>
        <time>2021-07-22T08:13:54Z</time>
      </trkpt>
      <trkpt lat="47.04344" lon="6.10775">
        <ele>597</ele>
        <time>2021-07-22T08:14:01Z</time>
      </trkpt>
      <trkpt lat="47.04353" lon="6.10768">
        <ele>597</ele>
        <time>2021-07-22T08:14:11Z</time>
      </trkpt>
      <trkpt lat="47.04364" lon="6.10752">
        <ele>598</ele>
        <time>2021-07-22T08:14:22Z</time>
      </trkpt>
      <trkpt lat="47.04367" lon="6.10743">
        <ele>598</ele>
        <time>2021-07-22T08:14:29Z</time>
      </trkpt>
      <trkpt lat="47.04371" lon="6.10726">
        <ele>598</ele>
        <time>2021-07-22T08:14:41Z</time>
      </trkpt>
      <trkpt lat="47.0437" lon="6.10717">
        <ele>600</ele>
        <time>2021-07-22T08:14:46Z</time>
      </trkpt>
      <trkpt lat="47.0437" lon="6.10708">
        <ele>600</ele>
        <time>2021-07-22T08:15:03Z</time>
      </trkpt>
      <trkpt lat="47.04371" lon="6.10699">
        <ele>600</ele>
        <time>2021-07-22T08:15:09Z</time>
      </trkpt>
      <trkpt lat="47.0437" lon="6.10682">
        <ele>600</ele>
        <time>2021-07-22T08:15:19Z</time>
      </trkpt>
      <trkpt lat="47.04371" lon="6.10673">
        <ele>601</ele>
        <time>2021-07-22T08:15:24Z</time>
      </trkpt>
      <trkpt lat="47.04374" lon="6.10664">
        <ele>601</ele>
        <time>2021-07-22T08:15:34Z</time>
      </trkpt>
      <trkpt lat="47.0438" lon="6.10668">
        <ele>600</ele>
        <time>2021-07-22T08:15:39Z</time>
      </trkpt>
      <trkpt lat="47.04395" lon="6.10669">
        <ele>600</ele>
        <time>2021-07-22T08:15:52Z</time>
      </trkpt>
      <trkpt lat="47.04407" lon="6.10666">
        <ele>600</ele>
        <time>2021-07-22T08:16:02Z</time>
      </trkpt>
      <trkpt lat="47.04419" lon="6.10666">
        <ele>600</ele>
        <time>2021-07-22T08:16:11Z</time>
      </trkpt>
      <trkpt lat="47.04424" lon="6.10667">
        <ele>600</ele>
        <time>2021-07-22T08:16:15Z</time>
      </trkpt>
      <trkpt lat="47.04442" lon="6.10665">
        <ele>600</ele>
        <time>2021-07-22T08:16:30Z</time>
      </trkpt>
      <trkpt lat="47.04455" lon="6.10659">
        <ele>601</ele>
        <time>2021-07-22T08:16:42Z</time>
      </trkpt>
      <trkpt lat="47.0449" lon="6.10624">
        <ele>600</ele>
        <time>2021-07-22T08:17:15Z</time>
      </trkpt>
      <trkpt lat="47.04519" lon="6.10589">
        <ele>600</ele>
        <time>2021-07-22T08:17:45Z</time>
      </trkpt>
      <trkpt lat="47.04523" lon="6.10581">
        <ele>600</ele>
        <time>2021-07-22T08:17:50Z</time>
      </trkpt>
      <trkpt lat="47.04534" lon="6.10572">
        <ele>600</ele>
        <time>2021-07-22T08:18:01Z</time>
      </trkpt>
      <trkpt lat="47.04544" lon="6.10555">
        <ele>600</ele>
        <time>2021-07-22T08:18:15Z</time>
      </trkpt>
      <trkpt lat="47.04544" lon="6.10547">
        <ele>600</ele>
        <time>2021-07-22T08:18:19Z</time>
      </trkpt>
      <trkpt lat="47.04549" lon="6.10547">
        <ele>601</ele>
        <time>2021-07-22T08:19:25Z</time>
      </trkpt>
      <trkpt lat="47.04554" lon="6.1055">
        <ele>601</ele>
        <time>2021-07-22T08:19:30Z</time>
      </trkpt>
      <trkpt lat="47.04559" lon="6.10548">
        <ele>601</ele>
        <time>2021-07-22T08:19:34Z</time>
      </trkpt>
      <trkpt lat="47.04569" lon="6.10537">
        <ele>601</ele>
        <time>2021-07-22T08:19:42Z</time>
      </trkpt>
      <trkpt lat="47.04575" lon="6.10533">
        <ele>602</ele>
        <time>2021-07-22T08:19:46Z</time>
      </trkpt>
      <trkpt lat="47.04585" lon="6.10524">
        <ele>602</ele>
        <time>2021-07-22T08:19:57Z</time>
      </trkpt>
      <trkpt lat="47.04614" lon="6.10492">
        <ele>601</ele>
        <time>2021-07-22T08:20:29Z</time>
      </trkpt>
      <trkpt lat="47.04618" lon="6.10487">
        <ele>601</ele>
        <time>2021-07-22T08:20:33Z</time>
      </trkpt>
      <trkpt lat="47.04642" lon="6.10447">
        <ele>600</ele>
        <time>2021-07-22T08:21:03Z</time>
      </trkpt>
      <trkpt lat="47.04652" lon="6.10427">
        <ele>600</ele>
        <time>2021-07-22T08:21:18Z</time>
      </trkpt>
      <trkpt lat="47.04657" lon="6.10421">
        <ele>599</ele>
        <time>2021-07-22T08:21:23Z</time>
      </trkpt>
      <trkpt lat="47.0466" lon="6.10413">
        <ele>599</ele>
        <time>2021-07-22T08:21:28Z</time>
      </trkpt>
      <trkpt lat="47.04664" lon="6.10381">
        <ele>598</ele>
        <time>2021-07-22T08:21:45Z</time>
      </trkpt>
      <trkpt lat="47.04674" lon="6.10349">
        <ele>598</ele>
        <time>2021-07-22T08:22:03Z</time>
      </trkpt>
      <trkpt lat="47.04677" lon="6.10343">
        <ele>597</ele>
        <time>2021-07-22T08:22:08Z</time>
      </trkpt>
      <trkpt lat="47.04678" lon="6.10326">
        <ele>597</ele>
        <time>2021-07-22T08:22:19Z</time>
      </trkpt>
      <trkpt lat="47.04681" lon="6.10314">
        <ele>596</ele>
        <time>2021-07-22T08:22:26Z</time>
      </trkpt>
      <trkpt lat="47.04685" lon="6.10306">
        <ele>596</ele>
        <time>2021-07-22T08:22:31Z</time>
      </trkpt>
      <trkpt lat="47.04694" lon="6.10264">
        <ele>594</ele>
        <time>2021-07-22T08:22:53Z</time>
      </trkpt>
      <trkpt lat="47.04697" lon="6.10255">
        <ele>593</ele>
        <time>2021-07-22T08:23:01Z</time>
      </trkpt>
      <trkpt lat="47.04702" lon="6.10237">
        <ele>592</ele>
        <time>2021-07-22T08:23:10Z</time>
      </trkpt>
      <trkpt lat="47.04717" lon="6.10206">
        <ele>591</ele>
        <time>2021-07-22T08:23:30Z</time>
      </trkpt>
      <trkpt lat="47.04724" lon="6.10194">
        <ele>590</ele>
        <time>2021-07-22T08:23:40Z</time>
      </trkpt>
      <trkpt lat="47.04731" lon="6.10179">
        <ele>589</ele>
        <time>2021-07-22T08:23:51Z</time>
      </trkpt>
      <trkpt lat="47.04764" lon="6.10155">
        <ele>588</ele>
        <time>2021-07-22T08:24:26Z</time>
      </trkpt>
      <trkpt lat="47.04771" lon="6.10147">
        <ele>588</ele>
        <time>2021-07-22T08:24:35Z</time>
      </trkpt>
      <trkpt lat="47.04789" lon="6.10117">
        <ele>587</ele>
        <time>2021-07-22T08:24:59Z</time>
      </trkpt>
      <trkpt lat="47.04792" lon="6.10102">
        <ele>587</ele>
        <time>2021-07-22T08:25:09Z</time>
      </trkpt>
      <trkpt lat="47.04801" lon="6.10081">
        <ele>586</ele>
        <time>2021-07-22T08:25:21Z</time>
      </trkpt>
      <trkpt lat="47.04814" lon="6.10071">
        <ele>586</ele>
        <time>2021-07-22T08:25:31Z</time>
      </trkpt>
      <trkpt lat="47.04823" lon="6.10046">
        <ele>586</ele>
        <time>2021-07-22T08:25:55Z</time>
      </trkpt>
      <trkpt lat="47.04829" lon="6.1">
        <ele>585</ele>
        <time>2021-07-22T08:26:27Z</time>
      </trkpt>
      <trkpt lat="47.0484" lon="6.09947">
        <ele>584</ele>
        <time>2021-07-22T08:27:10Z</time>
      </trkpt>
      <trkpt lat="47.04832" lon="6.09927">
        <ele>584</ele>
        <time>2021-07-22T08:27:19Z</time>
      </trkpt>
      <trkpt lat="47.04828" lon="6.09907">
        <ele>582</ele>
        <time>2021-07-22T08:27:44Z</time>
      </trkpt>
      <trkpt lat="47.04827" lon="6.09895">
        <ele>580</ele>
        <time>2021-07-22T08:27:56Z</time>
      </trkpt>
      <trkpt lat="47.04815" lon="6.09858">
        <ele>576</ele>
        <time>2021-07-22T08:28:30Z</time>
      </trkpt>
      <trkpt lat="47.04796" lon="6.09796">
        <ele>572</ele>
        <time>2021-07-22T08:29:03Z</time>
      </trkpt>
      <trkpt lat="47.04794" lon="6.09776">
        <ele>571</ele>
        <time>2021-07-22T08:29:12Z</time>
      </trkpt>
      <trkpt lat="47.04776" lon="6.0973">
        <ele>567</ele>
        <time>2021-07-22T08:29:42Z</time>
      </trkpt>
      <trkpt lat="47.04766" lon="6.09739">
        <ele>567</ele>
        <time>2021-07-22T08:30:02Z</time>
      </trkpt>
      <trkpt lat="47.04751" lon="6.09755">
        <ele>564</ele>
        <time>2021-07-22T08:30:27Z</time>
      </trkpt>
      <trkpt lat="47.04754" lon="6.09781">
        <ele>564</ele>
        <time>2021-07-22T08:30:48Z</time>
      </trkpt>
      <trkpt lat="47.04752" lon="6.09794">
        <ele>564</ele>
        <time>2021-07-22T08:30:55Z</time>
      </trkpt>
      <trkpt lat="47.04748" lon="6.09805">
        <ele>564</ele>
        <time>2021-07-22T08:31:09Z</time>
      </trkpt>
      <trkpt lat="47.04745" lon="6.09815">
        <ele>563</ele>
        <time>2021-07-22T08:31:17Z</time>
      </trkpt>
      <trkpt lat="47.0474" lon="6.09853">
        <ele>562</ele>
        <time>2021-07-22T08:31:36Z</time>
      </trkpt>
      <trkpt lat="47.04736" lon="6.09894">
        <ele>563</ele>
        <time>2021-07-22T08:31:56Z</time>
      </trkpt>
      <trkpt lat="47.04743" lon="6.09936">
        <ele>563</ele>
        <time>2021-07-22T08:32:20Z</time>
      </trkpt>
      <trkpt lat="47.04744" lon="6.09958">
        <ele>563</ele>
        <time>2021-07-22T08:32:52Z</time>
      </trkpt>
      <trkpt lat="47.0474" lon="6.09978">
        <ele>560</ele>
        <time>2021-07-22T08:33:11Z</time>
      </trkpt>
      <trkpt lat="47.04723" lon="6.09944">
        <ele>556</ele>
        <time>2021-07-22T08:33:48Z</time>
      </trkpt>
      <trkpt lat="47.04715" lon="6.0993">
        <ele>557</ele>
        <time>2021-07-22T08:34:15Z</time>
      </trkpt>
      <trkpt lat="47.04697" lon="6.09908">
        <ele>563</ele>
        <time>2021-07-22T08:34:49Z</time>
      </trkpt>
      <trkpt lat="47.0469" lon="6.09888">
        <ele>560</ele>
        <time>2021-07-22T08:35:15Z</time>
      </trkpt>
      <trkpt lat="47.04688" lon="6.09845">
        <ele>558</ele>
        <time>2021-07-22T08:35:39Z</time>
      </trkpt>
      <trkpt lat="47.04673" lon="6.09819">
        <ele>555</ele>
        <time>2021-07-22T08:36:13Z</time>
      </trkpt>
      <trkpt lat="47.04667" lon="6.09797">
        <ele>553</ele>
        <time>2021-07-22T08:36:34Z</time>
      </trkpt>
      <trkpt lat="47.04657" lon="6.09799">
        <ele>554</ele>
        <time>2021-07-22T08:37:10Z</time>
      </trkpt>
      <trkpt lat="47.04646" lon="6.09802">
        <ele>555</ele>
        <time>2021-07-22T08:37:24Z</time>
      </trkpt>
      <trkpt lat="47.04638" lon="6.098">
        <ele>556</ele>
        <time>2021-07-22T08:37:30Z</time>
      </trkpt>
      <trkpt lat="47.04614" lon="6.09796">
        <ele>557</ele>
        <time>2021-07-22T08:37:46Z</time>
      </trkpt>
      <trkpt lat="47.04607" lon="6.09797">
        <ele>557</ele>
        <time>2021-07-22T08:37:52Z</time>
      </trkpt>
      <trkpt lat="47.046" lon="6.09809">
        <ele>556</ele>
        <time>2021-07-22T08:41:13Z</time>
      </trkpt>
      <trkpt lat="47.04594" lon="6.09812">
        <ele>556</ele>
        <time>2021-07-22T08:41:17Z</time>
      </trkpt>
      <trkpt lat="47.04585" lon="6.09811">
        <ele>557</ele>
        <time>2021-07-22T08:41:26Z</time>
      </trkpt>
      <trkpt lat="47.04569" lon="6.0981">
        <ele>557</ele>
        <time>2021-07-22T08:41:41Z</time>
      </trkpt>
      <trkpt lat="47.0454" lon="6.09811">
        <ele>558</ele>
        <time>2021-07-22T08:42:06Z</time>
      </trkpt>
      <trkpt lat="47.04532" lon="6.09815">
        <ele>558</ele>
        <time>2021-07-22T08:42:13Z</time>
      </trkpt>
      <trkpt lat="47.04524" lon="6.09815">
        <ele>558</ele>
        <time>2021-07-22T08:42:19Z</time>
      </trkpt>
      <trkpt lat="47.04516" lon="6.09816">
        <ele>558</ele>
        <time>2021-07-22T08:42:26Z</time>
      </trkpt>
      <trkpt lat="47.04495" lon="6.09832">
        <ele>558</ele>
        <time>2021-07-22T08:42:47Z</time>
      </trkpt>
      <trkpt lat="47.04481" lon="6.09838">
        <ele>559</ele>
        <time>2021-07-22T08:43:00Z</time>
      </trkpt>
      <trkpt lat="47.04473" lon="6.09839">
        <ele>558</ele>
        <time>2021-07-22T08:43:08Z</time>
      </trkpt>
      <trkpt lat="47.04466" lon="6.09843">
        <ele>558</ele>
        <time>2021-07-22T08:43:15Z</time>
      </trkpt>
      <trkpt lat="47.04461" lon="6.09852">
        <ele>559</ele>
        <time>2021-07-22T08:43:29Z</time>
      </trkpt>
      <trkpt lat="47.04463" lon="6.0986">
        <ele>557</ele>
        <time>2021-07-22T08:44:05Z</time>
      </trkpt>
      <trkpt lat="47.04454" lon="6.0987">
        <ele>557</ele>
        <time>2021-07-22T08:44:19Z</time>
      </trkpt>
      <trkpt lat="47.04447" lon="6.09876">
        <ele>557</ele>
        <time>2021-07-22T08:44:48Z</time>
      </trkpt>
      <trkpt lat="47.04444" lon="6.09886">
        <ele>557</ele>
        <time>2021-07-22T08:45:00Z</time>
      </trkpt>
      <trkpt lat="47.04436" lon="6.09895">
        <ele>554</ele>
        <time>2021-07-22T08:45:21Z</time>
      </trkpt>
      <trkpt lat="47.04428" lon="6.0989">
        <ele>552</ele>
        <time>2021-07-22T08:45:30Z</time>
      </trkpt>
      <trkpt lat="47.04425" lon="6.0988">
        <ele>550</ele>
        <time>2021-07-22T08:45:42Z</time>
      </trkpt>
      <trkpt lat="47.04424" lon="6.09863">
        <ele>548</ele>
        <time>2021-07-22T08:46:01Z</time>
      </trkpt>
      <trkpt lat="47.04418" lon="6.09857">
        <ele>547</ele>
        <time>2021-07-22T08:46:16Z</time>
      </trkpt>
      <trkpt lat="47.0441" lon="6.09859">
        <ele>546</ele>
        <time>2021-07-22T08:46:28Z</time>
      </trkpt>
      <trkpt lat="47.04406" lon="6.0987">
        <ele>547</ele>
        <time>2021-07-22T08:46:40Z</time>
      </trkpt>
      <trkpt lat="47.04396" lon="6.09874">
        <ele>547</ele>
        <time>2021-07-22T08:46:54Z</time>
      </trkpt>
      <trkpt lat="47.04389" lon="6.09877">
        <ele>547</ele>
        <time>2021-07-22T08:47:06Z</time>
      </trkpt>
      <trkpt lat="47.0438" lon="6.09879">
        <ele>547</ele>
        <time>2021-07-22T08:47:50Z</time>
      </trkpt>
      <trkpt lat="47.04372" lon="6.09879">
        <ele>547</ele>
        <time>2021-07-22T08:48:16Z</time>
      </trkpt>
      <trkpt lat="47.04372" lon="6.09883">
        <ele>548</ele>
        <time>2021-07-22T08:49:40Z</time>
      </trkpt>
      <trkpt lat="47.04389" lon="6.09876">
        <ele>549</ele>
        <time>2021-07-22T08:50:13Z</time>
      </trkpt>
      <trkpt lat="47.04394" lon="6.09856">
        <ele>548</ele>
        <time>2021-07-22T08:50:40Z</time>
      </trkpt>
      <trkpt lat="47.04393" lon="6.09846">
        <ele>550</ele>
        <time>2021-07-22T08:50:57Z</time>
      </trkpt>
      <trkpt lat="47.04383" lon="6.0984">
        <ele>553</ele>
        <time>2021-07-22T08:51:18Z</time>
      </trkpt>
      <trkpt lat="47.04375" lon="6.09838">
        <ele>554</ele>
        <time>2021-07-22T08:51:24Z</time>
      </trkpt>
      <trkpt lat="47.04371" lon="6.09827">
        <ele>555</ele>
        <time>2021-07-22T08:51:33Z</time>
      </trkpt>
      <trkpt lat="47.04368" lon="6.09812">
        <ele>557</ele>
        <time>2021-07-22T08:51:49Z</time>
      </trkpt>
      <trkpt lat="47.04372" lon="6.09785">
        <ele>561</ele>
        <time>2021-07-22T08:52:15Z</time>
      </trkpt>
      <trkpt lat="47.04371" lon="6.09772">
        <ele>565</ele>
        <time>2021-07-22T08:52:41Z</time>
      </trkpt>
      <trkpt lat="47.04365" lon="6.09765">
        <ele>567</ele>
        <time>2021-07-22T08:52:59Z</time>
      </trkpt>
      <trkpt lat="47.04372" lon="6.09758">
        <ele>571</ele>
        <time>2021-07-22T08:53:23Z</time>
      </trkpt>
      <trkpt lat="47.04377" lon="6.0975">
        <ele>572</ele>
        <time>2021-07-22T08:53:35Z</time>
      </trkpt>
      <trkpt lat="47.04373" lon="6.09734">
        <ele>575</ele>
        <time>2021-07-22T08:53:53Z</time>
      </trkpt>
      <trkpt lat="47.04374" lon="6.09716">
        <ele>580</ele>
        <time>2021-07-22T08:54:37Z</time>
      </trkpt>
      <trkpt lat="47.0437" lon="6.09707">
        <ele>581</ele>
        <time>2021-07-22T08:54:44Z</time>
      </trkpt>
      <trkpt lat="47.04368" lon="6.09691">
        <ele>582</ele>
        <time>2021-07-22T08:55:02Z</time>
      </trkpt>
      <trkpt lat="47.04368" lon="6.09682">
        <ele>584</ele>
        <time>2021-07-22T08:55:14Z</time>
      </trkpt>
      <trkpt lat="47.0436" lon="6.09674">
        <ele>585</ele>
        <time>2021-07-22T08:55:59Z</time>
      </trkpt>
      <trkpt lat="47.04356" lon="6.09679">
        <ele>584</ele>
        <time>2021-07-22T08:57:04Z</time>
      </trkpt>
      <trkpt lat="47.0435" lon="6.09681">
        <ele>584</ele>
        <time>2021-07-22T08:57:34Z</time>
      </trkpt>
      <trkpt lat="47.04352" lon="6.09679">
        <ele>583</ele>
        <time>2021-07-22T08:58:15Z</time>
      </trkpt>
      <trkpt lat="47.04353" lon="6.09671">
        <ele>583</ele>
        <time>2021-07-22T08:58:19Z</time>
      </trkpt>
      <trkpt lat="47.04355" lon="6.09659">
        <ele>585</ele>
        <time>2021-07-22T08:58:32Z</time>
      </trkpt>
      <trkpt lat="47.0436" lon="6.09653">
        <ele>585</ele>
        <time>2021-07-22T08:58:37Z</time>
      </trkpt>
      <trkpt lat="47.04363" lon="6.09639">
        <ele>586</ele>
        <time>2021-07-22T08:58:46Z</time>
      </trkpt>
      <trkpt lat="47.04364" lon="6.09622">
        <ele>586</ele>
        <time>2021-07-22T08:59:03Z</time>
      </trkpt>
      <trkpt lat="47.04363" lon="6.09611">
        <ele>586</ele>
        <time>2021-07-22T08:59:09Z</time>
      </trkpt>
      <trkpt lat="47.04357" lon="6.09603">
        <ele>586</ele>
        <time>2021-07-22T08:59:15Z</time>
      </trkpt>
      <trkpt lat="47.04354" lon="6.09565">
        <ele>587</ele>
        <time>2021-07-22T08:59:36Z</time>
      </trkpt>
      <trkpt lat="47.0435" lon="6.09553">
        <ele>587</ele>
        <time>2021-07-22T08:59:48Z</time>
      </trkpt>
      <trkpt lat="47.04347" lon="6.09529">
        <ele>586</ele>
        <time>2021-07-22T09:00:04Z</time>
      </trkpt>
      <trkpt lat="47.04349" lon="6.09484">
        <ele>585</ele>
        <time>2021-07-22T09:00:30Z</time>
      </trkpt>
      <trkpt lat="47.04351" lon="6.09466">
        <ele>584</ele>
        <time>2021-07-22T09:00:46Z</time>
      </trkpt>
      <trkpt lat="47.0435" lon="6.09438">
        <ele>582</ele>
        <time>2021-07-22T09:01:04Z</time>
      </trkpt>
      <trkpt lat="47.04346" lon="6.09425">
        <ele>580</ele>
        <time>2021-07-22T09:01:16Z</time>
      </trkpt>
      <trkpt lat="47.04347" lon="6.09403">
        <ele>579</ele>
        <time>2021-07-22T09:01:30Z</time>
      </trkpt>
      <trkpt lat="47.04335" lon="6.09367">
        <ele>575</ele>
        <time>2021-07-22T09:01:56Z</time>
      </trkpt>
      <trkpt lat="47.04331" lon="6.09313">
        <ele>570</ele>
        <time>2021-07-22T09:02:30Z</time>
      </trkpt>
      <trkpt lat="47.04328" lon="6.09301">
        <ele>568</ele>
        <time>2021-07-22T09:02:42Z</time>
      </trkpt>
      <trkpt lat="47.04328" lon="6.09291">
        <ele>566</ele>
        <time>2021-07-22T09:02:54Z</time>
      </trkpt>
      <trkpt lat="47.04333" lon="6.09261">
        <ele>559</ele>
        <time>2021-07-22T09:03:37Z</time>
      </trkpt>
      <trkpt lat="47.0434" lon="6.09257">
        <ele>558</ele>
        <time>2021-07-22T09:04:00Z</time>
      </trkpt>
      <trkpt lat="47.04348" lon="6.09257">
        <ele>557</ele>
        <time>2021-07-22T09:04:18Z</time>
      </trkpt>
      <trkpt lat="47.04354" lon="6.09258">
        <ele>556</ele>
        <time>2021-07-22T09:04:30Z</time>
      </trkpt>
      <trkpt lat="47.04364" lon="6.09257">
        <ele>556</ele>
        <time>2021-07-22T09:04:43Z</time>
      </trkpt>
      <trkpt lat="47.04372" lon="6.09262">
        <ele>556</ele>
        <time>2021-07-22T09:04:49Z</time>
      </trkpt>
      <trkpt lat="47.04378" lon="6.09261">
        <ele>555</ele>
        <time>2021-07-22T09:04:55Z</time>
      </trkpt>
      <trkpt lat="47.04386" lon="6.09255">
        <ele>555</ele>
        <time>2021-07-22T09:05:08Z</time>
      </trkpt>
      <trkpt lat="47.04402" lon="6.09242">
        <ele>555</ele>
        <time>2021-07-22T09:05:21Z</time>
      </trkpt>
      <trkpt lat="47.04416" lon="6.09236">
        <ele>555</ele>
        <time>2021-07-22T09:05:27Z</time>
      </trkpt>
      <trkpt lat="47.04432" lon="6.09237">
        <ele>554</ele>
        <time>2021-07-22T09:05:36Z</time>
      </trkpt>
      <trkpt lat="47.04452" lon="6.09246">
        <ele>554</ele>
        <time>2021-07-22T09:05:46Z</time>
      </trkpt>
      <trkpt lat="47.04466" lon="6.09252">
        <ele>553</ele>
        <time>2021-07-22T09:06:01Z</time>
      </trkpt>
      <trkpt lat="47.04474" lon="6.09246">
        <ele>553</ele>
        <time>2021-07-22T09:06:13Z</time>
      </trkpt>
      <trkpt lat="47.04479" lon="6.09241">
        <ele>552</ele>
        <time>2021-07-22T09:06:18Z</time>
      </trkpt>
      <trkpt lat="47.04489" lon="6.09239">
        <ele>552</ele>
        <time>2021-07-22T09:06:30Z</time>
      </trkpt>
      <trkpt lat="47.04508" lon="6.09235">
        <ele>552</ele>
        <time>2021-07-22T09:06:55Z</time>
      </trkpt>
      <trkpt lat="47.04518" lon="6.09237">
        <ele>551</ele>
        <time>2021-07-22T09:07:04Z</time>
      </trkpt>
      <trkpt lat="47.04536" lon="6.09233">
        <ele>550</ele>
        <time>2021-07-22T09:07:20Z</time>
      </trkpt>
      <trkpt lat="47.04543" lon="6.09227">
        <ele>550</ele>
        <time>2021-07-22T09:07:35Z</time>
      </trkpt>
      <trkpt lat="47.04549" lon="6.09225">
        <ele>549</ele>
        <time>2021-07-22T09:07:42Z</time>
      </trkpt>
      <trkpt lat="47.04555" lon="6.09227">
        <ele>549</ele>
        <time>2021-07-22T09:07:47Z</time>
      </trkpt>
      <trkpt lat="47.04561" lon="6.09225">
        <ele>549</ele>
        <time>2021-07-22T09:07:52Z</time>
      </trkpt>
      <trkpt lat="47.04569" lon="6.09212">
        <ele>548</ele>
        <time>2021-07-22T09:08:02Z</time>
      </trkpt>
      <trkpt lat="47.04578" lon="6.09201">
        <ele>548</ele>
        <time>2021-07-22T09:08:18Z</time>
      </trkpt>
      <trkpt lat="47.04586" lon="6.09197">
        <ele>549</ele>
        <time>2021-07-22T09:08:31Z</time>
      </trkpt>
      <trkpt lat="47.04593" lon="6.09196">
        <ele>549</ele>
        <time>2021-07-22T09:08:38Z</time>
      </trkpt>
      <trkpt lat="47.04609" lon="6.09186">
        <ele>548</ele>
        <time>2021-07-22T09:08:48Z</time>
      </trkpt>
      <trkpt lat="47.04653" lon="6.09172">
        <ele>549</ele>
        <time>2021-07-22T09:09:25Z</time>
      </trkpt>
      <trkpt lat="47.04667" lon="6.09164">
        <ele>550</ele>
        <time>2021-07-22T09:09:37Z</time>
      </trkpt>
      <trkpt lat="47.04671" lon="6.0916">
        <ele>551</ele>
        <time>2021-07-22T09:09:48Z</time>
      </trkpt>
      <trkpt lat="47.04691" lon="6.09139">
        <ele>552</ele>
        <time>2021-07-22T09:10:12Z</time>
      </trkpt>
      <trkpt lat="47.04699" lon="6.09135">
        <ele>553</ele>
        <time>2021-07-22T09:10:19Z</time>
      </trkpt>
      <trkpt lat="47.04713" lon="6.09119">
        <ele>555</ele>
        <time>2021-07-22T09:10:34Z</time>
      </trkpt>
      <trkpt lat="47.04721" lon="6.09109">
        <ele>557</ele>
        <time>2021-07-22T09:10:45Z</time>
      </trkpt>
      <trkpt lat="47.04725" lon="6.09104">
        <ele>558</ele>
        <time>2021-07-22T09:10:53Z</time>
      </trkpt>
      <trkpt lat="47.04732" lon="6.09088">
        <ele>560</ele>
        <time>2021-07-22T09:11:09Z</time>
      </trkpt>
      <trkpt lat="47.04732" lon="6.09075">
        <ele>562</ele>
        <time>2021-07-22T09:11:22Z</time>
      </trkpt>
      <trkpt lat="47.04733" lon="6.09067">
        <ele>563</ele>
        <time>2021-07-22T09:11:34Z</time>
      </trkpt>
      <trkpt lat="47.04721" lon="6.09062">
        <ele>564</ele>
        <time>2021-07-22T09:11:54Z</time>
      </trkpt>
      <trkpt lat="47.04717" lon="6.09052">
        <ele>565</ele>
        <time>2021-07-22T09:12:04Z</time>
      </trkpt>
      <trkpt lat="47.04712" lon="6.0904">
        <ele>566</ele>
        <time>2021-07-22T09:12:18Z</time>
      </trkpt>
      <trkpt lat="47.04707" lon="6.09032">
        <ele>567</ele>
        <time>2021-07-22T09:12:24Z</time>
      </trkpt>
      <trkpt lat="47.04706" lon="6.09017">
        <ele>568</ele>
        <time>2021-07-22T09:12:34Z</time>
      </trkpt>
      <trkpt lat="47.04709" lon="6.09002">
        <ele>568</ele>
        <time>2021-07-22T09:12:48Z</time>
      </trkpt>
      <trkpt lat="47.04715" lon="6.08978">
        <ele>568</ele>
        <time>2021-07-22T09:13:05Z</time>
      </trkpt>
      <trkpt lat="47.04717" lon="6.08955">
        <ele>568</ele>
        <time>2021-07-22T09:13:18Z</time>
      </trkpt>
      <trkpt lat="47.04716" lon="6.0894">
        <ele>569</ele>
        <time>2021-07-22T09:13:35Z</time>
      </trkpt>
      <trkpt lat="47.04723" lon="6.08935">
        <ele>568</ele>
        <time>2021-07-22T09:13:52Z</time>
      </trkpt>
      <trkpt lat="47.04728" lon="6.08935">
        <ele>568</ele>
        <time>2021-07-22T09:13:56Z</time>
      </trkpt>
      <trkpt lat="47.04749" lon="6.08922">
        <ele>568</ele>
        <time>2021-07-22T09:14:15Z</time>
      </trkpt>
      <trkpt lat="47.04753" lon="6.08915">
        <ele>567</ele>
        <time>2021-07-22T09:14:20Z</time>
      </trkpt>
      <trkpt lat="47.04757" lon="6.08893">
        <ele>566</ele>
        <time>2021-07-22T09:14:36Z</time>
      </trkpt>
      <trkpt lat="47.04756" lon="6.08883">
        <ele>566</ele>
        <time>2021-07-22T09:14:55Z</time>
      </trkpt>
      <trkpt lat="47.04763" lon="6.08878">
        <ele>565</ele>
        <time>2021-07-22T09:15:14Z</time>
      </trkpt>
      <trkpt lat="47.04767" lon="6.08874">
        <ele>566</ele>
        <time>2021-07-22T09:15:18Z</time>
      </trkpt>
      <trkpt lat="47.04769" lon="6.08866">
        <ele>565</ele>
        <time>2021-07-22T09:15:24Z</time>
      </trkpt>
      <trkpt lat="47.04774" lon="6.08825">
        <ele>562</ele>
        <time>2021-07-22T09:15:54Z</time>
      </trkpt>
      <trkpt lat="47.04777" lon="6.08818">
        <ele>562</ele>
        <time>2021-07-22T09:16:01Z</time>
      </trkpt>
      <trkpt lat="47.04789" lon="6.08799">
        <ele>561</ele>
        <time>2021-07-22T09:16:18Z</time>
      </trkpt>
      <trkpt lat="47.04807" lon="6.08769">
        <ele>559</ele>
        <time>2021-07-22T09:16:46Z</time>
      </trkpt>
      <trkpt lat="47.04822" lon="6.0875">
        <ele>558</ele>
        <time>2021-07-22T09:17:02Z</time>
      </trkpt>
      <trkpt lat="47.04835" lon="6.0874">
        <ele>557</ele>
        <time>2021-07-22T09:17:15Z</time>
      </trkpt>
      <trkpt lat="47.04839" lon="6.08732">
        <ele>557</ele>
        <time>2021-07-22T09:17:22Z</time>
      </trkpt>
      <trkpt lat="47.04845" lon="6.08719">
        <ele>557</ele>
        <time>2021-07-22T09:17:36Z</time>
      </trkpt>
      <trkpt lat="47.0485" lon="6.08715">
        <ele>557</ele>
        <time>2021-07-22T09:17:44Z</time>
      </trkpt>
      <trkpt lat="47.04857" lon="6.08715">
        <ele>556</ele>
        <time>2021-07-22T09:17:48Z</time>
      </trkpt>
      <trkpt lat="47.0486" lon="6.08709">
        <ele>556</ele>
        <time>2021-07-22T09:17:54Z</time>
      </trkpt>
      <trkpt lat="47.04865" lon="6.08708">
        <ele>557</ele>
        <time>2021-07-22T09:18:46Z</time>
      </trkpt>
      <trkpt lat="47.04864" lon="6.08707">
        <ele>555</ele>
        <time>2021-07-22T09:21:17Z</time>
      </trkpt>
      <trkpt lat="47.04858" lon="6.0872">
        <ele>553</ele>
        <time>2021-07-22T09:25:18Z</time>
      </trkpt>
      <trkpt lat="47.04851" lon="6.08724">
        <ele>554</ele>
        <time>2021-07-22T09:25:25Z</time>
      </trkpt>
      <trkpt lat="47.04838" lon="6.08742">
        <ele>554</ele>
        <time>2021-07-22T09:25:42Z</time>
      </trkpt>
      <trkpt lat="47.04833" lon="6.08744">
        <ele>554</ele>
        <time>2021-07-22T09:25:47Z</time>
      </trkpt>
      <trkpt lat="47.04828" lon="6.08748">
        <ele>554</ele>
        <time>2021-07-22T09:25:53Z</time>
      </trkpt>
      <trkpt lat="47.04802" lon="6.08785">
        <ele>556</ele>
        <time>2021-07-22T09:26:26Z</time>
      </trkpt>
      <trkpt lat="47.04793" lon="6.08792">
        <ele>557</ele>
        <time>2021-07-22T09:26:38Z</time>
      </trkpt>
      <trkpt lat="47.04786" lon="6.08812">
        <ele>558</ele>
        <time>2021-07-22T09:26:51Z</time>
      </trkpt>
      <trkpt lat="47.04784" lon="6.08819">
        <ele>559</ele>
        <time>2021-07-22T09:26:57Z</time>
      </trkpt>
      <trkpt lat="47.04778" lon="6.08825">
        <ele>559</ele>
        <time>2021-07-22T09:27:04Z</time>
      </trkpt>
      <trkpt lat="47.04774" lon="6.08837">
        <ele>560</ele>
        <time>2021-07-22T09:27:13Z</time>
      </trkpt>
      <trkpt lat="47.04773" lon="6.08855">
        <ele>561</ele>
        <time>2021-07-22T09:27:23Z</time>
      </trkpt>
      <trkpt lat="47.04768" lon="6.08873">
        <ele>562</ele>
        <time>2021-07-22T09:27:39Z</time>
      </trkpt>
      <trkpt lat="47.04762" lon="6.08881">
        <ele>563</ele>
        <time>2021-07-22T09:27:46Z</time>
      </trkpt>
      <trkpt lat="47.04754" lon="6.08905">
        <ele>565</ele>
        <time>2021-07-22T09:28:03Z</time>
      </trkpt>
      <trkpt lat="47.0474" lon="6.08923">
        <ele>566</ele>
        <time>2021-07-22T09:28:21Z</time>
      </trkpt>
      <trkpt lat="47.04733" lon="6.08929">
        <ele>566</ele>
        <time>2021-07-22T09:28:29Z</time>
      </trkpt>
      <trkpt lat="47.0473" lon="6.08937">
        <ele>567</ele>
        <time>2021-07-22T09:28:33Z</time>
      </trkpt>
      <trkpt lat="47.04728" lon="6.08945">
        <ele>567</ele>
        <time>2021-07-22T09:28:38Z</time>
      </trkpt>
      <trkpt lat="47.04728" lon="6.0896">
        <ele>567</ele>
        <time>2021-07-22T09:28:48Z</time>
      </trkpt>
      <trkpt lat="47.04726" lon="6.08973">
        <ele>567</ele>
        <time>2021-07-22T09:28:58Z</time>
      </trkpt>
      <trkpt lat="47.04711" lon="6.08998">
        <ele>567</ele>
        <time>2021-07-22T09:29:20Z</time>
      </trkpt>
      <trkpt lat="47.04708" lon="6.09004">
        <ele>567</ele>
        <time>2021-07-22T09:29:24Z</time>
      </trkpt>
      <trkpt lat="47.0471" lon="6.09014">
        <ele>567</ele>
        <time>2021-07-22T09:29:29Z</time>
      </trkpt>
      <trkpt lat="47.04712" lon="6.09022">
        <ele>567</ele>
        <time>2021-07-22T09:29:34Z</time>
      </trkpt>
      <trkpt lat="47.04716" lon="6.09028">
        <ele>566</ele>
        <time>2021-07-22T09:29:39Z</time>
      </trkpt>
      <trkpt lat="47.04719" lon="6.09037">
        <ele>566</ele>
        <time>2021-07-22T09:29:45Z</time>
      </trkpt>
      <trkpt lat="47.04725" lon="6.09046">
        <ele>565</ele>
        <time>2021-07-22T09:29:53Z</time>
      </trkpt>
      <trkpt lat="47.04731" lon="6.09049">
        <ele>564</ele>
        <time>2021-07-22T09:30:02Z</time>
      </trkpt>
      <trkpt lat="47.04734" lon="6.09059">
        <ele>563</ele>
        <time>2021-07-22T09:30:15Z</time>
      </trkpt>
      <trkpt lat="47.04731" lon="6.09075">
        <ele>562</ele>
        <time>2021-07-22T09:31:02Z</time>
      </trkpt>
      <trkpt lat="47.04733" lon="6.09082">
        <ele>561</ele>
        <time>2021-07-22T09:31:08Z</time>
      </trkpt>
      <trkpt lat="47.04718" lon="6.0911">
        <ele>556</ele>
        <time>2021-07-22T09:31:32Z</time>
      </trkpt>
      <trkpt lat="47.0469" lon="6.09144">
        <ele>551</ele>
        <time>2021-07-22T09:32:03Z</time>
      </trkpt>
      <trkpt lat="47.04659" lon="6.09169">
        <ele>548</ele>
        <time>2021-07-22T09:32:40Z</time>
      </trkpt>
      <trkpt lat="47.04652" lon="6.09166">
        <ele>547</ele>
        <time>2021-07-22T09:32:45Z</time>
      </trkpt>
      <trkpt lat="47.04645" lon="6.09172">
        <ele>547</ele>
        <time>2021-07-22T09:32:52Z</time>
      </trkpt>
      <trkpt lat="47.04637" lon="6.09174">
        <ele>546</ele>
        <time>2021-07-22T09:32:57Z</time>
      </trkpt>
      <trkpt lat="47.04629" lon="6.09182">
        <ele>546</ele>
        <time>2021-07-22T09:33:08Z</time>
      </trkpt>
      <trkpt lat="47.04618" lon="6.09183">
        <ele>546</ele>
        <time>2021-07-22T09:33:17Z</time>
      </trkpt>
      <trkpt lat="47.04612" lon="6.09186">
        <ele>546</ele>
        <time>2021-07-22T09:33:22Z</time>
      </trkpt>
      <trkpt lat="47.04608" lon="6.09191">
        <ele>545</ele>
        <time>2021-07-22T09:33:36Z</time>
      </trkpt>
      <trkpt lat="47.04613" lon="6.09196">
        <ele>543</ele>
        <time>2021-07-22T09:33:48Z</time>
      </trkpt>
      <trkpt lat="47.04608" lon="6.09198">
        <ele>543</ele>
        <time>2021-07-22T09:34:31Z</time>
      </trkpt>
      <trkpt lat="47.04589" lon="6.0919">
        <ele>547</ele>
        <time>2021-07-22T09:34:51Z</time>
      </trkpt>
      <trkpt lat="47.04578" lon="6.09194">
        <ele>547</ele>
        <time>2021-07-22T09:35:03Z</time>
      </trkpt>
      <trkpt lat="47.04573" lon="6.09199">
        <ele>547</ele>
        <time>2021-07-22T09:35:09Z</time>
      </trkpt>
      <trkpt lat="47.0456" lon="6.09217">
        <ele>547</ele>
        <time>2021-07-22T09:35:24Z</time>
      </trkpt>
      <trkpt lat="47.04535" lon="6.09234">
        <ele>549</ele>
        <time>2021-07-22T09:35:49Z</time>
      </trkpt>
      <trkpt lat="47.04497" lon="6.09233">
        <ele>551</ele>
        <time>2021-07-22T09:36:21Z</time>
      </trkpt>
      <trkpt lat="47.04481" lon="6.09234">
        <ele>552</ele>
        <time>2021-07-22T09:36:29Z</time>
      </trkpt>
      <trkpt lat="47.04453" lon="6.09244">
        <ele>553</ele>
        <time>2021-07-22T09:36:56Z</time>
      </trkpt>
      <trkpt lat="47.04416" lon="6.09244">
        <ele>555</ele>
        <time>2021-07-22T09:37:27Z</time>
      </trkpt>
      <trkpt lat="47.04375" lon="6.09251">
        <ele>557</ele>
        <time>2021-07-22T09:38:07Z</time>
      </trkpt>
      <trkpt lat="47.04361" lon="6.09251">
        <ele>557</ele>
        <time>2021-07-22T09:38:17Z</time>
      </trkpt>
      <trkpt lat="47.04333" lon="6.09259">
        <ele>560</ele>
        <time>2021-07-22T09:38:57Z</time>
      </trkpt>
      <trkpt lat="47.04326" lon="6.09261">
        <ele>561</ele>
        <time>2021-07-22T09:39:02Z</time>
      </trkpt>
      <trkpt lat="47.04326" lon="6.09274">
        <ele>562</ele>
        <time>2021-07-22T09:39:38Z</time>
      </trkpt>
      <trkpt lat="47.04327" lon="6.09308">
        <ele>569</ele>
        <time>2021-07-22T09:40:09Z</time>
      </trkpt>
      <trkpt lat="47.04326" lon="6.09316">
        <ele>570</ele>
        <time>2021-07-22T09:40:17Z</time>
      </trkpt>
      <trkpt lat="47.04329" lon="6.09327">
        <ele>574</ele>
        <time>2021-07-22T09:40:36Z</time>
      </trkpt>
      <trkpt lat="47.04331" lon="6.09339">
        <ele>575</ele>
        <time>2021-07-22T09:40:48Z</time>
      </trkpt>
      <trkpt lat="47.04331" lon="6.09349">
        <ele>576</ele>
        <time>2021-07-22T09:41:00Z</time>
      </trkpt>
      <trkpt lat="47.04334" lon="6.09359">
        <ele>577</ele>
        <time>2021-07-22T09:41:08Z</time>
      </trkpt>
      <trkpt lat="47.04337" lon="6.09369">
        <ele>578</ele>
        <time>2021-07-22T09:41:16Z</time>
      </trkpt>
      <trkpt lat="47.04341" lon="6.0939">
        <ele>580</ele>
        <time>2021-07-22T09:41:33Z</time>
      </trkpt>
      <trkpt lat="47.04347" lon="6.09414">
        <ele>583</ele>
        <time>2021-07-22T09:41:58Z</time>
      </trkpt>
      <trkpt lat="47.04351" lon="6.09454">
        <ele>585</ele>
        <time>2021-07-22T09:42:30Z</time>
      </trkpt>
      <trkpt lat="47.04346" lon="6.0952">
        <ele>587</ele>
        <time>2021-07-22T09:42:59Z</time>
      </trkpt>
      <trkpt lat="47.04351" lon="6.0954">
        <ele>587</ele>
        <time>2021-07-22T09:43:11Z</time>
      </trkpt>
      <trkpt lat="47.04357" lon="6.09566">
        <ele>587</ele>
        <time>2021-07-22T09:43:31Z</time>
      </trkpt>
      <trkpt lat="47.04353" lon="6.09606">
        <ele>587</ele>
        <time>2021-07-22T09:43:49Z</time>
      </trkpt>
      <trkpt lat="47.04357" lon="6.09615">
        <ele>587</ele>
        <time>2021-07-22T09:43:57Z</time>
      </trkpt>
      <trkpt lat="47.04359" lon="6.09628">
        <ele>586</ele>
        <time>2021-07-22T09:44:07Z</time>
      </trkpt>
      <trkpt lat="47.04362" lon="6.09671">
        <ele>584</ele>
        <time>2021-07-22T09:44:38Z</time>
      </trkpt>
      <trkpt lat="47.04363" lon="6.09678">
        <ele>582</ele>
        <time>2021-07-22T09:44:50Z</time>
      </trkpt>
      <trkpt lat="47.04363" lon="6.09687">
        <ele>582</ele>
        <time>2021-07-22T09:45:43Z</time>
      </trkpt>
      <trkpt lat="47.04368" lon="6.09694">
        <ele>582</ele>
        <time>2021-07-22T09:46:15Z</time>
      </trkpt>
      <trkpt lat="47.04358" lon="6.09693">
        <ele>581</ele>
        <time>2021-07-22T09:46:52Z</time>
      </trkpt>
      <trkpt lat="47.04365" lon="6.09712">
        <ele>579</ele>
        <time>2021-07-22T09:48:01Z</time>
      </trkpt>
      <trkpt lat="47.04365" lon="6.09723">
        <ele>577</ele>
        <time>2021-07-22T09:48:12Z</time>
      </trkpt>
      <trkpt lat="47.04362" lon="6.09732">
        <ele>576</ele>
        <time>2021-07-22T09:48:18Z</time>
      </trkpt>
      <trkpt lat="47.04362" lon="6.09745">
        <ele>573</ele>
        <time>2021-07-22T09:48:32Z</time>
      </trkpt>
      <trkpt lat="47.04366" lon="6.09767">
        <ele>569</ele>
        <time>2021-07-22T09:48:50Z</time>
      </trkpt>
      <trkpt lat="47.04366" lon="6.09776">
        <ele>566</ele>
        <time>2021-07-22T09:49:02Z</time>
      </trkpt>
      <trkpt lat="47.04366" lon="6.09785">
        <ele>563</ele>
        <time>2021-07-22T09:49:20Z</time>
      </trkpt>
      <trkpt lat="47.0437" lon="6.09796">
        <ele>559</ele>
        <time>2021-07-22T09:49:44Z</time>
      </trkpt>
      <trkpt lat="47.0437" lon="6.09805">
        <ele>557</ele>
        <time>2021-07-22T09:49:52Z</time>
      </trkpt>
      <trkpt lat="47.04371" lon="6.09816">
        <ele>555</ele>
        <time>2021-07-22T09:50:03Z</time>
      </trkpt>
      <trkpt lat="47.04372" lon="6.09825">
        <ele>553</ele>
        <time>2021-07-22T09:50:15Z</time>
      </trkpt>
      <trkpt lat="47.04378" lon="6.09835">
        <ele>549</ele>
        <time>2021-07-22T09:50:39Z</time>
      </trkpt>
      <trkpt lat="47.04385" lon="6.0985">
        <ele>546</ele>
        <time>2021-07-22T09:50:59Z</time>
      </trkpt>
      <trkpt lat="47.04376" lon="6.09855">
        <ele>545</ele>
        <time>2021-07-22T09:51:17Z</time>
      </trkpt>
      <trkpt lat="47.04375" lon="6.09869">
        <ele>546</ele>
        <time>2021-07-22T09:51:29Z</time>
      </trkpt>
      <trkpt lat="47.04367" lon="6.0988">
        <ele>546</ele>
        <time>2021-07-22T09:51:42Z</time>
      </trkpt>
      <trkpt lat="47.0437" lon="6.09871">
        <ele>546</ele>
        <time>2021-07-22T09:52:18Z</time>
      </trkpt>
      <trkpt lat="47.04376" lon="6.09866">
        <ele>546</ele>
        <time>2021-07-22T09:52:24Z</time>
      </trkpt>
      <trkpt lat="47.04391" lon="6.09862">
        <ele>548</ele>
        <time>2021-07-22T09:53:35Z</time>
      </trkpt>
      <trkpt lat="47.04407" lon="6.09849">
        <ele>547</ele>
        <time>2021-07-22T09:54:00Z</time>
      </trkpt>
      <trkpt lat="47.04421" lon="6.09881">
        <ele>550</ele>
        <time>2021-07-22T09:54:32Z</time>
      </trkpt>
      <trkpt lat="47.04432" lon="6.09895">
        <ele>554</ele>
        <time>2021-07-22T09:54:55Z</time>
      </trkpt>
      <trkpt lat="47.04443" lon="6.09874">
        <ele>558</ele>
        <time>2021-07-22T09:55:19Z</time>
      </trkpt>
      <trkpt lat="47.04457" lon="6.09863">
        <ele>559</ele>
        <time>2021-07-22T09:55:39Z</time>
      </trkpt>
      <trkpt lat="47.04461" lon="6.09858">
        <ele>559</ele>
        <time>2021-07-22T09:55:44Z</time>
      </trkpt>
      <trkpt lat="47.04469" lon="6.09855">
        <ele>560</ele>
        <time>2021-07-22T09:55:58Z</time>
      </trkpt>
      <trkpt lat="47.04474" lon="6.09855">
        <ele>560</ele>
        <time>2021-07-22T09:56:03Z</time>
      </trkpt>
      <trkpt lat="47.04479" lon="6.09845">
        <ele>559</ele>
        <time>2021-07-22T09:56:13Z</time>
      </trkpt>
      <trkpt lat="47.04488" lon="6.09839">
        <ele>559</ele>
        <time>2021-07-22T09:56:26Z</time>
      </trkpt>
      <trkpt lat="47.04494" lon="6.09838">
        <ele>559</ele>
        <time>2021-07-22T09:56:30Z</time>
      </trkpt>
      <trkpt lat="47.04499" lon="6.09833">
        <ele>559</ele>
        <time>2021-07-22T09:56:35Z</time>
      </trkpt>
      <trkpt lat="47.04506" lon="6.09832">
        <ele>559</ele>
        <time>2021-07-22T09:56:43Z</time>
      </trkpt>
      <trkpt lat="47.04514" lon="6.09825">
        <ele>559</ele>
        <time>2021-07-22T09:56:52Z</time>
      </trkpt>
      <trkpt lat="47.04521" lon="6.09814">
        <ele>559</ele>
        <time>2021-07-22T09:57:02Z</time>
      </trkpt>
      <trkpt lat="47.04541" lon="6.09805">
        <ele>559</ele>
        <time>2021-07-22T09:57:46Z</time>
      </trkpt>
      <trkpt lat="47.04547" lon="6.098">
        <ele>559</ele>
        <time>2021-07-22T09:57:49Z</time>
      </trkpt>
      <trkpt lat="47.04573" lon="6.09786">
        <ele>557</ele>
        <time>2021-07-22T09:58:28Z</time>
      </trkpt>
      <trkpt lat="47.04581" lon="6.09785">
        <ele>556</ele>
        <time>2021-07-22T09:58:52Z</time>
      </trkpt>
      <trkpt lat="47.0459" lon="6.09782">
        <ele>556</ele>
        <time>2021-07-22T09:58:57Z</time>
      </trkpt>
      <trkpt lat="47.04599" lon="6.09782">
        <ele>554</ele>
        <time>2021-07-22T09:59:20Z</time>
      </trkpt>
      <trkpt lat="47.04607" lon="6.09789">
        <ele>552</ele>
        <time>2021-07-22T09:59:34Z</time>
      </trkpt>
      <trkpt lat="47.04631" lon="6.09794">
        <ele>550</ele>
        <time>2021-07-22T09:59:55Z</time>
      </trkpt>
      <trkpt lat="47.04654" lon="6.09809">
        <ele>551</ele>
        <time>2021-07-22T10:00:30Z</time>
      </trkpt>
      <trkpt lat="47.04657" lon="6.09813">
        <ele>552</ele>
        <time>2021-07-22T10:00:33Z</time>
      </trkpt>
      <trkpt lat="47.04661" lon="6.0982">
        <ele>552</ele>
        <time>2021-07-22T10:00:37Z</time>
      </trkpt>
      <trkpt lat="47.04672" lon="6.09839">
        <ele>554</ele>
        <time>2021-07-22T10:00:56Z</time>
      </trkpt>
      <trkpt lat="47.04689" lon="6.09895">
        <ele>559</ele>
        <time>2021-07-22T10:01:41Z</time>
      </trkpt>
      <trkpt lat="47.04689" lon="6.09905">
        <ele>561</ele>
        <time>2021-07-22T10:01:57Z</time>
      </trkpt>
      <trkpt lat="47.04705" lon="6.09916">
        <ele>556</ele>
        <time>2021-07-22T10:03:01Z</time>
      </trkpt>
      <trkpt lat="47.04715" lon="6.09933">
        <ele>554</ele>
        <time>2021-07-22T10:03:14Z</time>
      </trkpt>
      <trkpt lat="47.0472" lon="6.09952">
        <ele>555</ele>
        <time>2021-07-22T10:03:28Z</time>
      </trkpt>
      <trkpt lat="47.04729" lon="6.09969">
        <ele>559</ele>
        <time>2021-07-22T10:03:49Z</time>
      </trkpt>
      <trkpt lat="47.0474" lon="6.09949">
        <ele>564</ele>
        <time>2021-07-22T10:04:17Z</time>
      </trkpt>
      <trkpt lat="47.04731" lon="6.09926">
        <ele>564</ele>
        <time>2021-07-22T10:04:39Z</time>
      </trkpt>
      <trkpt lat="47.04731" lon="6.09904">
        <ele>563</ele>
        <time>2021-07-22T10:04:53Z</time>
      </trkpt>
      <trkpt lat="47.04739" lon="6.09882">
        <ele>563</ele>
        <time>2021-07-22T10:05:06Z</time>
      </trkpt>
      <trkpt lat="47.04746" lon="6.09863">
        <ele>563</ele>
        <time>2021-07-22T10:05:21Z</time>
      </trkpt>
      <trkpt lat="47.04754" lon="6.09815">
        <ele>565</ele>
        <time>2021-07-22T10:05:56Z</time>
      </trkpt>
      <trkpt lat="47.04753" lon="6.0979">
        <ele>566</ele>
        <time>2021-07-22T10:06:13Z</time>
      </trkpt>
      <trkpt lat="47.04751" lon="6.09768">
        <ele>565</ele>
        <time>2021-07-22T10:06:29Z</time>
      </trkpt>
      <trkpt lat="47.04756" lon="6.09747">
        <ele>566</ele>
        <time>2021-07-22T10:06:44Z</time>
      </trkpt>
      <trkpt lat="47.0476" lon="6.09736">
        <ele>567</ele>
        <time>2021-07-22T10:06:57Z</time>
      </trkpt>
      <trkpt lat="47.04769" lon="6.09723">
        <ele>568</ele>
        <time>2021-07-22T10:07:08Z</time>
      </trkpt>
      <trkpt lat="47.04776" lon="6.09717">
        <ele>568</ele>
        <time>2021-07-22T10:07:16Z</time>
      </trkpt>
      <trkpt lat="47.0479" lon="6.09742">
        <ele>569</ele>
        <time>2021-07-22T10:07:38Z</time>
      </trkpt>
      <trkpt lat="47.04794" lon="6.09768">
        <ele>571</ele>
        <time>2021-07-22T10:07:58Z</time>
      </trkpt>
      <trkpt lat="47.04798" lon="6.09787">
        <ele>573</ele>
        <time>2021-07-22T10:08:11Z</time>
      </trkpt>
      <trkpt lat="47.04799" lon="6.09797">
        <ele>574</ele>
        <time>2021-07-22T10:08:26Z</time>
      </trkpt>
      <trkpt lat="47.04806" lon="6.09805">
        <ele>575</ele>
        <time>2021-07-22T10:08:39Z</time>
      </trkpt>
      <trkpt lat="47.04806" lon="6.09818">
        <ele>576</ele>
        <time>2021-07-22T10:08:45Z</time>
      </trkpt>
      <trkpt lat="47.04803" lon="6.09828">
        <ele>576</ele>
        <time>2021-07-22T10:08:49Z</time>
      </trkpt>
      <trkpt lat="47.04811" lon="6.09838">
        <ele>578</ele>
        <time>2021-07-22T10:09:03Z</time>
      </trkpt>
      <trkpt lat="47.04819" lon="6.09885">
        <ele>582</ele>
        <time>2021-07-22T10:09:34Z</time>
      </trkpt>
      <trkpt lat="47.04825" lon="6.09914">
        <ele>584</ele>
        <time>2021-07-22T10:09:58Z</time>
      </trkpt>
      <trkpt lat="47.0483" lon="6.09908">
        <ele>582</ele>
        <time>2021-07-22T10:13:53Z</time>
      </trkpt>
      <trkpt lat="47.04833" lon="6.09893">
        <ele>582</ele>
        <time>2021-07-22T10:14:06Z</time>
      </trkpt>
      <trkpt lat="47.04834" lon="6.09865">
        <ele>581</ele>
        <time>2021-07-22T10:14:23Z</time>
      </trkpt>
      <trkpt lat="47.04832" lon="6.09855">
        <ele>580</ele>
        <time>2021-07-22T10:14:27Z</time>
      </trkpt>
      <trkpt lat="47.04833" lon="6.09835">
        <ele>579</ele>
        <time>2021-07-22T10:14:43Z</time>
      </trkpt>
      <trkpt lat="47.04835" lon="6.09824">
        <ele>578</ele>
        <time>2021-07-22T10:14:50Z</time>
      </trkpt>
      <trkpt lat="47.04838" lon="6.09804">
        <ele>578</ele>
        <time>2021-07-22T10:15:00Z</time>
      </trkpt>
      <trkpt lat="47.04858" lon="6.09758">
        <ele>577</ele>
        <time>2021-07-22T10:15:36Z</time>
      </trkpt>
      <trkpt lat="47.04875" lon="6.09707">
        <ele>575</ele>
        <time>2021-07-22T10:16:13Z</time>
      </trkpt>
      <trkpt lat="47.04893" lon="6.09667">
        <ele>574</ele>
        <time>2021-07-22T10:16:42Z</time>
      </trkpt>
      <trkpt lat="47.04919" lon="6.09621">
        <ele>572</ele>
        <time>2021-07-22T10:17:15Z</time>
      </trkpt>
      <trkpt lat="47.04926" lon="6.09601">
        <ele>572</ele>
        <time>2021-07-22T10:17:28Z</time>
      </trkpt>
      <trkpt lat="47.04931" lon="6.09593">
        <ele>571</ele>
        <time>2021-07-22T10:17:34Z</time>
      </trkpt>
      <trkpt lat="47.04933" lon="6.09581">
        <ele>571</ele>
        <time>2021-07-22T10:17:43Z</time>
      </trkpt>
      <trkpt lat="47.04953" lon="6.09533">
        <ele>570</ele>
        <time>2021-07-22T10:18:15Z</time>
      </trkpt>
      <trkpt lat="47.04957" lon="6.09522">
        <ele>569</ele>
        <time>2021-07-22T10:18:27Z</time>
      </trkpt>
      <trkpt lat="47.0497" lon="6.09503">
        <ele>568</ele>
        <time>2021-07-22T10:18:47Z</time>
      </trkpt>
      <trkpt lat="47.04978" lon="6.09495">
        <ele>568</ele>
        <time>2021-07-22T10:18:59Z</time>
      </trkpt>
      <trkpt lat="47.04989" lon="6.09485">
        <ele>568</ele>
        <time>2021-07-22T10:19:18Z</time>
      </trkpt>
      <trkpt lat="47.04993" lon="6.09476">
        <ele>568</ele>
        <time>2021-07-22T10:19:26Z</time>
      </trkpt>
      <trkpt lat="47.05002" lon="6.09473">
        <ele>568</ele>
        <time>2021-07-22T10:19:40Z</time>
      </trkpt>
      <trkpt lat="47.05037" lon="6.09444">
        <ele>568</ele>
        <time>2021-07-22T10:20:11Z</time>
      </trkpt>
      <trkpt lat="47.05079" lon="6.09421">
        <ele>567</ele>
        <time>2021-07-22T10:20:40Z</time>
      </trkpt>
      <trkpt lat="47.05103" lon="6.09389">
        <ele>566</ele>
        <time>2021-07-22T10:21:10Z</time>
      </trkpt>
      <trkpt lat="47.05106" lon="6.09381">
        <ele>566</ele>
        <time>2021-07-22T10:21:14Z</time>
      </trkpt>
      <trkpt lat="47.05121" lon="6.09356">
        <ele>565</ele>
        <time>2021-07-22T10:21:34Z</time>
      </trkpt>
      <trkpt lat="47.05135" lon="6.09342">
        <ele>565</ele>
        <time>2021-07-22T10:21:51Z</time>
      </trkpt>
      <trkpt lat="47.05145" lon="6.09324">
        <ele>564</ele>
        <time>2021-07-22T10:22:04Z</time>
      </trkpt>
      <trkpt lat="47.05158" lon="6.09312">
        <ele>564</ele>
        <time>2021-07-22T10:22:15Z</time>
      </trkpt>
      <trkpt lat="47.05185" lon="6.09296">
        <ele>562</ele>
        <time>2021-07-22T10:22:49Z</time>
      </trkpt>
      <trkpt lat="47.05192" lon="6.09292">
        <ele>562</ele>
        <time>2021-07-22T10:22:55Z</time>
      </trkpt>
      <trkpt lat="47.05199" lon="6.09297">
        <ele>562</ele>
        <time>2021-07-22T10:23:01Z</time>
      </trkpt>
      <trkpt lat="47.05205" lon="6.09304">
        <ele>563</ele>
        <time>2021-07-22T10:23:07Z</time>
      </trkpt>
      <trkpt lat="47.05208" lon="6.09314">
        <ele>563</ele>
        <time>2021-07-22T10:23:13Z</time>
      </trkpt>
      <trkpt lat="47.05224" lon="6.09343">
        <ele>564</ele>
        <time>2021-07-22T10:23:38Z</time>
      </trkpt>
      <trkpt lat="47.05231" lon="6.09363">
        <ele>564</ele>
        <time>2021-07-22T10:23:46Z</time>
      </trkpt>
      <trkpt lat="47.05232" lon="6.09379">
        <ele>565</ele>
        <time>2021-07-22T10:23:58Z</time>
      </trkpt>
      <trkpt lat="47.05235" lon="6.0939">
        <ele>565</ele>
        <time>2021-07-22T10:24:02Z</time>
      </trkpt>
      <trkpt lat="47.05251" lon="6.09438">
        <ele>566</ele>
        <time>2021-07-22T10:24:33Z</time>
      </trkpt>
      <trkpt lat="47.05263" lon="6.09495">
        <ele>567</ele>
        <time>2021-07-22T10:25:07Z</time>
      </trkpt>
      <trkpt lat="47.05276" lon="6.09562">
        <ele>569</ele>
        <time>2021-07-22T10:25:45Z</time>
      </trkpt>
      <trkpt lat="47.05284" lon="6.09577">
        <ele>570</ele>
        <time>2021-07-22T10:25:57Z</time>
      </trkpt>
      <trkpt lat="47.05299" lon="6.0963">
        <ele>570</ele>
        <time>2021-07-22T10:26:33Z</time>
      </trkpt>
      <trkpt lat="47.05303" lon="6.09638">
        <ele>569</ele>
        <time>2021-07-22T10:26:45Z</time>
      </trkpt>
      <trkpt lat="47.05314" lon="6.09669">
        <ele>569</ele>
        <time>2021-07-22T10:27:05Z</time>
      </trkpt>
      <trkpt lat="47.05314" lon="6.09683">
        <ele>568</ele>
        <time>2021-07-22T10:27:15Z</time>
      </trkpt>
      <trkpt lat="47.05314" lon="6.09706">
        <ele>564</ele>
        <time>2021-07-22T10:27:32Z</time>
      </trkpt>
      <trkpt lat="47.05316" lon="6.09718">
        <ele>563</ele>
        <time>2021-07-22T10:27:38Z</time>
      </trkpt>
      <trkpt lat="47.05323" lon="6.09758">
        <ele>568</ele>
        <time>2021-07-22T10:28:07Z</time>
      </trkpt>
      <trkpt lat="47.05327" lon="6.09764">
        <ele>568</ele>
        <time>2021-07-22T10:28:13Z</time>
      </trkpt>
      <trkpt lat="47.05339" lon="6.09773">
        <ele>569</ele>
        <time>2021-07-22T10:28:27Z</time>
      </trkpt>
      <trkpt lat="47.05343" lon="6.09781">
        <ele>569</ele>
        <time>2021-07-22T10:28:34Z</time>
      </trkpt>
      <trkpt lat="47.05345" lon="6.09794">
        <ele>570</ele>
        <time>2021-07-22T10:28:45Z</time>
      </trkpt>
      <trkpt lat="47.0535" lon="6.09805">
        <ele>570</ele>
        <time>2021-07-22T10:28:50Z</time>
      </trkpt>
      <trkpt lat="47.05357" lon="6.09864">
        <ele>572</ele>
        <time>2021-07-22T10:29:23Z</time>
      </trkpt>
      <trkpt lat="47.05356" lon="6.09887">
        <ele>572</ele>
        <time>2021-07-22T10:29:37Z</time>
      </trkpt>
      <trkpt lat="47.05375" lon="6.09949">
        <ele>575</ele>
        <time>2021-07-22T10:30:28Z</time>
      </trkpt>
      <trkpt lat="47.05392" lon="6.09965">
        <ele>576</ele>
        <time>2021-07-22T10:31:12Z</time>
      </trkpt>
      <trkpt lat="47.05398" lon="6.09975">
        <ele>576</ele>
        <time>2021-07-22T10:31:21Z</time>
      </trkpt>
      <trkpt lat="47.05407" lon="6.09976">
        <ele>577</ele>
        <time>2021-07-22T10:31:41Z</time>
      </trkpt>
      <trkpt lat="47.05428" lon="6.09994">
        <ele>577</ele>
        <time>2021-07-22T10:32:12Z</time>
      </trkpt>
      <trkpt lat="47.05442" lon="6.10003">
        <ele>577</ele>
        <time>2021-07-22T10:32:27Z</time>
      </trkpt>
      <trkpt lat="47.05449" lon="6.09999">
        <ele>577</ele>
        <time>2021-07-22T10:32:33Z</time>
      </trkpt>
      <trkpt lat="47.05455" lon="6.09993">
        <ele>577</ele>
        <time>2021-07-22T10:32:47Z</time>
      </trkpt>
      <trkpt lat="47.05462" lon="6.10023">
        <ele>578</ele>
        <time>2021-07-22T10:33:11Z</time>
      </trkpt>
      <trkpt lat="47.05465" lon="6.10033">
        <ele>578</ele>
        <time>2021-07-22T10:33:20Z</time>
      </trkpt>
      <trkpt lat="47.05463" lon="6.10052">
        <ele>579</ele>
        <time>2021-07-22T10:33:36Z</time>
      </trkpt>
      <trkpt lat="47.05472" lon="6.10042">
        <ele>578</ele>
        <time>2021-07-22T10:34:07Z</time>
      </trkpt>
      <trkpt lat="47.05487" lon="6.10047">
        <ele>578</ele>
        <time>2021-07-22T10:34:20Z</time>
      </trkpt>
      <trkpt lat="47.05495" lon="6.10044">
        <ele>578</ele>
        <time>2021-07-22T10:34:26Z</time>
      </trkpt>
      <trkpt lat="47.05503" lon="6.10046">
        <ele>578</ele>
        <time>2021-07-22T10:34:31Z</time>
      </trkpt>
      <trkpt lat="47.0551" lon="6.10051">
        <ele>578</ele>
        <time>2021-07-22T10:34:36Z</time>
      </trkpt>
      <trkpt lat="47.05537" lon="6.10054">
        <ele>577</ele>
        <time>2021-07-22T10:34:56Z</time>
      </trkpt>
      <trkpt lat="47.05561" lon="6.10051">
        <ele>577</ele>
        <time>2021-07-22T10:35:12Z</time>
      </trkpt>
      <trkpt lat="47.05583" lon="6.10061">
        <ele>577</ele>
        <time>2021-07-22T10:35:30Z</time>
      </trkpt>
      <trkpt lat="47.05591" lon="6.10067">
        <ele>577</ele>
        <time>2021-07-22T10:35:37Z</time>
      </trkpt>
      <trkpt lat="47.05597" lon="6.10074">
        <ele>577</ele>
        <time>2021-07-22T10:35:43Z</time>
      </trkpt>
      <trkpt lat="47.05607" lon="6.10067">
        <ele>577</ele>
        <time>2021-07-22T10:35:56Z</time>
      </trkpt>
      <trkpt lat="47.05639" lon="6.10035">
        <ele>576</ele>
        <time>2021-07-22T10:36:33Z</time>
      </trkpt>
      <trkpt lat="47.0565" lon="6.10031">
        <ele>576</ele>
        <time>2021-07-22T10:36:43Z</time>
      </trkpt>
      <trkpt lat="47.05666" lon="6.10033">
        <ele>576</ele>
        <time>2021-07-22T10:36:54Z</time>
      </trkpt>
      <trkpt lat="47.05679" lon="6.10025">
        <ele>575</ele>
        <time>2021-07-22T10:37:38Z</time>
      </trkpt>
      <trkpt lat="47.05684" lon="6.10026">
        <ele>575</ele>
        <time>2021-07-22T10:37:41Z</time>
      </trkpt>
      <trkpt lat="47.0569" lon="6.10028">
        <ele>575</ele>
        <time>2021-07-22T10:37:45Z</time>
      </trkpt>
      <trkpt lat="47.05725" lon="6.10015">
        <ele>574</ele>
        <time>2021-07-22T10:38:13Z</time>
      </trkpt>
      <trkpt lat="47.05738" lon="6.10014">
        <ele>573</ele>
        <time>2021-07-22T10:38:24Z</time>
      </trkpt>
      <trkpt lat="47.05746" lon="6.10012">
        <ele>574</ele>
        <time>2021-07-22T10:38:30Z</time>
      </trkpt>
      <trkpt lat="47.05752" lon="6.1001">
        <ele>573</ele>
        <time>2021-07-22T10:38:38Z</time>
      </trkpt>
      <trkpt lat="47.05761" lon="6.10009">
        <ele>572</ele>
        <time>2021-07-22T10:38:52Z</time>
      </trkpt>
      <trkpt lat="47.05784" lon="6.09998">
        <ele>571</ele>
        <time>2021-07-22T10:39:13Z</time>
      </trkpt>
      <trkpt lat="47.05801" lon="6.09996">
        <ele>570</ele>
        <time>2021-07-22T10:39:25Z</time>
      </trkpt>
      <trkpt lat="47.05851" lon="6.09979">
        <ele>569</ele>
        <time>2021-07-22T10:39:54Z</time>
      </trkpt>
      <trkpt lat="47.05856" lon="6.09974">
        <ele>569</ele>
        <time>2021-07-22T10:39:58Z</time>
      </trkpt>
      <trkpt lat="47.05896" lon="6.09956">
        <ele>568</ele>
        <time>2021-07-22T10:40:30Z</time>
      </trkpt>
      <trkpt lat="47.05905" lon="6.09946">
        <ele>568</ele>
        <time>2021-07-22T10:40:38Z</time>
      </trkpt>
      <trkpt lat="47.05912" lon="6.09944">
        <ele>568</ele>
        <time>2021-07-22T10:40:43Z</time>
      </trkpt>
      <trkpt lat="47.05949" lon="6.0991">
        <ele>568</ele>
        <time>2021-07-22T10:41:16Z</time>
      </trkpt>
      <trkpt lat="47.05956" lon="6.09901">
        <ele>569</ele>
        <time>2021-07-22T10:41:25Z</time>
      </trkpt>
      <trkpt lat="47.05963" lon="6.09895">
        <ele>569</ele>
        <time>2021-07-22T10:41:33Z</time>
      </trkpt>
      <trkpt lat="47.05972" lon="6.09882">
        <ele>569</ele>
        <time>2021-07-22T10:41:49Z</time>
      </trkpt>
      <trkpt lat="47.05983" lon="6.09875">
        <ele>568</ele>
        <time>2021-07-22T10:42:03Z</time>
      </trkpt>
      <trkpt lat="47.05988" lon="6.09864">
        <ele>568</ele>
        <time>2021-07-22T10:42:09Z</time>
      </trkpt>
      <trkpt lat="47.06021" lon="6.09849">
        <ele>566</ele>
        <time>2021-07-22T10:42:37Z</time>
      </trkpt>
      <trkpt lat="47.06027" lon="6.09842">
        <ele>565</ele>
        <time>2021-07-22T10:42:41Z</time>
      </trkpt>
      <trkpt lat="47.06034" lon="6.09836">
        <ele>565</ele>
        <time>2021-07-22T10:42:46Z</time>
      </trkpt>
      <trkpt lat="47.06058" lon="6.09802">
        <ele>564</ele>
        <time>2021-07-22T10:43:09Z</time>
      </trkpt>
      <trkpt lat="47.06064" lon="6.09797">
        <ele>564</ele>
        <time>2021-07-22T10:43:15Z</time>
      </trkpt>
      <trkpt lat="47.06071" lon="6.09794">
        <ele>563</ele>
        <time>2021-07-22T10:43:19Z</time>
      </trkpt>
      <trkpt lat="47.06097" lon="6.0977">
        <ele>563</ele>
        <time>2021-07-22T10:43:38Z</time>
      </trkpt>
      <trkpt lat="47.06127" lon="6.09731">
        <ele>562</ele>
        <time>2021-07-22T10:44:12Z</time>
      </trkpt>
      <trkpt lat="47.06154" lon="6.09709">
        <ele>562</ele>
        <time>2021-07-22T10:44:41Z</time>
      </trkpt>
      <trkpt lat="47.06166" lon="6.0969">
        <ele>562</ele>
        <time>2021-07-22T10:44:54Z</time>
      </trkpt>
      <trkpt lat="47.0618" lon="6.09681">
        <ele>562</ele>
        <time>2021-07-22T10:45:09Z</time>
      </trkpt>
      <trkpt lat="47.06188" lon="6.09672">
        <ele>562</ele>
        <time>2021-07-22T10:45:20Z</time>
      </trkpt>
      <trkpt lat="47.06208" lon="6.09661">
        <ele>561</ele>
        <time>2021-07-22T10:45:42Z</time>
      </trkpt>
      <trkpt lat="47.06219" lon="6.09656">
        <ele>561</ele>
        <time>2021-07-22T10:45:57Z</time>
      </trkpt>
      <trkpt lat="47.0625" lon="6.09633">
        <ele>560</ele>
        <time>2021-07-22T10:46:28Z</time>
      </trkpt>
      <trkpt lat="47.06257" lon="6.09625">
        <ele>559</ele>
        <time>2021-07-22T10:46:33Z</time>
      </trkpt>
      <trkpt lat="47.06294" lon="6.09605">
        <ele>558</ele>
        <time>2021-07-22T10:46:59Z</time>
      </trkpt>
      <trkpt lat="47.0633" lon="6.09574">
        <ele>556</ele>
        <time>2021-07-22T10:47:28Z</time>
      </trkpt>
      <trkpt lat="47.06337" lon="6.09572">
        <ele>556</ele>
        <time>2021-07-22T10:47:32Z</time>
      </trkpt>
      <trkpt lat="47.06345" lon="6.09554">
        <ele>555</ele>
        <time>2021-07-22T10:47:43Z</time>
      </trkpt>
      <trkpt lat="47.06349" lon="6.09543">
        <ele>555</ele>
        <time>2021-07-22T10:47:48Z</time>
      </trkpt>
      <trkpt lat="47.06356" lon="6.09536">
        <ele>555</ele>
        <time>2021-07-22T10:47:55Z</time>
      </trkpt>
      <trkpt lat="47.06389" lon="6.09505">
        <ele>554</ele>
        <time>2021-07-22T10:48:26Z</time>
      </trkpt>
      <trkpt lat="47.06422" lon="6.09467">
        <ele>553</ele>
        <time>2021-07-22T10:49:05Z</time>
      </trkpt>
      <trkpt lat="47.06428" lon="6.09466">
        <ele>553</ele>
        <time>2021-07-22T10:49:11Z</time>
      </trkpt>
      <trkpt lat="47.06438" lon="6.09456">
        <ele>552</ele>
        <time>2021-07-22T10:49:25Z</time>
      </trkpt>
      <trkpt lat="47.06466" lon="6.09425">
        <ele>550</ele>
        <time>2021-07-22T10:49:59Z</time>
      </trkpt>
      <trkpt lat="47.06472" lon="6.09416">
        <ele>550</ele>
        <time>2021-07-22T10:50:10Z</time>
      </trkpt>
      <trkpt lat="47.06484" lon="6.09407">
        <ele>550</ele>
        <time>2021-07-22T10:50:23Z</time>
      </trkpt>
      <trkpt lat="47.06491" lon="6.09402">
        <ele>549</ele>
        <time>2021-07-22T10:50:30Z</time>
      </trkpt>
      <trkpt lat="47.06503" lon="6.09389">
        <ele>548</ele>
        <time>2021-07-22T10:50:44Z</time>
      </trkpt>
      <trkpt lat="47.06535" lon="6.09374">
        <ele>546</ele>
        <time>2021-07-22T10:51:17Z</time>
      </trkpt>
      <trkpt lat="47.06549" lon="6.09363">
        <ele>546</ele>
        <time>2021-07-22T10:51:28Z</time>
      </trkpt>
      <trkpt lat="47.06561" lon="6.09347">
        <ele>546</ele>
        <time>2021-07-22T10:51:44Z</time>
      </trkpt>
      <trkpt lat="47.06569" lon="6.09339">
        <ele>546</ele>
        <time>2021-07-22T10:51:50Z</time>
      </trkpt>
      <trkpt lat="47.06596" lon="6.09325">
        <ele>546</ele>
        <time>2021-07-22T10:52:18Z</time>
      </trkpt>
      <trkpt lat="47.06601" lon="6.09316">
        <ele>545</ele>
        <time>2021-07-22T10:52:32Z</time>
      </trkpt>
      <trkpt lat="47.0661" lon="6.09312">
        <ele>545</ele>
        <time>2021-07-22T10:52:46Z</time>
      </trkpt>
      <trkpt lat="47.06618" lon="6.09316">
        <ele>545</ele>
        <time>2021-07-22T10:52:53Z</time>
      </trkpt>
      <trkpt lat="47.06626" lon="6.09314">
        <ele>545</ele>
        <time>2021-07-22T10:52:59Z</time>
      </trkpt>
      <trkpt lat="47.06659" lon="6.09311">
        <ele>545</ele>
        <time>2021-07-22T10:53:15Z</time>
      </trkpt>
      <trkpt lat="47.06714" lon="6.09291">
        <ele>544</ele>
        <time>2021-07-22T10:53:47Z</time>
      </trkpt>
      <trkpt lat="47.06751" lon="6.09274">
        <ele>544</ele>
        <time>2021-07-22T10:54:27Z</time>
      </trkpt>
      <trkpt lat="47.06765" lon="6.09262">
        <ele>544</ele>
        <time>2021-07-22T10:54:40Z</time>
      </trkpt>
      <trkpt lat="47.06781" lon="6.09255">
        <ele>545</ele>
        <time>2021-07-22T10:54:51Z</time>
      </trkpt>
      <trkpt lat="47.06801" lon="6.09243">
        <ele>545</ele>
        <time>2021-07-22T10:55:09Z</time>
      </trkpt>
      <trkpt lat="47.06795" lon="6.09233">
        <ele>544</ele>
        <time>2021-07-22T10:56:05Z</time>
      </trkpt>
      <trkpt lat="47.06791" lon="6.09215">
        <ele>543</ele>
        <time>2021-07-22T10:56:17Z</time>
      </trkpt>
      <trkpt lat="47.06791" lon="6.09206">
        <ele>543</ele>
        <time>2021-07-22T10:56:21Z</time>
      </trkpt>
      <trkpt lat="47.06792" lon="6.09198">
        <ele>542</ele>
        <time>2021-07-22T10:56:26Z</time>
      </trkpt>
      <trkpt lat="47.06789" lon="6.09177">
        <ele>541</ele>
        <time>2021-07-22T10:56:38Z</time>
      </trkpt>
      <trkpt lat="47.06792" lon="6.09131">
        <ele>540</ele>
        <time>2021-07-22T10:57:00Z</time>
      </trkpt>
      <trkpt lat="47.06793" lon="6.09123">
        <ele>540</ele>
        <time>2021-07-22T10:57:06Z</time>
      </trkpt>
      <trkpt lat="47.06793" lon="6.09115">
        <ele>540</ele>
        <time>2021-07-22T10:57:13Z</time>
      </trkpt>
      <trkpt lat="47.06785" lon="6.09099">
        <ele>539</ele>
        <time>2021-07-22T10:57:33Z</time>
      </trkpt>
      <trkpt lat="47.06783" lon="6.09058">
        <ele>538</ele>
        <time>2021-07-22T10:58:02Z</time>
      </trkpt>
      <trkpt lat="47.06785" lon="6.09051">
        <ele>538</ele>
        <time>2021-07-22T10:58:06Z</time>
      </trkpt>
      <trkpt lat="47.06784" lon="6.0904">
        <ele>538</ele>
        <time>2021-07-22T10:58:22Z</time>
      </trkpt>
      <trkpt lat="47.06781" lon="6.09032">
        <ele>538</ele>
        <time>2021-07-22T10:58:27Z</time>
      </trkpt>
      <trkpt lat="47.06779" lon="6.09003">
        <ele>537</ele>
        <time>2021-07-22T10:58:48Z</time>
      </trkpt>
      <trkpt lat="47.06776" lon="6.08983">
        <ele>537</ele>
        <time>2021-07-22T10:59:01Z</time>
      </trkpt>
      <trkpt lat="47.06776" lon="6.08964">
        <ele>536</ele>
        <time>2021-07-22T10:59:12Z</time>
      </trkpt>
      <trkpt lat="47.06775" lon="6.08943">
        <ele>535</ele>
        <time>2021-07-22T10:59:28Z</time>
      </trkpt>
      <trkpt lat="47.06773" lon="6.08929">
        <ele>535</ele>
        <time>2021-07-22T10:59:43Z</time>
      </trkpt>
      <trkpt lat="47.06767" lon="6.08931">
        <ele>535</ele>
        <time>2021-07-22T11:00:13Z</time>
      </trkpt>
      <trkpt lat="47.06773" lon="6.08945">
        <ele>534</ele>
        <time>2021-07-22T11:00:51Z</time>
      </trkpt>
      <trkpt lat="47.06774" lon="6.08954">
        <ele>534</ele>
        <time>2021-07-22T11:00:59Z</time>
      </trkpt>
      <trkpt lat="47.06776" lon="6.08965">
        <ele>534</ele>
        <time>2021-07-22T11:01:10Z</time>
      </trkpt>
      <trkpt lat="47.06777" lon="6.08992">
        <ele>535</ele>
        <time>2021-07-22T11:01:28Z</time>
      </trkpt>
      <trkpt lat="47.06783" lon="6.09017">
        <ele>536</ele>
        <time>2021-07-22T11:01:49Z</time>
      </trkpt>
      <trkpt lat="47.06784" lon="6.09028">
        <ele>537</ele>
        <time>2021-07-22T11:02:01Z</time>
      </trkpt>
      <trkpt lat="47.06784" lon="6.09042">
        <ele>537</ele>
        <time>2021-07-22T11:02:13Z</time>
      </trkpt>
      <trkpt lat="47.06782" lon="6.09045">
        <ele>539</ele>
        <time>2021-07-22T11:04:42Z</time>
      </trkpt>
      <trkpt lat="47.06784" lon="6.09034">
        <ele>539</ele>
        <time>2021-07-22T11:15:40Z</time>
      </trkpt>
      <trkpt lat="47.06741" lon="6.08971">
        <ele>539</ele>
        <time>2021-07-22T11:15:58Z</time>
      </trkpt>
      <trkpt lat="47.06713" lon="6.08977">
        <ele>539</ele>
        <time>2021-07-22T11:16:31Z</time>
      </trkpt>
      <trkpt lat="47.06683" lon="6.09013">
        <ele>539</ele>
        <time>2021-07-22T11:16:41Z</time>
      </trkpt>
      <trkpt lat="47.0671" lon="6.09042">
        <ele>539</ele>
        <time>2021-07-22T11:17:01Z</time>
      </trkpt>
      <trkpt lat="47.0674" lon="6.09054">
        <ele>538</ele>
        <time>2021-07-22T11:18:07Z</time>
      </trkpt>
      <trkpt lat="47.06757" lon="6.09052">
        <ele>539</ele>
        <time>2021-07-22T11:21:17Z</time>
      </trkpt>
      <trkpt lat="47.06771" lon="6.09046">
        <ele>539</ele>
        <time>2021-07-22T11:22:29Z</time>
      </trkpt>
      <trkpt lat="47.06786" lon="6.09049">
        <ele>539</ele>
        <time>2021-07-22T11:22:49Z</time>
      </trkpt>
      <trkpt lat="47.06803" lon="6.09052">
        <ele>539</ele>
        <time>2021-07-22T11:23:39Z</time>
      </trkpt>
      <trkpt lat="47.06818" lon="6.09052">
        <ele>539</ele>
        <time>2021-07-22T11:23:46Z</time>
      </trkpt>
      <trkpt lat="47.06849" lon="6.09059">
        <ele>539</ele>
        <time>2021-07-22T11:24:21Z</time>
      </trkpt>
      <trkpt lat="47.06833" lon="6.09106">
        <ele>540</ele>
        <time>2021-07-22T11:25:44Z</time>
      </trkpt>
      <trkpt lat="47.0681" lon="6.09081">
        <ele>541</ele>
        <time>2021-07-22T11:27:11Z</time>
      </trkpt>
      <trkpt lat="47.06779" lon="6.09076">
        <ele>539</ele>
        <time>2021-07-22T11:29:59Z</time>
      </trkpt>
      <trkpt lat="47.06767" lon="6.09052">
        <ele>539</ele>
        <time>2021-07-22T11:37:46Z</time>
      </trkpt>
      <trkpt lat="47.06772" lon="6.09047">
        <ele>539</ele>
        <time>2021-07-22T11:38:04Z</time>
      </trkpt>
      <trkpt lat="47.0677" lon="6.09049">
        <ele>539</ele>
        <time>2021-07-22T11:39:04Z</time>
      </trkpt>
      <trkpt lat="47.06774" lon="6.0906">
        <ele>539</ele>
        <time>2021-07-22T11:39:11Z</time>
      </trkpt>
      <trkpt lat="47.06779" lon="6.09061">
        <ele>539</ele>
        <time>2021-07-22T11:40:04Z</time>
      </trkpt>
      <trkpt lat="47.0678" lon="6.09061">
        <ele>539</ele>
        <time>2021-07-22T11:40:55Z</time>
      </trkpt>
      <trkpt lat="47.06779" lon="6.09063">
        <ele>539</ele>
        <time>2021-07-22T11:43:51Z</time>
      </trkpt>
      <trkpt lat="47.06781" lon="6.09071">
        <ele>539</ele>
        <time>2021-07-22T11:44:15Z</time>
      </trkpt>
      <trkpt lat="47.06782" lon="6.09079">
        <ele>539</ele>
        <time>2021-07-22T11:44:21Z</time>
      </trkpt>
      <trkpt lat="47.06781" lon="6.09089">
        <ele>539</ele>
        <time>2021-07-22T11:44:30Z</time>
      </trkpt>
      <trkpt lat="47.06782" lon="6.09097">
        <ele>540</ele>
        <time>2021-07-22T11:44:36Z</time>
      </trkpt>
      <trkpt lat="47.06784" lon="6.09133">
        <ele>541</ele>
        <time>2021-07-22T11:45:03Z</time>
      </trkpt>
      <trkpt lat="47.06786" lon="6.09141">
        <ele>541</ele>
        <time>2021-07-22T11:45:07Z</time>
      </trkpt>
      <trkpt lat="47.06789" lon="6.09175">
        <ele>543</ele>
        <time>2021-07-22T11:45:37Z</time>
      </trkpt>
      <trkpt lat="47.06788" lon="6.09182">
        <ele>543</ele>
        <time>2021-07-22T11:45:43Z</time>
      </trkpt>
      <trkpt lat="47.0679" lon="6.09192">
        <ele>544</ele>
        <time>2021-07-22T11:45:48Z</time>
      </trkpt>
      <trkpt lat="47.06793" lon="6.09219">
        <ele>545</ele>
        <time>2021-07-22T11:46:06Z</time>
      </trkpt>
      <trkpt lat="47.06801" lon="6.09242">
        <ele>546</ele>
        <time>2021-07-22T11:46:25Z</time>
      </trkpt>
      <trkpt lat="47.06813" lon="6.09242">
        <ele>546</ele>
        <time>2021-07-22T11:46:47Z</time>
      </trkpt>
      <trkpt lat="47.06825" lon="6.09241">
        <ele>546</ele>
        <time>2021-07-22T11:47:01Z</time>
      </trkpt>
      <trkpt lat="47.06846" lon="6.09228">
        <ele>546</ele>
        <time>2021-07-22T11:47:20Z</time>
      </trkpt>
      <trkpt lat="47.06861" lon="6.09229">
        <ele>546</ele>
        <time>2021-07-22T11:47:30Z</time>
      </trkpt>
      <trkpt lat="47.0687" lon="6.09231">
        <ele>547</ele>
        <time>2021-07-22T11:47:39Z</time>
      </trkpt>
      <trkpt lat="47.06875" lon="6.09231">
        <ele>547</ele>
        <time>2021-07-22T11:47:53Z</time>
      </trkpt>
      <trkpt lat="47.06902" lon="6.09239">
        <ele>548</ele>
        <time>2021-07-22T11:48:24Z</time>
      </trkpt>
      <trkpt lat="47.06933" lon="6.09247">
        <ele>548</ele>
        <time>2021-07-22T11:48:50Z</time>
      </trkpt>
      <trkpt lat="47.06947" lon="6.09247">
        <ele>548</ele>
        <time>2021-07-22T11:49:02Z</time>
      </trkpt>
      <trkpt lat="47.06971" lon="6.0923">
        <ele>548</ele>
        <time>2021-07-22T11:49:16Z</time>
      </trkpt>
      <trkpt lat="47.06983" lon="6.09216">
        <ele>548</ele>
        <time>2021-07-22T11:49:26Z</time>
      </trkpt>
      <trkpt lat="47.06989" lon="6.09212">
        <ele>548</ele>
        <time>2021-07-22T11:49:31Z</time>
      </trkpt>
      <trkpt lat="47.06995" lon="6.09205">
        <ele>547</ele>
        <time>2021-07-22T11:49:45Z</time>
      </trkpt>
      <trkpt lat="47.07003" lon="6.09203">
        <ele>546</ele>
        <time>2021-07-22T11:50:15Z</time>
      </trkpt>
      <trkpt lat="47.0701" lon="6.09213">
        <ele>547</ele>
        <time>2021-07-22T11:50:28Z</time>
      </trkpt>
      <trkpt lat="47.07006" lon="6.09222">
        <ele>547</ele>
        <time>2021-07-22T11:50:37Z</time>
      </trkpt>
      <trkpt lat="47.07001" lon="6.09231">
        <ele>547</ele>
        <time>2021-07-22T11:51:15Z</time>
      </trkpt>
      <trkpt lat="47.06983" lon="6.09242">
        <ele>548</ele>
        <time>2021-07-22T11:51:33Z</time>
      </trkpt>
      <trkpt lat="47.06949" lon="6.09246">
        <ele>548</ele>
        <time>2021-07-22T11:52:02Z</time>
      </trkpt>
      <trkpt lat="47.06929" lon="6.09234">
        <ele>548</ele>
        <time>2021-07-22T11:52:27Z</time>
      </trkpt>
      <trkpt lat="47.06917" lon="6.09236">
        <ele>547</ele>
        <time>2021-07-22T11:52:39Z</time>
      </trkpt>
      <trkpt lat="47.06909" lon="6.09231">
        <ele>547</ele>
        <time>2021-07-22T11:52:43Z</time>
      </trkpt>
      <trkpt lat="47.06894" lon="6.09236">
        <ele>547</ele>
        <time>2021-07-22T11:53:01Z</time>
      </trkpt>
      <trkpt lat="47.06878" lon="6.09234">
        <ele>547</ele>
        <time>2021-07-22T11:53:10Z</time>
      </trkpt>
      <trkpt lat="47.06869" lon="6.09239">
        <ele>547</ele>
        <time>2021-07-22T11:53:18Z</time>
      </trkpt>
      <trkpt lat="47.06861" lon="6.09238">
        <ele>547</ele>
        <time>2021-07-22T11:53:25Z</time>
      </trkpt>
      <trkpt lat="47.06846" lon="6.09246">
        <ele>547</ele>
        <time>2021-07-22T11:53:37Z</time>
      </trkpt>
      <trkpt lat="47.06835" lon="6.09247">
        <ele>547</ele>
        <time>2021-07-22T11:53:47Z</time>
      </trkpt>
      <trkpt lat="47.06828" lon="6.0925">
        <ele>547</ele>
        <time>2021-07-22T11:53:53Z</time>
      </trkpt>
      <trkpt lat="47.06808" lon="6.09251">
        <ele>546</ele>
        <time>2021-07-22T11:54:12Z</time>
      </trkpt>
      <trkpt lat="47.06803" lon="6.09247">
        <ele>546</ele>
        <time>2021-07-22T11:54:22Z</time>
      </trkpt>
      <trkpt lat="47.06801" lon="6.09215">
        <ele>544</ele>
        <time>2021-07-22T11:54:42Z</time>
      </trkpt>
      <trkpt lat="47.06798" lon="6.09192">
        <ele>543</ele>
        <time>2021-07-22T11:54:54Z</time>
      </trkpt>
      <trkpt lat="47.06796" lon="6.09183">
        <ele>543</ele>
        <time>2021-07-22T11:55:01Z</time>
      </trkpt>
      <trkpt lat="47.06795" lon="6.09158">
        <ele>542</ele>
        <time>2021-07-22T11:55:15Z</time>
      </trkpt>
      <trkpt lat="47.06814" lon="6.09113">
        <ele>541</ele>
        <time>2021-07-22T11:55:47Z</time>
      </trkpt>
      <trkpt lat="47.06823" lon="6.0909">
        <ele>541</ele>
        <time>2021-07-22T11:56:01Z</time>
      </trkpt>
      <trkpt lat="47.0683" lon="6.09087">
        <ele>541</ele>
        <time>2021-07-22T11:56:12Z</time>
      </trkpt>
      <trkpt lat="47.06851" lon="6.09068">
        <ele>541</ele>
        <time>2021-07-22T11:56:46Z</time>
      </trkpt>
      <trkpt lat="47.06858" lon="6.09058">
        <ele>541</ele>
        <time>2021-07-22T11:56:51Z</time>
      </trkpt>
      <trkpt lat="47.06871" lon="6.09048">
        <ele>541</ele>
        <time>2021-07-22T11:57:07Z</time>
      </trkpt>
      <trkpt lat="47.06887" lon="6.09045">
        <ele>541</ele>
        <time>2021-07-22T11:57:19Z</time>
      </trkpt>
      <trkpt lat="47.06894" lon="6.09041">
        <ele>540</ele>
        <time>2021-07-22T11:57:25Z</time>
      </trkpt>
      <trkpt lat="47.06902" lon="6.0902">
        <ele>540</ele>
        <time>2021-07-22T11:57:37Z</time>
      </trkpt>
      <trkpt lat="47.06908" lon="6.09002">
        <ele>540</ele>
        <time>2021-07-22T11:57:47Z</time>
      </trkpt>
      <trkpt lat="47.06945" lon="6.08965">
        <ele>539</ele>
        <time>2021-07-22T11:58:18Z</time>
      </trkpt>
      <trkpt lat="47.06972" lon="6.08922">
        <ele>538</ele>
        <time>2021-07-22T11:58:55Z</time>
      </trkpt>
      <trkpt lat="47.06998" lon="6.089">
        <ele>537</ele>
        <time>2021-07-22T11:59:17Z</time>
      </trkpt>
      <trkpt lat="47.07006" lon="6.08881">
        <ele>537</ele>
        <time>2021-07-22T11:59:28Z</time>
      </trkpt>
      <trkpt lat="47.0701" lon="6.08859">
        <ele>537</ele>
        <time>2021-07-22T11:59:41Z</time>
      </trkpt>
      <trkpt lat="47.07014" lon="6.08815">
        <ele>537</ele>
        <time>2021-07-22T12:00:06Z</time>
      </trkpt>
      <trkpt lat="47.07041" lon="6.08795">
        <ele>536</ele>
        <time>2021-07-22T12:00:29Z</time>
      </trkpt>
      <trkpt lat="47.07051" lon="6.08779">
        <ele>536</ele>
        <time>2021-07-22T12:00:39Z</time>
      </trkpt>
      <trkpt lat="47.07062" lon="6.08758">
        <ele>536</ele>
        <time>2021-07-22T12:01:01Z</time>
      </trkpt>
      <trkpt lat="47.0707" lon="6.08704">
        <ele>535</ele>
        <time>2021-07-22T12:01:28Z</time>
      </trkpt>
      <trkpt lat="47.07084" lon="6.08694">
        <ele>535</ele>
        <time>2021-07-22T12:01:36Z</time>
      </trkpt>
      <trkpt lat="47.07104" lon="6.08663">
        <ele>535</ele>
        <time>2021-07-22T12:01:58Z</time>
      </trkpt>
      <trkpt lat="47.07122" lon="6.08603">
        <ele>534</ele>
        <time>2021-07-22T12:02:31Z</time>
      </trkpt>
      <trkpt lat="47.0712" lon="6.08583">
        <ele>534</ele>
        <time>2021-07-22T12:02:41Z</time>
      </trkpt>
      <trkpt lat="47.07142" lon="6.08543">
        <ele>533</ele>
        <time>2021-07-22T12:03:15Z</time>
      </trkpt>
      <trkpt lat="47.07164" lon="6.08503">
        <ele>533</ele>
        <time>2021-07-22T12:03:49Z</time>
      </trkpt>
      <trkpt lat="47.0717" lon="6.08492">
        <ele>533</ele>
        <time>2021-07-22T12:03:56Z</time>
      </trkpt>
      <trkpt lat="47.07195" lon="6.08484">
        <ele>532</ele>
        <time>2021-07-22T12:04:18Z</time>
      </trkpt>
      <trkpt lat="47.07201" lon="6.08477">
        <ele>532</ele>
        <time>2021-07-22T12:04:23Z</time>
      </trkpt>
      <trkpt lat="47.07212" lon="6.08474">
        <ele>532</ele>
        <time>2021-07-22T12:04:29Z</time>
      </trkpt>
      <trkpt lat="47.07219" lon="6.08464">
        <ele>533</ele>
        <time>2021-07-22T12:04:37Z</time>
      </trkpt>
      <trkpt lat="47.07274" lon="6.08449">
        <ele>532</ele>
        <time>2021-07-22T12:05:12Z</time>
      </trkpt>
      <trkpt lat="47.07281" lon="6.08444">
        <ele>532</ele>
        <time>2021-07-22T12:05:20Z</time>
      </trkpt>
      <trkpt lat="47.07286" lon="6.08434">
        <ele>532</ele>
        <time>2021-07-22T12:05:26Z</time>
      </trkpt>
      <trkpt lat="47.07294" lon="6.08424">
        <ele>532</ele>
        <time>2021-07-22T12:05:35Z</time>
      </trkpt>
      <trkpt lat="47.07298" lon="6.08416">
        <ele>532</ele>
        <time>2021-07-22T12:05:42Z</time>
      </trkpt>
      <trkpt lat="47.07298" lon="6.08403">
        <ele>532</ele>
        <time>2021-07-22T12:05:48Z</time>
      </trkpt>
      <trkpt lat="47.07318" lon="6.0836">
        <ele>531</ele>
        <time>2021-07-22T12:06:16Z</time>
      </trkpt>
      <trkpt lat="47.07334" lon="6.08335">
        <ele>532</ele>
        <time>2021-07-22T12:06:30Z</time>
      </trkpt>
      <trkpt lat="47.07349" lon="6.08294">
        <ele>533</ele>
        <time>2021-07-22T12:06:56Z</time>
      </trkpt>
      <trkpt lat="47.07361" lon="6.08284">
        <ele>534</ele>
        <time>2021-07-22T12:07:07Z</time>
      </trkpt>
      <trkpt lat="47.07384" lon="6.08251">
        <ele>534</ele>
        <time>2021-07-22T12:07:36Z</time>
      </trkpt>
      <trkpt lat="47.07391" lon="6.08248">
        <ele>535</ele>
        <time>2021-07-22T12:07:45Z</time>
      </trkpt>
      <trkpt lat="47.07407" lon="6.08223">
        <ele>535</ele>
        <time>2021-07-22T12:08:05Z</time>
      </trkpt>
      <trkpt lat="47.07422" lon="6.08183">
        <ele>536</ele>
        <time>2021-07-22T12:08:35Z</time>
      </trkpt>
      <trkpt lat="47.07433" lon="6.08164">
        <ele>536</ele>
        <time>2021-07-22T12:08:47Z</time>
      </trkpt>
      <trkpt lat="47.07436" lon="6.08156">
        <ele>536</ele>
        <time>2021-07-22T12:08:52Z</time>
      </trkpt>
      <trkpt lat="47.07437" lon="6.08125">
        <ele>536</ele>
        <time>2021-07-22T12:09:13Z</time>
      </trkpt>
      <trkpt lat="47.07444" lon="6.08093">
        <ele>536</ele>
        <time>2021-07-22T12:09:33Z</time>
      </trkpt>
      <trkpt lat="47.07446" lon="6.08071">
        <ele>535</ele>
        <time>2021-07-22T12:09:45Z</time>
      </trkpt>
      <trkpt lat="47.07452" lon="6.08051">
        <ele>535</ele>
        <time>2021-07-22T12:09:57Z</time>
      </trkpt>
      <trkpt lat="47.07464" lon="6.08035">
        <ele>534</ele>
        <time>2021-07-22T12:10:09Z</time>
      </trkpt>
      <trkpt lat="47.07471" lon="6.08013">
        <ele>534</ele>
        <time>2021-07-22T12:10:25Z</time>
      </trkpt>
      <trkpt lat="47.07473" lon="6.0801">
        <ele>533</ele>
        <time>2021-07-22T12:11:53Z</time>
      </trkpt>
      <trkpt lat="47.07476" lon="6.08016">
        <ele>533</ele>
        <time>2021-07-22T12:12:11Z</time>
      </trkpt>
      <trkpt lat="47.07481" lon="6.0801">
        <ele>533</ele>
        <time>2021-07-22T12:12:24Z</time>
      </trkpt>
      <trkpt lat="47.07486" lon="6.08006">
        <ele>533</ele>
        <time>2021-07-22T12:12:27Z</time>
      </trkpt>
      <trkpt lat="47.07483" lon="6.07998">
        <ele>533</ele>
        <time>2021-07-22T12:12:36Z</time>
      </trkpt>
      <trkpt lat="47.07476" lon="6.07997">
        <ele>533</ele>
        <time>2021-07-22T12:12:42Z</time>
      </trkpt>
      <trkpt lat="47.07467" lon="6.07987">
        <ele>533</ele>
        <time>2021-07-22T12:12:51Z</time>
      </trkpt>
      <trkpt lat="47.07438" lon="6.07972">
        <ele>533</ele>
        <time>2021-07-22T12:13:13Z</time>
      </trkpt>
      <trkpt lat="47.07428" lon="6.07961">
        <ele>533</ele>
        <time>2021-07-22T12:13:22Z</time>
      </trkpt>
      <trkpt lat="47.07421" lon="6.07958">
        <ele>533</ele>
        <time>2021-07-22T12:13:28Z</time>
      </trkpt>
      <trkpt lat="47.07415" lon="6.07958">
        <ele>533</ele>
        <time>2021-07-22T12:13:34Z</time>
      </trkpt>
      <trkpt lat="47.07385" lon="6.07942">
        <ele>533</ele>
        <time>2021-07-22T12:14:05Z</time>
      </trkpt>
      <trkpt lat="47.07379" lon="6.07938">
        <ele>533</ele>
        <time>2021-07-22T12:14:09Z</time>
      </trkpt>
      <trkpt lat="47.07374" lon="6.07933">
        <ele>533</ele>
        <time>2021-07-22T12:14:13Z</time>
      </trkpt>
      <trkpt lat="47.07368" lon="6.07934">
        <ele>533</ele>
        <time>2021-07-22T12:14:23Z</time>
      </trkpt>
      <trkpt lat="47.07363" lon="6.07934">
        <ele>533</ele>
        <time>2021-07-22T12:14:29Z</time>
      </trkpt>
      <trkpt lat="47.07353" lon="6.07943">
        <ele>532</ele>
        <time>2021-07-22T12:14:42Z</time>
      </trkpt>
      <trkpt lat="47.07331" lon="6.07942">
        <ele>532</ele>
        <time>2021-07-22T12:15:06Z</time>
      </trkpt>
      <trkpt lat="47.07327" lon="6.07943">
        <ele>531</ele>
        <time>2021-07-22T12:15:14Z</time>
      </trkpt>
      <trkpt lat="47.07323" lon="6.0795">
        <ele>531</ele>
        <time>2021-07-22T12:15:24Z</time>
      </trkpt>
      <trkpt lat="47.0732" lon="6.0795">
        <ele>531</ele>
        <time>2021-07-22T12:15:36Z</time>
      </trkpt>
      <trkpt lat="47.07314" lon="6.07954">
        <ele>531</ele>
        <time>2021-07-22T12:16:00Z</time>
      </trkpt>
      <trkpt lat="47.07317" lon="6.07963">
        <ele>531</ele>
        <time>2021-07-22T12:16:16Z</time>
      </trkpt>
      <trkpt lat="47.07315" lon="6.07972">
        <ele>530</ele>
        <time>2021-07-22T12:17:07Z</time>
      </trkpt>
      <trkpt lat="47.07316" lon="6.07982">
        <ele>530</ele>
        <time>2021-07-22T12:17:19Z</time>
      </trkpt>
      <trkpt lat="47.07319" lon="6.07978">
        <ele>529</ele>
        <time>2021-07-22T12:18:36Z</time>
      </trkpt>
      <trkpt lat="47.07324" lon="6.07969">
        <ele>529</ele>
        <time>2021-07-22T12:18:48Z</time>
      </trkpt>
      <trkpt lat="47.07325" lon="6.07961">
        <ele>529</ele>
        <time>2021-07-22T12:19:00Z</time>
      </trkpt>
      <trkpt lat="47.07318" lon="6.07961">
        <ele>528</ele>
        <time>2021-07-22T12:19:26Z</time>
      </trkpt>
      <trkpt lat="47.07321" lon="6.07953">
        <ele>528</ele>
        <time>2021-07-22T12:20:08Z</time>
      </trkpt>
      <trkpt lat="47.07339" lon="6.07945">
        <ele>529</ele>
        <time>2021-07-22T12:20:30Z</time>
      </trkpt>
      <trkpt lat="47.0735" lon="6.07936">
        <ele>529</ele>
        <time>2021-07-22T12:20:44Z</time>
      </trkpt>
      <trkpt lat="47.07358" lon="6.07933">
        <ele>529</ele>
        <time>2021-07-22T12:20:53Z</time>
      </trkpt>
      <trkpt lat="47.07371" lon="6.07939">
        <ele>530</ele>
        <time>2021-07-22T12:21:10Z</time>
      </trkpt>
      <trkpt lat="47.07385" lon="6.07941">
        <ele>530</ele>
        <time>2021-07-22T12:21:18Z</time>
      </trkpt>
      <trkpt lat="47.07401" lon="6.07953">
        <ele>530</ele>
        <time>2021-07-22T12:21:30Z</time>
      </trkpt>
      <trkpt lat="47.07409" lon="6.07957">
        <ele>531</ele>
        <time>2021-07-22T12:21:42Z</time>
      </trkpt>
      <trkpt lat="47.07413" lon="6.07962">
        <ele>531</ele>
        <time>2021-07-22T12:21:48Z</time>
      </trkpt>
      <trkpt lat="47.07419" lon="6.07965">
        <ele>531</ele>
        <time>2021-07-22T12:21:53Z</time>
      </trkpt>
      <trkpt lat="47.07424" lon="6.07969">
        <ele>531</ele>
        <time>2021-07-22T12:21:57Z</time>
      </trkpt>
      <trkpt lat="47.07432" lon="6.0797">
        <ele>531</ele>
        <time>2021-07-22T12:22:04Z</time>
      </trkpt>
      <trkpt lat="47.07437" lon="6.07975">
        <ele>531</ele>
        <time>2021-07-22T12:22:11Z</time>
      </trkpt>
      <trkpt lat="47.07454" lon="6.07983">
        <ele>532</ele>
        <time>2021-07-22T12:22:24Z</time>
      </trkpt>
      <trkpt lat="47.0746" lon="6.07983">
        <ele>532</ele>
        <time>2021-07-22T12:22:32Z</time>
      </trkpt>
      <trkpt lat="47.07466" lon="6.07986">
        <ele>532</ele>
        <time>2021-07-22T12:22:38Z</time>
      </trkpt>
      <trkpt lat="47.0747" lon="6.0799">
        <ele>532</ele>
        <time>2021-07-22T12:22:44Z</time>
      </trkpt>
      <trkpt lat="47.07478" lon="6.07998">
        <ele>532</ele>
        <time>2021-07-22T12:22:54Z</time>
      </trkpt>
      <trkpt lat="47.07477" lon="6.08008">
        <ele>532</ele>
        <time>2021-07-22T12:23:09Z</time>
      </trkpt>
      <trkpt lat="47.07472" lon="6.08023">
        <ele>532</ele>
        <time>2021-07-22T12:24:04Z</time>
      </trkpt>
      <trkpt lat="47.07472" lon="6.08031">
        <ele>533</ele>
        <time>2021-07-22T12:24:08Z</time>
      </trkpt>
      <trkpt lat="47.07465" lon="6.08051">
        <ele>533</ele>
        <time>2021-07-22T12:24:23Z</time>
      </trkpt>
      <trkpt lat="47.07461" lon="6.08057">
        <ele>533</ele>
        <time>2021-07-22T12:24:28Z</time>
      </trkpt>
      <trkpt lat="47.07455" lon="6.08075">
        <ele>534</ele>
        <time>2021-07-22T12:24:42Z</time>
      </trkpt>
      <trkpt lat="47.0745" lon="6.08103">
        <ele>534</ele>
        <time>2021-07-22T12:25:00Z</time>
      </trkpt>
      <trkpt lat="47.07447" lon="6.08111">
        <ele>534</ele>
        <time>2021-07-22T12:25:04Z</time>
      </trkpt>
      <trkpt lat="47.07447" lon="6.0812">
        <ele>534</ele>
        <time>2021-07-22T12:25:09Z</time>
      </trkpt>
      <trkpt lat="47.07448" lon="6.08137">
        <ele>534</ele>
        <time>2021-07-22T12:25:19Z</time>
      </trkpt>
      <trkpt lat="47.07447" lon="6.08147">
        <ele>534</ele>
        <time>2021-07-22T12:25:26Z</time>
      </trkpt>
      <trkpt lat="47.07448" lon="6.08155">
        <ele>534</ele>
        <time>2021-07-22T12:25:30Z</time>
      </trkpt>
      <trkpt lat="47.0744" lon="6.08178">
        <ele>533</ele>
        <time>2021-07-22T12:25:46Z</time>
      </trkpt>
      <trkpt lat="47.07437" lon="6.08185">
        <ele>533</ele>
        <time>2021-07-22T12:25:51Z</time>
      </trkpt>
      <trkpt lat="47.07426" lon="6.08198">
        <ele>533</ele>
        <time>2021-07-22T12:26:00Z</time>
      </trkpt>
      <trkpt lat="47.07423" lon="6.08204">
        <ele>532</ele>
        <time>2021-07-22T12:26:05Z</time>
      </trkpt>
      <trkpt lat="47.07421" lon="6.08212">
        <ele>532</ele>
        <time>2021-07-22T12:26:12Z</time>
      </trkpt>
      <trkpt lat="47.07416" lon="6.08223">
        <ele>532</ele>
        <time>2021-07-22T12:26:20Z</time>
      </trkpt>
      <trkpt lat="47.07411" lon="6.08228">
        <ele>532</ele>
        <time>2021-07-22T12:26:25Z</time>
      </trkpt>
      <trkpt lat="47.07399" lon="6.0825">
        <ele>532</ele>
        <time>2021-07-22T12:26:43Z</time>
      </trkpt>
      <trkpt lat="47.07382" lon="6.08257">
        <ele>532</ele>
        <time>2021-07-22T12:26:54Z</time>
      </trkpt>
      <trkpt lat="47.07375" lon="6.08268">
        <ele>532</ele>
        <time>2021-07-22T12:27:03Z</time>
      </trkpt>
      <trkpt lat="47.07372" lon="6.08276">
        <ele>532</ele>
        <time>2021-07-22T12:27:09Z</time>
      </trkpt>
      <trkpt lat="47.07341" lon="6.08312">
        <ele>530</ele>
        <time>2021-07-22T12:27:43Z</time>
      </trkpt>
      <trkpt lat="47.07333" lon="6.0832">
        <ele>530</ele>
        <time>2021-07-22T12:27:50Z</time>
      </trkpt>
      <trkpt lat="47.07322" lon="6.08336">
        <ele>530</ele>
        <time>2021-07-22T12:28:02Z</time>
      </trkpt>
      <trkpt lat="47.07319" lon="6.08346">
        <ele>530</ele>
        <time>2021-07-22T12:28:08Z</time>
      </trkpt>
      <trkpt lat="47.07301" lon="6.08366">
        <ele>530</ele>
        <time>2021-07-22T12:28:21Z</time>
      </trkpt>
      <trkpt lat="47.07288" lon="6.08395">
        <ele>530</ele>
        <time>2021-07-22T12:28:37Z</time>
      </trkpt>
      <trkpt lat="47.07279" lon="6.08405">
        <ele>530</ele>
        <time>2021-07-22T12:28:46Z</time>
      </trkpt>
      <trkpt lat="47.07263" lon="6.0843">
        <ele>531</ele>
        <time>2021-07-22T12:29:04Z</time>
      </trkpt>
      <trkpt lat="47.07228" lon="6.08453">
        <ele>531</ele>
        <time>2021-07-22T12:29:33Z</time>
      </trkpt>
      <trkpt lat="47.07222" lon="6.08454">
        <ele>531</ele>
        <time>2021-07-22T12:29:37Z</time>
      </trkpt>
      <trkpt lat="47.07212" lon="6.08463">
        <ele>531</ele>
        <time>2021-07-22T12:29:46Z</time>
      </trkpt>
      <trkpt lat="47.07201" lon="6.08477">
        <ele>532</ele>
        <time>2021-07-22T12:29:57Z</time>
      </trkpt>
      <trkpt lat="47.07198" lon="6.08484">
        <ele>532</ele>
        <time>2021-07-22T12:30:02Z</time>
      </trkpt>
      <trkpt lat="47.07193" lon="6.0849">
        <ele>532</ele>
        <time>2021-07-22T12:30:08Z</time>
      </trkpt>
      <trkpt lat="47.0719" lon="6.08498">
        <ele>532</ele>
        <time>2021-07-22T12:30:13Z</time>
      </trkpt>
      <trkpt lat="47.07185" lon="6.08503">
        <ele>532</ele>
        <time>2021-07-22T12:30:18Z</time>
      </trkpt>
      <trkpt lat="47.0718" lon="6.08506">
        <ele>532</ele>
        <time>2021-07-22T12:30:22Z</time>
      </trkpt>
      <trkpt lat="47.0717" lon="6.08518">
        <ele>533</ele>
        <time>2021-07-22T12:30:33Z</time>
      </trkpt>
      <trkpt lat="47.07165" lon="6.08522">
        <ele>533</ele>
        <time>2021-07-22T12:30:38Z</time>
      </trkpt>
      <trkpt lat="47.07146" lon="6.08544">
        <ele>533</ele>
        <time>2021-07-22T12:31:00Z</time>
      </trkpt>
      <trkpt lat="47.07143" lon="6.08552">
        <ele>533</ele>
        <time>2021-07-22T12:31:05Z</time>
      </trkpt>
      <trkpt lat="47.07128" lon="6.08569">
        <ele>533</ele>
        <time>2021-07-22T12:31:20Z</time>
      </trkpt>
      <trkpt lat="47.07125" lon="6.08577">
        <ele>533</ele>
        <time>2021-07-22T12:31:25Z</time>
      </trkpt>
      <trkpt lat="47.07126" lon="6.0859">
        <ele>534</ele>
        <time>2021-07-22T12:31:35Z</time>
      </trkpt>
      <trkpt lat="47.07126" lon="6.08598">
        <ele>534</ele>
        <time>2021-07-22T12:31:39Z</time>
      </trkpt>
      <trkpt lat="47.07116" lon="6.08653">
        <ele>535</ele>
        <time>2021-07-22T12:32:11Z</time>
      </trkpt>
      <trkpt lat="47.07113" lon="6.08662">
        <ele>535</ele>
        <time>2021-07-22T12:32:16Z</time>
      </trkpt>
      <trkpt lat="47.0711" lon="6.08668">
        <ele>535</ele>
        <time>2021-07-22T12:32:21Z</time>
      </trkpt>
      <trkpt lat="47.07104" lon="6.08674">
        <ele>535</ele>
        <time>2021-07-22T12:32:29Z</time>
      </trkpt>
      <trkpt lat="47.07093" lon="6.08687">
        <ele>535</ele>
        <time>2021-07-22T12:32:38Z</time>
      </trkpt>
      <trkpt lat="47.07082" lon="6.08719">
        <ele>535</ele>
        <time>2021-07-22T12:32:57Z</time>
      </trkpt>
      <trkpt lat="47.07081" lon="6.08727">
        <ele>535</ele>
        <time>2021-07-22T12:33:02Z</time>
      </trkpt>
      <trkpt lat="47.07078" lon="6.08733">
        <ele>535</ele>
        <time>2021-07-22T12:33:07Z</time>
      </trkpt>
      <trkpt lat="47.07059" lon="6.08756">
        <ele>536</ele>
        <time>2021-07-22T12:33:24Z</time>
      </trkpt>
      <trkpt lat="47.07053" lon="6.0877">
        <ele>536</ele>
        <time>2021-07-22T12:33:35Z</time>
      </trkpt>
      <trkpt lat="47.0705" lon="6.08777">
        <ele>535</ele>
        <time>2021-07-22T12:33:39Z</time>
      </trkpt>
      <trkpt lat="47.0704" lon="6.0879">
        <ele>535</ele>
        <time>2021-07-22T12:33:52Z</time>
      </trkpt>
      <trkpt lat="47.07035" lon="6.08794">
        <ele>535</ele>
        <time>2021-07-22T12:33:56Z</time>
      </trkpt>
      <trkpt lat="47.0703" lon="6.08802">
        <ele>535</ele>
        <time>2021-07-22T12:34:01Z</time>
      </trkpt>
      <trkpt lat="47.07025" lon="6.08819">
        <ele>536</ele>
        <time>2021-07-22T12:34:11Z</time>
      </trkpt>
      <trkpt lat="47.07007" lon="6.08857">
        <ele>537</ele>
        <time>2021-07-22T12:34:38Z</time>
      </trkpt>
      <trkpt lat="47.07006" lon="6.08865">
        <ele>537</ele>
        <time>2021-07-22T12:34:43Z</time>
      </trkpt>
      <trkpt lat="47.07002" lon="6.08872">
        <ele>537</ele>
        <time>2021-07-22T12:34:49Z</time>
      </trkpt>
      <trkpt lat="47.06996" lon="6.08878">
        <ele>537</ele>
        <time>2021-07-22T12:34:55Z</time>
      </trkpt>
      <trkpt lat="47.0698" lon="6.08915">
        <ele>537</ele>
        <time>2021-07-22T12:35:25Z</time>
      </trkpt>
      <trkpt lat="47.06949" lon="6.08951">
        <ele>539</ele>
        <time>2021-07-22T12:35:54Z</time>
      </trkpt>
      <trkpt lat="47.06946" lon="6.08958">
        <ele>539</ele>
        <time>2021-07-22T12:36:00Z</time>
      </trkpt>
      <trkpt lat="47.06943" lon="6.08965">
        <ele>540</ele>
        <time>2021-07-22T12:36:05Z</time>
      </trkpt>
      <trkpt lat="47.06935" lon="6.08984">
        <ele>540</ele>
        <time>2021-07-22T12:36:19Z</time>
      </trkpt>
      <trkpt lat="47.06931" lon="6.08989">
        <ele>540</ele>
        <time>2021-07-22T12:36:24Z</time>
      </trkpt>
      <trkpt lat="47.06925" lon="6.09">
        <ele>540</ele>
        <time>2021-07-22T12:36:38Z</time>
      </trkpt>
      <trkpt lat="47.06899" lon="6.09034">
        <ele>540</ele>
        <time>2021-07-22T12:37:03Z</time>
      </trkpt>
      <trkpt lat="47.06885" lon="6.09043">
        <ele>540</ele>
        <time>2021-07-22T12:37:15Z</time>
      </trkpt>
      <trkpt lat="47.0688" lon="6.09049">
        <ele>540</ele>
        <time>2021-07-22T12:37:20Z</time>
      </trkpt>
      <trkpt lat="47.06843" lon="6.0907">
        <ele>540</ele>
        <time>2021-07-22T12:37:51Z</time>
      </trkpt>
      <trkpt lat="47.06836" lon="6.09073">
        <ele>540</ele>
        <time>2021-07-22T12:37:55Z</time>
      </trkpt>
      <trkpt lat="47.06816" lon="6.09093">
        <ele>540</ele>
        <time>2021-07-22T12:38:15Z</time>
      </trkpt>
      <trkpt lat="47.06812" lon="6.09098">
        <ele>540</ele>
        <time>2021-07-22T12:38:19Z</time>
      </trkpt>
      <trkpt lat="47.06809" lon="6.09105">
        <ele>540</ele>
        <time>2021-07-22T12:38:23Z</time>
      </trkpt>
      <trkpt lat="47.06789" lon="6.0912">
        <ele>540</ele>
        <time>2021-07-22T12:38:41Z</time>
      </trkpt>
      <trkpt lat="47.06786" lon="6.09136">
        <ele>541</ele>
        <time>2021-07-22T12:38:51Z</time>
      </trkpt>
      <trkpt lat="47.06787" lon="6.09153">
        <ele>541</ele>
        <time>2021-07-22T12:39:00Z</time>
      </trkpt>
      <trkpt lat="47.0679" lon="6.09159">
        <ele>542</ele>
        <time>2021-07-22T12:39:06Z</time>
      </trkpt>
      <trkpt lat="47.06795" lon="6.09163">
        <ele>542</ele>
        <time>2021-07-22T12:39:44Z</time>
      </trkpt>
      <trkpt lat="47.06789" lon="6.09168">
        <ele>542</ele>
        <time>2021-07-22T12:40:08Z</time>
      </trkpt>
      <trkpt lat="47.06789" lon="6.0918">
        <ele>542</ele>
        <time>2021-07-22T12:40:55Z</time>
      </trkpt>
      <trkpt lat="47.06787" lon="6.09188">
        <ele>543</ele>
        <time>2021-07-22T12:41:00Z</time>
      </trkpt>
      <trkpt lat="47.06795" lon="6.0922">
        <ele>544</ele>
        <time>2021-07-22T12:41:28Z</time>
      </trkpt>
      <trkpt lat="47.06824" lon="6.09261">
        <ele>547</ele>
        <time>2021-07-22T12:42:03Z</time>
      </trkpt>
      <trkpt lat="47.06829" lon="6.09268">
        <ele>547</ele>
        <time>2021-07-22T12:42:11Z</time>
      </trkpt>
      <trkpt lat="47.06834" lon="6.09282">
        <ele>547</ele>
        <time>2021-07-22T12:42:20Z</time>
      </trkpt>
      <trkpt lat="47.0684" lon="6.09289">
        <ele>548</ele>
        <time>2021-07-22T12:42:25Z</time>
      </trkpt>
      <trkpt lat="47.06846" lon="6.09294">
        <ele>548</ele>
        <time>2021-07-22T12:42:30Z</time>
      </trkpt>
      <trkpt lat="47.06862" lon="6.09319">
        <ele>549</ele>
        <time>2021-07-22T12:42:46Z</time>
      </trkpt>
      <trkpt lat="47.06866" lon="6.09327">
        <ele>549</ele>
        <time>2021-07-22T12:42:51Z</time>
      </trkpt>
      <trkpt lat="47.06891" lon="6.09364">
        <ele>551</ele>
        <time>2021-07-22T12:43:24Z</time>
      </trkpt>
      <trkpt lat="47.06896" lon="6.09372">
        <ele>552</ele>
        <time>2021-07-22T12:43:29Z</time>
      </trkpt>
      <trkpt lat="47.06912" lon="6.09395">
        <ele>552</ele>
        <time>2021-07-22T12:43:49Z</time>
      </trkpt>
      <trkpt lat="47.06914" lon="6.09402">
        <ele>553</ele>
        <time>2021-07-22T12:43:53Z</time>
      </trkpt>
      <trkpt lat="47.06927" lon="6.09415">
        <ele>553</ele>
        <time>2021-07-22T12:44:08Z</time>
      </trkpt>
      <trkpt lat="47.06931" lon="6.09423">
        <ele>553</ele>
        <time>2021-07-22T12:44:14Z</time>
      </trkpt>
      <trkpt lat="47.06933" lon="6.09431">
        <ele>553</ele>
        <time>2021-07-22T12:44:18Z</time>
      </trkpt>
      <trkpt lat="47.06932" lon="6.09439">
        <ele>554</ele>
        <time>2021-07-22T12:44:26Z</time>
      </trkpt>
      <trkpt lat="47.06943" lon="6.09459">
        <ele>554</ele>
        <time>2021-07-22T12:44:42Z</time>
      </trkpt>
      <trkpt lat="47.06943" lon="6.09468">
        <ele>555</ele>
        <time>2021-07-22T12:44:48Z</time>
      </trkpt>
      <trkpt lat="47.0695" lon="6.09511">
        <ele>556</ele>
        <time>2021-07-22T12:45:14Z</time>
      </trkpt>
      <trkpt lat="47.06948" lon="6.09528">
        <ele>557</ele>
        <time>2021-07-22T12:45:24Z</time>
      </trkpt>
      <trkpt lat="47.06949" lon="6.09548">
        <ele>558</ele>
        <time>2021-07-22T12:45:35Z</time>
      </trkpt>
      <trkpt lat="47.06959" lon="6.09572">
        <ele>558</ele>
        <time>2021-07-22T12:45:52Z</time>
      </trkpt>
      <trkpt lat="47.06965" lon="6.09585">
        <ele>559</ele>
        <time>2021-07-22T12:46:02Z</time>
      </trkpt>
      <trkpt lat="47.06979" lon="6.09617">
        <ele>560</ele>
        <time>2021-07-22T12:46:24Z</time>
      </trkpt>
      <trkpt lat="47.06976" lon="6.09627">
        <ele>560</ele>
        <time>2021-07-22T12:46:35Z</time>
      </trkpt>
      <trkpt lat="47.06962" lon="6.09638">
        <ele>561</ele>
        <time>2021-07-22T12:46:50Z</time>
      </trkpt>
      <trkpt lat="47.0695" lon="6.09642">
        <ele>561</ele>
        <time>2021-07-22T12:47:01Z</time>
      </trkpt>
      <trkpt lat="47.06946" lon="6.09647">
        <ele>561</ele>
        <time>2021-07-22T12:47:06Z</time>
      </trkpt>
      <trkpt lat="47.0694" lon="6.09649">
        <ele>561</ele>
        <time>2021-07-22T12:47:11Z</time>
      </trkpt>
      <trkpt lat="47.06935" lon="6.09658">
        <ele>561</ele>
        <time>2021-07-22T12:47:17Z</time>
      </trkpt>
      <trkpt lat="47.06928" lon="6.09663">
        <ele>561</ele>
        <time>2021-07-22T12:47:24Z</time>
      </trkpt>
      <trkpt lat="47.06923" lon="6.09664">
        <ele>561</ele>
        <time>2021-07-22T12:47:28Z</time>
      </trkpt>
      <trkpt lat="47.06896" lon="6.09689">
        <ele>561</ele>
        <time>2021-07-22T12:47:57Z</time>
      </trkpt>
      <trkpt lat="47.06895" lon="6.09698">
        <ele>561</ele>
        <time>2021-07-22T12:48:03Z</time>
      </trkpt>
      <trkpt lat="47.06895" lon="6.09706">
        <ele>562</ele>
        <time>2021-07-22T12:48:11Z</time>
      </trkpt>
      <trkpt lat="47.06899" lon="6.09713">
        <ele>563</ele>
        <time>2021-07-22T12:48:17Z</time>
      </trkpt>
      <trkpt lat="47.06905" lon="6.09718">
        <ele>563</ele>
        <time>2021-07-22T12:48:31Z</time>
      </trkpt>
      <trkpt lat="47.06912" lon="6.09721">
        <ele>563</ele>
        <time>2021-07-22T12:48:43Z</time>
      </trkpt>
      <trkpt lat="47.06924" lon="6.09738">
        <ele>563</ele>
        <time>2021-07-22T12:48:52Z</time>
      </trkpt>
      <trkpt lat="47.06944" lon="6.09759">
        <ele>564</ele>
        <time>2021-07-22T12:49:18Z</time>
      </trkpt>
      <trkpt lat="47.0695" lon="6.09769">
        <ele>564</ele>
        <time>2021-07-22T12:49:25Z</time>
      </trkpt>
      <trkpt lat="47.06951" lon="6.09781">
        <ele>564</ele>
        <time>2021-07-22T12:49:31Z</time>
      </trkpt>
      <trkpt lat="47.06947" lon="6.09792">
        <ele>564</ele>
        <time>2021-07-22T12:49:37Z</time>
      </trkpt>
      <trkpt lat="47.06944" lon="6.09798">
        <ele>564</ele>
        <time>2021-07-22T12:49:40Z</time>
      </trkpt>
      <trkpt lat="47.06941" lon="6.09806">
        <ele>564</ele>
        <time>2021-07-22T12:49:44Z</time>
      </trkpt>
      <trkpt lat="47.06934" lon="6.09819">
        <ele>565</ele>
        <time>2021-07-22T12:49:54Z</time>
      </trkpt>
      <trkpt lat="47.06926" lon="6.09823">
        <ele>565</ele>
        <time>2021-07-22T12:50:01Z</time>
      </trkpt>
      <trkpt lat="47.06921" lon="6.09829">
        <ele>565</ele>
        <time>2021-07-22T12:50:06Z</time>
      </trkpt>
      <trkpt lat="47.06892" lon="6.09868">
        <ele>565</ele>
        <time>2021-07-22T12:50:36Z</time>
      </trkpt>
      <trkpt lat="47.06889" lon="6.09874">
        <ele>565</ele>
        <time>2021-07-22T12:50:41Z</time>
      </trkpt>
      <trkpt lat="47.06877" lon="6.09882">
        <ele>566</ele>
        <time>2021-07-22T12:50:51Z</time>
      </trkpt>
      <trkpt lat="47.06855" lon="6.09902">
        <ele>567</ele>
        <time>2021-07-22T12:51:15Z</time>
      </trkpt>
      <trkpt lat="47.06852" lon="6.0991">
        <ele>567</ele>
        <time>2021-07-22T12:51:18Z</time>
      </trkpt>
      <trkpt lat="47.06844" lon="6.09961">
        <ele>568</ele>
        <time>2021-07-22T12:51:49Z</time>
      </trkpt>
      <trkpt lat="47.06845" lon="6.09981">
        <ele>568</ele>
        <time>2021-07-22T12:52:02Z</time>
      </trkpt>
      <trkpt lat="47.06841" lon="6.10006">
        <ele>569</ele>
        <time>2021-07-22T12:52:15Z</time>
      </trkpt>
      <trkpt lat="47.06841" lon="6.10044">
        <ele>569</ele>
        <time>2021-07-22T12:52:38Z</time>
      </trkpt>
      <trkpt lat="47.06835" lon="6.10058">
        <ele>569</ele>
        <time>2021-07-22T12:52:48Z</time>
      </trkpt>
      <trkpt lat="47.06831" lon="6.10065">
        <ele>569</ele>
        <time>2021-07-22T12:52:54Z</time>
      </trkpt>
      <trkpt lat="47.06799" lon="6.10094">
        <ele>569</ele>
        <time>2021-07-22T12:53:26Z</time>
      </trkpt>
      <trkpt lat="47.06793" lon="6.10099">
        <ele>569</ele>
        <time>2021-07-22T12:53:31Z</time>
      </trkpt>
      <trkpt lat="47.0679" lon="6.10116">
        <ele>569</ele>
        <time>2021-07-22T12:53:41Z</time>
      </trkpt>
      <trkpt lat="47.06794" lon="6.10143">
        <ele>569</ele>
        <time>2021-07-22T12:53:58Z</time>
      </trkpt>
      <trkpt lat="47.06796" lon="6.10154">
        <ele>569</ele>
        <time>2021-07-22T12:54:05Z</time>
      </trkpt>
      <trkpt lat="47.06801" lon="6.10161">
        <ele>569</ele>
        <time>2021-07-22T12:54:10Z</time>
      </trkpt>
      <trkpt lat="47.06804" lon="6.10191">
        <ele>569</ele>
        <time>2021-07-22T12:54:33Z</time>
      </trkpt>
      <trkpt lat="47.06801" lon="6.10217">
        <ele>568</ele>
        <time>2021-07-22T12:54:44Z</time>
      </trkpt>
      <trkpt lat="47.06799" lon="6.10223">
        <ele>568</ele>
        <time>2021-07-22T12:54:48Z</time>
      </trkpt>
      <trkpt lat="47.068" lon="6.10241">
        <ele>568</ele>
        <time>2021-07-22T12:54:57Z</time>
      </trkpt>
      <trkpt lat="47.06799" lon="6.1025">
        <ele>568</ele>
        <time>2021-07-22T12:55:02Z</time>
      </trkpt>
      <trkpt lat="47.06795" lon="6.10255">
        <ele>568</ele>
        <time>2021-07-22T12:55:05Z</time>
      </trkpt>
      <trkpt lat="47.06773" lon="6.10294">
        <ele>567</ele>
        <time>2021-07-22T12:55:27Z</time>
      </trkpt>
      <trkpt lat="47.0677" lon="6.10298">
        <ele>567</ele>
        <time>2021-07-22T12:55:30Z</time>
      </trkpt>
      <trkpt lat="47.06763" lon="6.10322">
        <ele>568</ele>
        <time>2021-07-22T12:55:46Z</time>
      </trkpt>
      <trkpt lat="47.06762" lon="6.10328">
        <ele>568</ele>
        <time>2021-07-22T12:55:49Z</time>
      </trkpt>
      <trkpt lat="47.06758" lon="6.1034">
        <ele>568</ele>
        <time>2021-07-22T12:55:56Z</time>
      </trkpt>
      <trkpt lat="47.06752" lon="6.10366">
        <ele>568</ele>
        <time>2021-07-22T12:56:13Z</time>
      </trkpt>
      <trkpt lat="47.06752" lon="6.10376">
        <ele>568</ele>
        <time>2021-07-22T12:56:17Z</time>
      </trkpt>
      <trkpt lat="47.06751" lon="6.10392">
        <ele>568</ele>
        <time>2021-07-22T12:56:27Z</time>
      </trkpt>
      <trkpt lat="47.06751" lon="6.10402">
        <ele>568</ele>
        <time>2021-07-22T12:56:33Z</time>
      </trkpt>
      <trkpt lat="47.06746" lon="6.10428">
        <ele>568</ele>
        <time>2021-07-22T12:56:47Z</time>
      </trkpt>
      <trkpt lat="47.06746" lon="6.10436">
        <ele>568</ele>
        <time>2021-07-22T12:56:52Z</time>
      </trkpt>
      <trkpt lat="47.06747" lon="6.10449">
        <ele>568</ele>
        <time>2021-07-22T12:57:00Z</time>
      </trkpt>
      <trkpt lat="47.06744" lon="6.10467">
        <ele>568</ele>
        <time>2021-07-22T12:57:10Z</time>
      </trkpt>
      <trkpt lat="47.06742" lon="6.10476">
        <ele>568</ele>
        <time>2021-07-22T12:57:18Z</time>
      </trkpt>
      <trkpt lat="47.06741" lon="6.10485">
        <ele>568</ele>
        <time>2021-07-22T12:57:24Z</time>
      </trkpt>
      <trkpt lat="47.06736" lon="6.10491">
        <ele>568</ele>
        <time>2021-07-22T12:57:28Z</time>
      </trkpt>
      <trkpt lat="47.06732" lon="6.10517">
        <ele>568</ele>
        <time>2021-07-22T12:57:41Z</time>
      </trkpt>
      <trkpt lat="47.06708" lon="6.10562">
        <ele>569</ele>
        <time>2021-07-22T12:58:13Z</time>
      </trkpt>
      <trkpt lat="47.06705" lon="6.10568">
        <ele>569</ele>
        <time>2021-07-22T12:58:17Z</time>
      </trkpt>
      <trkpt lat="47.06703" lon="6.10576">
        <ele>569</ele>
        <time>2021-07-22T12:58:22Z</time>
      </trkpt>
      <trkpt lat="47.06696" lon="6.10592">
        <ele>569</ele>
        <time>2021-07-22T12:58:32Z</time>
      </trkpt>
      <trkpt lat="47.06694" lon="6.10601">
        <ele>569</ele>
        <time>2021-07-22T12:58:37Z</time>
      </trkpt>
      <trkpt lat="47.06688" lon="6.10608">
        <ele>569</ele>
        <time>2021-07-22T12:58:42Z</time>
      </trkpt>
      <trkpt lat="47.06685" lon="6.10629">
        <ele>569</ele>
        <time>2021-07-22T12:58:55Z</time>
      </trkpt>
      <trkpt lat="47.06684" lon="6.10646">
        <ele>569</ele>
        <time>2021-07-22T12:59:05Z</time>
      </trkpt>
      <trkpt lat="47.06682" lon="6.10655">
        <ele>568</ele>
        <time>2021-07-22T12:59:11Z</time>
      </trkpt>
      <trkpt lat="47.06678" lon="6.10661">
        <ele>568</ele>
        <time>2021-07-22T12:59:15Z</time>
      </trkpt>
      <trkpt lat="47.06669" lon="6.10694">
        <ele>568</ele>
        <time>2021-07-22T12:59:33Z</time>
      </trkpt>
      <trkpt lat="47.06669" lon="6.10711">
        <ele>567</ele>
        <time>2021-07-22T12:59:41Z</time>
      </trkpt>
      <trkpt lat="47.06668" lon="6.10727">
        <ele>567</ele>
        <time>2021-07-22T12:59:52Z</time>
      </trkpt>
      <trkpt lat="47.0667" lon="6.10736">
        <ele>566</ele>
        <time>2021-07-22T12:59:57Z</time>
      </trkpt>
      <trkpt lat="47.06665" lon="6.10777">
        <ele>565</ele>
        <time>2021-07-22T13:00:23Z</time>
      </trkpt>
      <trkpt lat="47.06668" lon="6.10773">
        <ele>564</ele>
        <time>2021-07-22T13:01:26Z</time>
      </trkpt>
      <trkpt lat="47.06674" lon="6.10776">
        <ele>564</ele>
        <time>2021-07-22T13:01:31Z</time>
      </trkpt>
      <trkpt lat="47.06665" lon="6.10784">
        <ele>564</ele>
        <time>2021-07-22T13:02:22Z</time>
      </trkpt>
      <trkpt lat="47.06667" lon="6.10791">
        <ele>564</ele>
        <time>2021-07-22T13:03:28Z</time>
      </trkpt>
      <trkpt lat="47.06659" lon="6.10795">
        <ele>563</ele>
        <time>2021-07-22T13:04:42Z</time>
      </trkpt>
      <trkpt lat="47.06647" lon="6.10809">
        <ele>563</ele>
        <time>2021-07-22T13:04:58Z</time>
      </trkpt>
      <trkpt lat="47.06642" lon="6.10817">
        <ele>563</ele>
        <time>2021-07-22T13:05:06Z</time>
      </trkpt>
      <trkpt lat="47.06633" lon="6.1084">
        <ele>564</ele>
        <time>2021-07-22T13:05:21Z</time>
      </trkpt>
      <trkpt lat="47.06625" lon="6.10852">
        <ele>564</ele>
        <time>2021-07-22T13:05:31Z</time>
      </trkpt>
      <trkpt lat="47.06615" lon="6.10871">
        <ele>565</ele>
        <time>2021-07-22T13:05:46Z</time>
      </trkpt>
      <trkpt lat="47.06605" lon="6.10882">
        <ele>565</ele>
        <time>2021-07-22T13:05:55Z</time>
      </trkpt>
      <trkpt lat="47.06589" lon="6.10919">
        <ele>566</ele>
        <time>2021-07-22T13:06:22Z</time>
      </trkpt>
      <trkpt lat="47.06583" lon="6.10936">
        <ele>566</ele>
        <time>2021-07-22T13:06:32Z</time>
      </trkpt>
      <trkpt lat="47.06575" lon="6.1095">
        <ele>566</ele>
        <time>2021-07-22T13:06:45Z</time>
      </trkpt>
      <trkpt lat="47.06567" lon="6.10975">
        <ele>566</ele>
        <time>2021-07-22T13:07:01Z</time>
      </trkpt>
      <trkpt lat="47.06564" lon="6.10983">
        <ele>566</ele>
        <time>2021-07-22T13:07:06Z</time>
      </trkpt>
      <trkpt lat="47.0655" lon="6.10998">
        <ele>567</ele>
        <time>2021-07-22T13:07:20Z</time>
      </trkpt>
      <trkpt lat="47.06543" lon="6.11015">
        <ele>567</ele>
        <time>2021-07-22T13:07:34Z</time>
      </trkpt>
      <trkpt lat="47.06536" lon="6.11019">
        <ele>567</ele>
        <time>2021-07-22T13:07:37Z</time>
      </trkpt>
      <trkpt lat="47.06523" lon="6.11048">
        <ele>569</ele>
        <time>2021-07-22T13:07:59Z</time>
      </trkpt>
      <trkpt lat="47.06508" lon="6.11064">
        <ele>570</ele>
        <time>2021-07-22T13:08:13Z</time>
      </trkpt>
      <trkpt lat="47.06502" lon="6.11069">
        <ele>570</ele>
        <time>2021-07-22T13:08:17Z</time>
      </trkpt>
      <trkpt lat="47.06498" lon="6.11075">
        <ele>570</ele>
        <time>2021-07-22T13:08:23Z</time>
      </trkpt>
      <trkpt lat="47.06492" lon="6.11081">
        <ele>570</ele>
        <time>2021-07-22T13:08:31Z</time>
      </trkpt>
      <trkpt lat="47.06453" lon="6.11109">
        <ele>572</ele>
        <time>2021-07-22T13:09:06Z</time>
      </trkpt>
      <trkpt lat="47.06441" lon="6.11113">
        <ele>572</ele>
        <time>2021-07-22T13:09:16Z</time>
      </trkpt>
      <trkpt lat="47.06437" lon="6.11118">
        <ele>572</ele>
        <time>2021-07-22T13:09:21Z</time>
      </trkpt>
      <trkpt lat="47.06419" lon="6.11126">
        <ele>573</ele>
        <time>2021-07-22T13:09:38Z</time>
      </trkpt>
      <trkpt lat="47.06403" lon="6.11141">
        <ele>573</ele>
        <time>2021-07-22T13:09:56Z</time>
      </trkpt>
      <trkpt lat="47.06397" lon="6.11143">
        <ele>573</ele>
        <time>2021-07-22T13:10:00Z</time>
      </trkpt>
      <trkpt lat="47.06375" lon="6.11162">
        <ele>573</ele>
        <time>2021-07-22T13:10:24Z</time>
      </trkpt>
      <trkpt lat="47.06365" lon="6.11185">
        <ele>572</ele>
        <time>2021-07-22T13:10:40Z</time>
      </trkpt>
      <trkpt lat="47.0636" lon="6.11191">
        <ele>572</ele>
        <time>2021-07-22T13:10:44Z</time>
      </trkpt>
      <trkpt lat="47.06346" lon="6.11222">
        <ele>570</ele>
        <time>2021-07-22T13:11:05Z</time>
      </trkpt>
      <trkpt lat="47.06347" lon="6.11239">
        <ele>568</ele>
        <time>2021-07-22T13:11:14Z</time>
      </trkpt>
      <trkpt lat="47.06346" lon="6.11249">
        <ele>568</ele>
        <time>2021-07-22T13:11:19Z</time>
      </trkpt>
      <trkpt lat="47.06342" lon="6.11265">
        <ele>566</ele>
        <time>2021-07-22T13:11:30Z</time>
      </trkpt>
      <trkpt lat="47.06342" lon="6.11278">
        <ele>566</ele>
        <time>2021-07-22T13:11:38Z</time>
      </trkpt>
      <trkpt lat="47.06338" lon="6.11302">
        <ele>564</ele>
        <time>2021-07-22T13:11:54Z</time>
      </trkpt>
      <trkpt lat="47.06337" lon="6.11328">
        <ele>563</ele>
        <time>2021-07-22T13:12:10Z</time>
      </trkpt>
      <trkpt lat="47.06333" lon="6.11335">
        <ele>561</ele>
        <time>2021-07-22T13:12:22Z</time>
      </trkpt>
      <trkpt lat="47.06336" lon="6.11345">
        <ele>561</ele>
        <time>2021-07-22T13:12:34Z</time>
      </trkpt>
      <trkpt lat="47.06334" lon="6.11357">
        <ele>560</ele>
        <time>2021-07-22T13:12:52Z</time>
      </trkpt>
      <trkpt lat="47.06334" lon="6.1138">
        <ele>558</ele>
        <time>2021-07-22T13:13:06Z</time>
      </trkpt>
      <trkpt lat="47.06336" lon="6.11391">
        <ele>557</ele>
        <time>2021-07-22T13:13:14Z</time>
      </trkpt>
      <trkpt lat="47.06342" lon="6.11407">
        <ele>555</ele>
        <time>2021-07-22T13:13:24Z</time>
      </trkpt>
      <trkpt lat="47.0635" lon="6.11422">
        <ele>553</ele>
        <time>2021-07-22T13:13:38Z</time>
      </trkpt>
      <trkpt lat="47.0635" lon="6.11436">
        <ele>552</ele>
        <time>2021-07-22T13:13:47Z</time>
      </trkpt>
      <trkpt lat="47.06352" lon="6.11452">
        <ele>551</ele>
        <time>2021-07-22T13:13:56Z</time>
      </trkpt>
      <trkpt lat="47.06355" lon="6.11462">
        <ele>550</ele>
        <time>2021-07-22T13:14:03Z</time>
      </trkpt>
      <trkpt lat="47.06365" lon="6.11471">
        <ele>547</ele>
        <time>2021-07-22T13:14:18Z</time>
      </trkpt>
      <trkpt lat="47.06377" lon="6.11471">
        <ele>545</ele>
        <time>2021-07-22T13:14:31Z</time>
      </trkpt>
      <trkpt lat="47.06381" lon="6.11476">
        <ele>544</ele>
        <time>2021-07-22T13:14:36Z</time>
      </trkpt>
      <trkpt lat="47.06415" lon="6.11486">
        <ele>539</ele>
        <time>2021-07-22T13:15:07Z</time>
      </trkpt>
      <trkpt lat="47.06461" lon="6.11503">
        <ele>537</ele>
        <time>2021-07-22T13:15:41Z</time>
      </trkpt>
      <trkpt lat="47.065" lon="6.11516">
        <ele>536</ele>
        <time>2021-07-22T13:16:14Z</time>
      </trkpt>
      <trkpt lat="47.06505" lon="6.11519">
        <ele>537</ele>
        <time>2021-07-22T13:16:19Z</time>
      </trkpt>
      <trkpt lat="47.06521" lon="6.11537">
        <ele>536</ele>
        <time>2021-07-22T13:16:36Z</time>
      </trkpt>
      <trkpt lat="47.06529" lon="6.1155">
        <ele>537</ele>
        <time>2021-07-22T13:16:47Z</time>
      </trkpt>
      <trkpt lat="47.06532" lon="6.11573">
        <ele>538</ele>
        <time>2021-07-22T13:17:02Z</time>
      </trkpt>
      <trkpt lat="47.06524" lon="6.11626">
        <ele>540</ele>
        <time>2021-07-22T13:17:33Z</time>
      </trkpt>
      <trkpt lat="47.06519" lon="6.11664">
        <ele>543</ele>
        <time>2021-07-22T13:17:57Z</time>
      </trkpt>
      <trkpt lat="47.06519" lon="6.11675">
        <ele>543</ele>
        <time>2021-07-22T13:18:01Z</time>
      </trkpt>
      <trkpt lat="47.06519" lon="6.11685">
        <ele>543</ele>
        <time>2021-07-22T13:18:06Z</time>
      </trkpt>
      <trkpt lat="47.06522" lon="6.11702">
        <ele>544</ele>
        <time>2021-07-22T13:18:15Z</time>
      </trkpt>
      <trkpt lat="47.06521" lon="6.11711">
        <ele>545</ele>
        <time>2021-07-22T13:18:19Z</time>
      </trkpt>
      <trkpt lat="47.06523" lon="6.11722">
        <ele>545</ele>
        <time>2021-07-22T13:18:25Z</time>
      </trkpt>
      <trkpt lat="47.06526" lon="6.11744">
        <ele>547</ele>
        <time>2021-07-22T13:18:43Z</time>
      </trkpt>
      <trkpt lat="47.06526" lon="6.11752">
        <ele>548</ele>
        <time>2021-07-22T13:18:48Z</time>
      </trkpt>
      <trkpt lat="47.06548" lon="6.11797">
        <ele>551</ele>
        <time>2021-07-22T13:19:24Z</time>
      </trkpt>
      <trkpt lat="47.06552" lon="6.11806">
        <ele>552</ele>
        <time>2021-07-22T13:19:32Z</time>
      </trkpt>
      <trkpt lat="47.06561" lon="6.11815">
        <ele>553</ele>
        <time>2021-07-22T13:19:42Z</time>
      </trkpt>
      <trkpt lat="47.06571" lon="6.11831">
        <ele>556</ele>
        <time>2021-07-22T13:20:01Z</time>
      </trkpt>
      <trkpt lat="47.0658" lon="6.11833">
        <ele>556</ele>
        <time>2021-07-22T13:20:10Z</time>
      </trkpt>
      <trkpt lat="47.06587" lon="6.11838">
        <ele>557</ele>
        <time>2021-07-22T13:20:15Z</time>
      </trkpt>
      <trkpt lat="47.06617" lon="6.1188">
        <ele>561</ele>
        <time>2021-07-22T13:20:52Z</time>
      </trkpt>
      <trkpt lat="47.06629" lon="6.11897">
        <ele>563</ele>
        <time>2021-07-22T13:21:05Z</time>
      </trkpt>
      <trkpt lat="47.06646" lon="6.11935">
        <ele>566</ele>
        <time>2021-07-22T13:21:28Z</time>
      </trkpt>
      <trkpt lat="47.06672" lon="6.11967">
        <ele>569</ele>
        <time>2021-07-22T13:21:56Z</time>
      </trkpt>
      <trkpt lat="47.0668" lon="6.11973">
        <ele>569</ele>
        <time>2021-07-22T13:22:04Z</time>
      </trkpt>
      <trkpt lat="47.06683" lon="6.11977">
        <ele>569</ele>
        <time>2021-07-22T13:22:08Z</time>
      </trkpt>
      <trkpt lat="47.06676" lon="6.11982">
        <ele>570</ele>
        <time>2021-07-22T13:22:19Z</time>
      </trkpt>
      <trkpt lat="47.06671" lon="6.11984">
        <ele>571</ele>
        <time>2021-07-22T13:22:24Z</time>
      </trkpt>
      <trkpt lat="47.06663" lon="6.11985">
        <ele>570</ele>
        <time>2021-07-22T13:22:31Z</time>
      </trkpt>
      <trkpt lat="47.06654" lon="6.11986">
        <ele>570</ele>
        <time>2021-07-22T13:22:40Z</time>
      </trkpt>
      <trkpt lat="47.06622" lon="6.11977">
        <ele>570</ele>
        <time>2021-07-22T13:23:07Z</time>
      </trkpt>
      <trkpt lat="47.06616" lon="6.11977">
        <ele>570</ele>
        <time>2021-07-22T13:23:13Z</time>
      </trkpt>
      <trkpt lat="47.06606" lon="6.11968">
        <ele>570</ele>
        <time>2021-07-22T13:23:21Z</time>
      </trkpt>
      <trkpt lat="47.06569" lon="6.1196">
        <ele>571</ele>
        <time>2021-07-22T13:23:52Z</time>
      </trkpt>
      <trkpt lat="47.06565" lon="6.11958">
        <ele>571</ele>
        <time>2021-07-22T13:23:56Z</time>
      </trkpt>
      <trkpt lat="47.06553" lon="6.11958">
        <ele>571</ele>
        <time>2021-07-22T13:24:06Z</time>
      </trkpt>
      <trkpt lat="47.06545" lon="6.11956">
        <ele>571</ele>
        <time>2021-07-22T13:24:13Z</time>
      </trkpt>
      <trkpt lat="47.06542" lon="6.11953">
        <ele>570</ele>
        <time>2021-07-22T13:24:15Z</time>
      </trkpt>
      <trkpt lat="47.06537" lon="6.11952">
        <ele>570</ele>
        <time>2021-07-22T13:24:18Z</time>
      </trkpt>
      <trkpt lat="47.06506" lon="6.11933">
        <ele>570</ele>
        <time>2021-07-22T13:24:47Z</time>
      </trkpt>
      <trkpt lat="47.06501" lon="6.11934">
        <ele>570</ele>
        <time>2021-07-22T13:24:50Z</time>
      </trkpt>
      <trkpt lat="47.06497" lon="6.11932">
        <ele>570</ele>
        <time>2021-07-22T13:24:53Z</time>
      </trkpt>
      <trkpt lat="47.06494" lon="6.11928">
        <ele>570</ele>
        <time>2021-07-22T13:24:56Z</time>
      </trkpt>
      <trkpt lat="47.06482" lon="6.11926">
        <ele>570</ele>
        <time>2021-07-22T13:25:07Z</time>
      </trkpt>
      <trkpt lat="47.06477" lon="6.11922">
        <ele>570</ele>
        <time>2021-07-22T13:25:13Z</time>
      </trkpt>
      <trkpt lat="47.06473" lon="6.11922">
        <ele>570</ele>
        <time>2021-07-22T13:25:17Z</time>
      </trkpt>
      <trkpt lat="47.0647" lon="6.11919">
        <ele>570</ele>
        <time>2021-07-22T13:25:20Z</time>
      </trkpt>
      <trkpt lat="47.06456" lon="6.11915">
        <ele>569</ele>
        <time>2021-07-22T13:25:32Z</time>
      </trkpt>
      <trkpt lat="47.06438" lon="6.11903">
        <ele>569</ele>
        <time>2021-07-22T13:25:50Z</time>
      </trkpt>
      <trkpt lat="47.06424" lon="6.11899">
        <ele>569</ele>
        <time>2021-07-22T13:26:00Z</time>
      </trkpt>
      <trkpt lat="47.06418" lon="6.11894">
        <ele>569</ele>
        <time>2021-07-22T13:26:06Z</time>
      </trkpt>
      <trkpt lat="47.06412" lon="6.11894">
        <ele>569</ele>
        <time>2021-07-22T13:26:13Z</time>
      </trkpt>
      <trkpt lat="47.0637" lon="6.11871">
        <ele>569</ele>
        <time>2021-07-22T13:26:48Z</time>
      </trkpt>
      <trkpt lat="47.06362" lon="6.11869">
        <ele>569</ele>
        <time>2021-07-22T13:26:55Z</time>
      </trkpt>
      <trkpt lat="47.06359" lon="6.11866">
        <ele>569</ele>
        <time>2021-07-22T13:26:58Z</time>
      </trkpt>
      <trkpt lat="47.0635" lon="6.11864">
        <ele>570</ele>
        <time>2021-07-22T13:27:05Z</time>
      </trkpt>
      <trkpt lat="47.06347" lon="6.11862">
        <ele>570</ele>
        <time>2021-07-22T13:27:07Z</time>
      </trkpt>
      <trkpt lat="47.06343" lon="6.1186">
        <ele>570</ele>
        <time>2021-07-22T13:27:10Z</time>
      </trkpt>
      <trkpt lat="47.06336" lon="6.11854">
        <ele>570</ele>
        <time>2021-07-22T13:27:17Z</time>
      </trkpt>
      <trkpt lat="47.06332" lon="6.11854">
        <ele>570</ele>
        <time>2021-07-22T13:27:20Z</time>
      </trkpt>
      <trkpt lat="47.06325" lon="6.11851">
        <ele>571</ele>
        <time>2021-07-22T13:27:27Z</time>
      </trkpt>
      <trkpt lat="47.06317" lon="6.11845">
        <ele>571</ele>
        <time>2021-07-22T13:27:34Z</time>
      </trkpt>
      <trkpt lat="47.06291" lon="6.11834">
        <ele>572</ele>
        <time>2021-07-22T13:27:56Z</time>
      </trkpt>
      <trkpt lat="47.06287" lon="6.11836">
        <ele>572</ele>
        <time>2021-07-22T13:27:59Z</time>
      </trkpt>
      <trkpt lat="47.06283" lon="6.11849">
        <ele>573</ele>
        <time>2021-07-22T13:28:25Z</time>
      </trkpt>
      <trkpt lat="47.06285" lon="6.11878">
        <ele>573</ele>
        <time>2021-07-22T13:28:43Z</time>
      </trkpt>
      <trkpt lat="47.0628" lon="6.1192">
        <ele>575</ele>
        <time>2021-07-22T13:29:16Z</time>
      </trkpt>
      <trkpt lat="47.0628" lon="6.1193">
        <ele>575</ele>
        <time>2021-07-22T13:29:23Z</time>
      </trkpt>
      <trkpt lat="47.06287" lon="6.11946">
        <ele>575</ele>
        <time>2021-07-22T13:29:40Z</time>
      </trkpt>
      <trkpt lat="47.06286" lon="6.11957">
        <ele>575</ele>
        <time>2021-07-22T13:29:52Z</time>
      </trkpt>
      <trkpt lat="47.0629" lon="6.11967">
        <ele>575</ele>
        <time>2021-07-22T13:29:56Z</time>
      </trkpt>
      <trkpt lat="47.06289" lon="6.11994">
        <ele>575</ele>
        <time>2021-07-22T13:30:08Z</time>
      </trkpt>
      <trkpt lat="47.06293" lon="6.12015">
        <ele>575</ele>
        <time>2021-07-22T13:30:16Z</time>
      </trkpt>
      <trkpt lat="47.063" lon="6.12036">
        <ele>574</ele>
        <time>2021-07-22T13:30:27Z</time>
      </trkpt>
      <trkpt lat="47.06299" lon="6.12072">
        <ele>574</ele>
        <time>2021-07-22T13:30:51Z</time>
      </trkpt>
      <trkpt lat="47.06296" lon="6.12079">
        <ele>574</ele>
        <time>2021-07-22T13:30:55Z</time>
      </trkpt>
      <trkpt lat="47.06294" lon="6.12089">
        <ele>574</ele>
        <time>2021-07-22T13:31:01Z</time>
      </trkpt>
      <trkpt lat="47.0629" lon="6.12101">
        <ele>574</ele>
        <time>2021-07-22T13:31:11Z</time>
      </trkpt>
      <trkpt lat="47.06284" lon="6.12103">
        <ele>574</ele>
        <time>2021-07-22T13:31:15Z</time>
      </trkpt>
      <trkpt lat="47.06279" lon="6.12112">
        <ele>575</ele>
        <time>2021-07-22T13:31:23Z</time>
      </trkpt>
      <trkpt lat="47.06246" lon="6.12151">
        <ele>574</ele>
        <time>2021-07-22T13:32:06Z</time>
      </trkpt>
      <trkpt lat="47.0621" lon="6.12174">
        <ele>574</ele>
        <time>2021-07-22T13:32:41Z</time>
      </trkpt>
      <trkpt lat="47.062" lon="6.12179">
        <ele>574</ele>
        <time>2021-07-22T13:32:49Z</time>
      </trkpt>
      <trkpt lat="47.06196" lon="6.12187">
        <ele>574</ele>
        <time>2021-07-22T13:32:57Z</time>
      </trkpt>
      <trkpt lat="47.06191" lon="6.12193">
        <ele>574</ele>
        <time>2021-07-22T13:33:01Z</time>
      </trkpt>
      <trkpt lat="47.0616" lon="6.12215">
        <ele>572</ele>
        <time>2021-07-22T13:33:35Z</time>
      </trkpt>
      <trkpt lat="47.06149" lon="6.12218">
        <ele>571</ele>
        <time>2021-07-22T13:33:45Z</time>
      </trkpt>
      <trkpt lat="47.06141" lon="6.12224">
        <ele>570</ele>
        <time>2021-07-22T13:33:53Z</time>
      </trkpt>
      <trkpt lat="47.06136" lon="6.12225">
        <ele>569</ele>
        <time>2021-07-22T13:33:58Z</time>
      </trkpt>
      <trkpt lat="47.06129" lon="6.12224">
        <ele>569</ele>
        <time>2021-07-22T13:34:02Z</time>
      </trkpt>
      <trkpt lat="47.06124" lon="6.12224">
        <ele>568</ele>
        <time>2021-07-22T13:34:08Z</time>
      </trkpt>
      <trkpt lat="47.06117" lon="6.12222">
        <ele>567</ele>
        <time>2021-07-22T13:34:13Z</time>
      </trkpt>
      <trkpt lat="47.06097" lon="6.12225">
        <ele>564</ele>
        <time>2021-07-22T13:34:34Z</time>
      </trkpt>
      <trkpt lat="47.06089" lon="6.12223">
        <ele>563</ele>
        <time>2021-07-22T13:34:40Z</time>
      </trkpt>
      <trkpt lat="47.06083" lon="6.12218">
        <ele>561</ele>
        <time>2021-07-22T13:34:52Z</time>
      </trkpt>
      <trkpt lat="47.06066" lon="6.1222">
        <ele>557</ele>
        <time>2021-07-22T13:35:14Z</time>
      </trkpt>
      <trkpt lat="47.06061" lon="6.12218">
        <ele>556</ele>
        <time>2021-07-22T13:35:22Z</time>
      </trkpt>
      <trkpt lat="47.06054" lon="6.1221">
        <ele>554</ele>
        <time>2021-07-22T13:35:32Z</time>
      </trkpt>
      <trkpt lat="47.06046" lon="6.12211">
        <ele>553</ele>
        <time>2021-07-22T13:35:40Z</time>
      </trkpt>
      <trkpt lat="47.06039" lon="6.12204">
        <ele>552</ele>
        <time>2021-07-22T13:35:46Z</time>
      </trkpt>
      <trkpt lat="47.06028" lon="6.12191">
        <ele>551</ele>
        <time>2021-07-22T13:35:56Z</time>
      </trkpt>
      <trkpt lat="47.06006" lon="6.12178">
        <ele>550</ele>
        <time>2021-07-22T13:36:16Z</time>
      </trkpt>
      <trkpt lat="47.06" lon="6.12171">
        <ele>550</ele>
        <time>2021-07-22T13:36:25Z</time>
      </trkpt>
      <trkpt lat="47.0599" lon="6.12161">
        <ele>549</ele>
        <time>2021-07-22T13:36:38Z</time>
      </trkpt>
      <trkpt lat="47.0598" lon="6.1215">
        <ele>550</ele>
        <time>2021-07-22T13:36:54Z</time>
      </trkpt>
      <trkpt lat="47.0597" lon="6.1214">
        <ele>549</ele>
        <time>2021-07-22T13:37:08Z</time>
      </trkpt>
      <trkpt lat="47.05963" lon="6.12133">
        <ele>548</ele>
        <time>2021-07-22T13:37:14Z</time>
      </trkpt>
      <trkpt lat="47.05956" lon="6.12134">
        <ele>548</ele>
        <time>2021-07-22T13:37:21Z</time>
      </trkpt>
      <trkpt lat="47.05946" lon="6.12129">
        <ele>546</ele>
        <time>2021-07-22T13:37:35Z</time>
      </trkpt>
      <trkpt lat="47.05933" lon="6.12115">
        <ele>546</ele>
        <time>2021-07-22T13:37:48Z</time>
      </trkpt>
      <trkpt lat="47.05926" lon="6.12112">
        <ele>546</ele>
        <time>2021-07-22T13:37:55Z</time>
      </trkpt>
      <trkpt lat="47.05921" lon="6.12104">
        <ele>545</ele>
        <time>2021-07-22T13:38:03Z</time>
      </trkpt>
      <trkpt lat="47.05911" lon="6.12088">
        <ele>544</ele>
        <time>2021-07-22T13:38:16Z</time>
      </trkpt>
      <trkpt lat="47.05903" lon="6.12084">
        <ele>544</ele>
        <time>2021-07-22T13:38:24Z</time>
      </trkpt>
      <trkpt lat="47.05891" lon="6.12074">
        <ele>544</ele>
        <time>2021-07-22T13:38:39Z</time>
      </trkpt>
      <trkpt lat="47.05885" lon="6.12068">
        <ele>545</ele>
        <time>2021-07-22T13:38:53Z</time>
      </trkpt>
      <trkpt lat="47.05878" lon="6.1206">
        <ele>545</ele>
        <time>2021-07-22T13:39:11Z</time>
      </trkpt>
      <trkpt lat="47.05868" lon="6.12041">
        <ele>544</ele>
        <time>2021-07-22T13:39:25Z</time>
      </trkpt>
      <trkpt lat="47.05826" lon="6.12002">
        <ele>545</ele>
        <time>2021-07-22T13:40:11Z</time>
      </trkpt>
      <trkpt lat="47.05812" lon="6.11993">
        <ele>546</ele>
        <time>2021-07-22T13:40:23Z</time>
      </trkpt>
      <trkpt lat="47.05783" lon="6.11976">
        <ele>547</ele>
        <time>2021-07-22T13:40:58Z</time>
      </trkpt>
      <trkpt lat="47.0575" lon="6.11968">
        <ele>546</ele>
        <time>2021-07-22T13:41:29Z</time>
      </trkpt>
      <trkpt lat="47.05722" lon="6.11948">
        <ele>546</ele>
        <time>2021-07-22T13:42:00Z</time>
      </trkpt>
      <trkpt lat="47.05709" lon="6.11936">
        <ele>546</ele>
        <time>2021-07-22T13:42:10Z</time>
      </trkpt>
      <trkpt lat="47.05684" lon="6.11939">
        <ele>547</ele>
        <time>2021-07-22T13:42:43Z</time>
      </trkpt>
      <trkpt lat="47.05662" lon="6.11928">
        <ele>547</ele>
        <time>2021-07-22T13:43:09Z</time>
      </trkpt>
      <trkpt lat="47.05625" lon="6.11904">
        <ele>549</ele>
        <time>2021-07-22T13:43:44Z</time>
      </trkpt>
      <trkpt lat="47.0557" lon="6.11896">
        <ele>549</ele>
        <time>2021-07-22T13:44:35Z</time>
      </trkpt>
      <trkpt lat="47.05555" lon="6.11897">
        <ele>549</ele>
        <time>2021-07-22T13:44:46Z</time>
      </trkpt>
      <trkpt lat="47.05527" lon="6.11912">
        <ele>547</ele>
        <time>2021-07-22T13:45:12Z</time>
      </trkpt>
      <trkpt lat="47.05488" lon="6.11926">
        <ele>548</ele>
        <time>2021-07-22T13:46:03Z</time>
      </trkpt>
      <trkpt lat="47.05483" lon="6.11934">
        <ele>548</ele>
        <time>2021-07-22T13:46:17Z</time>
      </trkpt>
      <trkpt lat="47.05467" lon="6.11959">
        <ele>545</ele>
        <time>2021-07-22T13:46:50Z</time>
      </trkpt>
      <trkpt lat="47.05461" lon="6.11965">
        <ele>545</ele>
        <time>2021-07-22T13:47:01Z</time>
      </trkpt>
      <trkpt lat="47.05449" lon="6.11967">
        <ele>546</ele>
        <time>2021-07-22T13:47:17Z</time>
      </trkpt>
      <trkpt lat="47.05441" lon="6.11971">
        <ele>547</ele>
        <time>2021-07-22T13:47:25Z</time>
      </trkpt>
      <trkpt lat="47.05428" lon="6.11989">
        <ele>549</ele>
        <time>2021-07-22T13:47:44Z</time>
      </trkpt>
      <trkpt lat="47.05422" lon="6.11997">
        <ele>549</ele>
        <time>2021-07-22T13:47:54Z</time>
      </trkpt>
      <trkpt lat="47.05413" lon="6.11999">
        <ele>549</ele>
        <time>2021-07-22T13:48:05Z</time>
      </trkpt>
      <trkpt lat="47.05402" lon="6.12007">
        <ele>549</ele>
        <time>2021-07-22T13:48:16Z</time>
      </trkpt>
      <trkpt lat="47.0539" lon="6.12019">
        <ele>549</ele>
        <time>2021-07-22T13:48:30Z</time>
      </trkpt>
      <trkpt lat="47.05383" lon="6.12018">
        <ele>549</ele>
        <time>2021-07-22T13:48:35Z</time>
      </trkpt>
      <trkpt lat="47.05375" lon="6.1202">
        <ele>550</ele>
        <time>2021-07-22T13:48:42Z</time>
      </trkpt>
      <trkpt lat="47.05372" lon="6.12029">
        <ele>550</ele>
        <time>2021-07-22T13:48:50Z</time>
      </trkpt>
      <trkpt lat="47.05364" lon="6.12032">
        <ele>552</ele>
        <time>2021-07-22T13:49:03Z</time>
      </trkpt>
      <trkpt lat="47.05355" lon="6.12035">
        <ele>552</ele>
        <time>2021-07-22T13:49:18Z</time>
      </trkpt>
      <trkpt lat="47.05332" lon="6.12041">
        <ele>550</ele>
        <time>2021-07-22T13:49:46Z</time>
      </trkpt>
      <trkpt lat="47.05327" lon="6.12032">
        <ele>549</ele>
        <time>2021-07-22T13:50:04Z</time>
      </trkpt>
      <trkpt lat="47.05321" lon="6.12054">
        <ele>547</ele>
        <time>2021-07-22T13:51:45Z</time>
      </trkpt>
      <trkpt lat="47.05328" lon="6.12074">
        <ele>545</ele>
        <time>2021-07-22T13:51:58Z</time>
      </trkpt>
      <trkpt lat="47.0534" lon="6.12086">
        <ele>544</ele>
        <time>2021-07-22T13:52:08Z</time>
      </trkpt>
      <trkpt lat="47.05355" lon="6.12084">
        <ele>543</ele>
        <time>2021-07-22T13:52:22Z</time>
      </trkpt>
      <trkpt lat="47.0537" lon="6.12074">
        <ele>541</ele>
        <time>2021-07-22T13:52:43Z</time>
      </trkpt>
      <trkpt lat="47.05384" lon="6.12066">
        <ele>538</ele>
        <time>2021-07-22T13:52:58Z</time>
      </trkpt>
      <trkpt lat="47.05402" lon="6.12063">
        <ele>534</ele>
        <time>2021-07-22T13:53:22Z</time>
      </trkpt>
      <trkpt lat="47.05418" lon="6.12059">
        <ele>533</ele>
        <time>2021-07-22T13:53:42Z</time>
      </trkpt>
      <trkpt lat="47.05429" lon="6.12072">
        <ele>525</ele>
        <time>2021-07-22T13:54:50Z</time>
      </trkpt>
      <trkpt lat="47.05442" lon="6.12087">
        <ele>517</ele>
        <time>2021-07-22T13:55:50Z</time>
      </trkpt>
      <trkpt lat="47.05448" lon="6.12082">
        <ele>515</ele>
        <time>2021-07-22T13:56:08Z</time>
      </trkpt>
      <trkpt lat="47.05445" lon="6.12073">
        <ele>514</ele>
        <time>2021-07-22T13:56:26Z</time>
      </trkpt>
      <trkpt lat="47.0546" lon="6.1207">
        <ele>494</ele>
        <time>2021-07-22T14:00:19Z</time>
      </trkpt>
      <trkpt lat="47.05474" lon="6.12064">
        <ele>485</ele>
        <time>2021-07-22T14:01:33Z</time>
      </trkpt>
      <trkpt lat="47.05478" lon="6.1211">
        <ele>465</ele>
        <time>2021-07-22T14:03:54Z</time>
      </trkpt>
      <trkpt lat="47.05486" lon="6.12153">
        <ele>450</ele>
        <time>2021-07-22T14:07:14Z</time>
      </trkpt>
      <trkpt lat="47.05512" lon="6.12171">
        <ele>451</ele>
        <time>2021-07-22T14:11:09Z</time>
      </trkpt>
      <trkpt lat="47.05545" lon="6.12147">
        <ele>454</ele>
        <time>2021-07-22T14:13:59Z</time>
      </trkpt>
      <trkpt lat="47.05521" lon="6.12126">
        <ele>464</ele>
        <time>2021-07-22T14:15:00Z</time>
      </trkpt>
      <trkpt lat="47.05522" lon="6.12083">
        <ele>475</ele>
        <time>2021-07-22T14:16:21Z</time>
      </trkpt>
      <trkpt lat="47.05491" lon="6.12082">
        <ele>478</ele>
        <time>2021-07-22T14:17:26Z</time>
      </trkpt>
      <trkpt lat="47.05464" lon="6.12064">
        <ele>501</ele>
        <time>2021-07-22T14:21:05Z</time>
      </trkpt>
      <trkpt lat="47.05447" lon="6.12069">
        <ele>518</ele>
        <time>2021-07-22T14:23:45Z</time>
      </trkpt>
      <trkpt lat="47.05432" lon="6.12069">
        <ele>527</ele>
        <time>2021-07-22T14:25:06Z</time>
      </trkpt>
      <trkpt lat="47.05418" lon="6.12055">
        <ele>533</ele>
        <time>2021-07-22T14:26:42Z</time>
      </trkpt>
      <trkpt lat="47.05405" lon="6.1205">
        <ele>538</ele>
        <time>2021-07-22T14:28:05Z</time>
      </trkpt>
      <trkpt lat="47.05394" lon="6.12057">
        <ele>540</ele>
        <time>2021-07-22T14:28:29Z</time>
      </trkpt>
      <trkpt lat="47.05383" lon="6.12061">
        <ele>542</ele>
        <time>2021-07-22T14:28:53Z</time>
      </trkpt>
      <trkpt lat="47.05376" lon="6.12061">
        <ele>544</ele>
        <time>2021-07-22T14:29:11Z</time>
      </trkpt>
      <trkpt lat="47.05359" lon="6.12073">
        <ele>546</ele>
        <time>2021-07-22T14:29:41Z</time>
      </trkpt>
      <trkpt lat="47.05353" lon="6.12079">
        <ele>547</ele>
        <time>2021-07-22T14:29:51Z</time>
      </trkpt>
      <trkpt lat="47.05345" lon="6.1207">
        <ele>547</ele>
        <time>2021-07-22T14:30:05Z</time>
      </trkpt>
      <trkpt lat="47.05335" lon="6.12062">
        <ele>549</ele>
        <time>2021-07-22T14:30:22Z</time>
      </trkpt>
      <trkpt lat="47.05329" lon="6.12046">
        <ele>550</ele>
        <time>2021-07-22T14:30:46Z</time>
      </trkpt>
      <trkpt lat="47.05311" lon="6.12043">
        <ele>549</ele>
        <time>2021-07-22T14:33:18Z</time>
      </trkpt>
      <trkpt lat="47.05298" lon="6.12031">
        <ele>550</ele>
        <time>2021-07-22T14:33:32Z</time>
      </trkpt>
      <trkpt lat="47.05283" lon="6.12027">
        <ele>550</ele>
        <time>2021-07-22T14:33:51Z</time>
      </trkpt>
      <trkpt lat="47.05249" lon="6.12025">
        <ele>550</ele>
        <time>2021-07-22T14:34:23Z</time>
      </trkpt>
      <trkpt lat="47.05219" lon="6.12019">
        <ele>548</ele>
        <time>2021-07-22T14:34:48Z</time>
      </trkpt>
      <trkpt lat="47.0519" lon="6.12023">
        <ele>546</ele>
        <time>2021-07-22T14:35:14Z</time>
      </trkpt>
      <trkpt lat="47.05161" lon="6.12009">
        <ele>546</ele>
        <time>2021-07-22T14:35:50Z</time>
      </trkpt>
      <trkpt lat="47.05127" lon="6.11977">
        <ele>550</ele>
        <time>2021-07-22T14:36:28Z</time>
      </trkpt>
      <trkpt lat="47.05111" lon="6.11976">
        <ele>550</ele>
        <time>2021-07-22T14:36:48Z</time>
      </trkpt>
      <trkpt lat="47.05068" lon="6.11959">
        <ele>553</ele>
        <time>2021-07-22T14:37:27Z</time>
      </trkpt>
      <trkpt lat="47.05028" lon="6.11963">
        <ele>556</ele>
        <time>2021-07-22T14:38:03Z</time>
      </trkpt>
      <trkpt lat="47.05013" lon="6.11968">
        <ele>556</ele>
        <time>2021-07-22T14:38:16Z</time>
      </trkpt>
      <trkpt lat="47.04996" lon="6.1197">
        <ele>556</ele>
        <time>2021-07-22T14:38:30Z</time>
      </trkpt>
      <trkpt lat="47.04974" lon="6.11968">
        <ele>558</ele>
        <time>2021-07-22T14:38:53Z</time>
      </trkpt>
      <trkpt lat="47.04958" lon="6.11975">
        <ele>560</ele>
        <time>2021-07-22T14:39:09Z</time>
      </trkpt>
      <trkpt lat="47.04923" lon="6.11959">
        <ele>562</ele>
        <time>2021-07-22T14:39:49Z</time>
      </trkpt>
      <trkpt lat="47.04907" lon="6.1195">
        <ele>562</ele>
        <time>2021-07-22T14:40:03Z</time>
      </trkpt>
      <trkpt lat="47.0489" lon="6.1195">
        <ele>562</ele>
        <time>2021-07-22T14:40:15Z</time>
      </trkpt>
      <trkpt lat="47.04878" lon="6.11946">
        <ele>562</ele>
        <time>2021-07-22T14:40:30Z</time>
      </trkpt>
      <trkpt lat="47.04857" lon="6.11935">
        <ele>564</ele>
        <time>2021-07-22T14:40:51Z</time>
      </trkpt>
      <trkpt lat="47.0483" lon="6.11934">
        <ele>566</ele>
        <time>2021-07-22T14:41:19Z</time>
      </trkpt>
      <trkpt lat="47.04815" lon="6.11935">
        <ele>566</ele>
        <time>2021-07-22T14:41:31Z</time>
      </trkpt>
      <trkpt lat="47.04779" lon="6.11917">
        <ele>568</ele>
        <time>2021-07-22T14:42:08Z</time>
      </trkpt>
      <trkpt lat="47.04751" lon="6.11903">
        <ele>568</ele>
        <time>2021-07-22T14:42:30Z</time>
      </trkpt>
      <trkpt lat="47.04736" lon="6.11905">
        <ele>567</ele>
        <time>2021-07-22T14:42:46Z</time>
      </trkpt>
      <trkpt lat="47.04719" lon="6.119">
        <ele>567</ele>
        <time>2021-07-22T14:43:01Z</time>
      </trkpt>
      <trkpt lat="47.04711" lon="6.11903">
        <ele>567</ele>
        <time>2021-07-22T14:43:07Z</time>
      </trkpt>
      <trkpt lat="47.04687" lon="6.1189">
        <ele>567</ele>
        <time>2021-07-22T14:43:33Z</time>
      </trkpt>
      <trkpt lat="47.0468" lon="6.11892">
        <ele>568</ele>
        <time>2021-07-22T14:43:41Z</time>
      </trkpt>
      <trkpt lat="47.04632" lon="6.1188">
        <ele>569</ele>
        <time>2021-07-22T14:44:28Z</time>
      </trkpt>
      <trkpt lat="47.04605" lon="6.11862">
        <ele>570</ele>
        <time>2021-07-22T14:44:54Z</time>
      </trkpt>
      <trkpt lat="47.04584" lon="6.11864">
        <ele>571</ele>
        <time>2021-07-22T14:45:18Z</time>
      </trkpt>
      <trkpt lat="47.0454" lon="6.11845">
        <ele>572</ele>
        <time>2021-07-22T14:45:49Z</time>
      </trkpt>
      <trkpt lat="47.04507" lon="6.11844">
        <ele>573</ele>
        <time>2021-07-22T14:46:23Z</time>
      </trkpt>
      <trkpt lat="47.04464" lon="6.11841">
        <ele>575</ele>
        <time>2021-07-22T14:46:58Z</time>
      </trkpt>
      <trkpt lat="47.04432" lon="6.11831">
        <ele>576</ele>
        <time>2021-07-22T14:47:34Z</time>
      </trkpt>
      <trkpt lat="47.04401" lon="6.11829">
        <ele>577</ele>
        <time>2021-07-22T14:48:09Z</time>
      </trkpt>
      <trkpt lat="47.04385" lon="6.11829">
        <ele>577</ele>
        <time>2021-07-22T14:48:20Z</time>
      </trkpt>
      <trkpt lat="47.04371" lon="6.11838">
        <ele>577</ele>
        <time>2021-07-22T14:48:40Z</time>
      </trkpt>
      <trkpt lat="47.0434" lon="6.11843">
        <ele>578</ele>
        <time>2021-07-22T14:49:06Z</time>
      </trkpt>
      <trkpt lat="47.04297" lon="6.11845">
        <ele>579</ele>
        <time>2021-07-22T14:49:42Z</time>
      </trkpt>
      <trkpt lat="47.0425" lon="6.11853">
        <ele>581</ele>
        <time>2021-07-22T14:50:17Z</time>
      </trkpt>
      <trkpt lat="47.04237" lon="6.11853">
        <ele>580</ele>
        <time>2021-07-22T14:50:29Z</time>
      </trkpt>
      <trkpt lat="47.0422" lon="6.1186">
        <ele>580</ele>
        <time>2021-07-22T14:50:44Z</time>
      </trkpt>
      <trkpt lat="47.04211" lon="6.11867">
        <ele>580</ele>
        <time>2021-07-22T14:50:55Z</time>
      </trkpt>
      <trkpt lat="47.04189" lon="6.1187">
        <ele>579</ele>
        <time>2021-07-22T14:51:11Z</time>
      </trkpt>
      <trkpt lat="47.04178" lon="6.11873">
        <ele>580</ele>
        <time>2021-07-22T14:51:29Z</time>
      </trkpt>
      <trkpt lat="47.04169" lon="6.11867">
        <ele>580</ele>
        <time>2021-07-22T14:51:36Z</time>
      </trkpt>
      <trkpt lat="47.04145" lon="6.11865">
        <ele>581</ele>
        <time>2021-07-22T14:51:56Z</time>
      </trkpt>
      <trkpt lat="47.04138" lon="6.11862">
        <ele>581</ele>
        <time>2021-07-22T14:52:02Z</time>
      </trkpt>
      <trkpt lat="47.04102" lon="6.11861">
        <ele>583</ele>
        <time>2021-07-22T14:52:40Z</time>
      </trkpt>
      <trkpt lat="47.04093" lon="6.11858">
        <ele>583</ele>
        <time>2021-07-22T14:52:46Z</time>
      </trkpt>
      <trkpt lat="47.04073" lon="6.11842">
        <ele>584</ele>
        <time>2021-07-22T14:53:02Z</time>
      </trkpt>
      <trkpt lat="47.04066" lon="6.1184">
        <ele>584</ele>
        <time>2021-07-22T14:53:08Z</time>
      </trkpt>
      <trkpt lat="47.04058" lon="6.11842">
        <ele>585</ele>
        <time>2021-07-22T14:53:15Z</time>
      </trkpt>
      <trkpt lat="47.04031" lon="6.11827">
        <ele>585</ele>
        <time>2021-07-22T14:53:40Z</time>
      </trkpt>
      <trkpt lat="47.04006" lon="6.11798">
        <ele>586</ele>
        <time>2021-07-22T14:54:04Z</time>
      </trkpt>
      <trkpt lat="47.03998" lon="6.11796">
        <ele>586</ele>
        <time>2021-07-22T14:54:11Z</time>
      </trkpt>
      <trkpt lat="47.03987" lon="6.11794">
        <ele>587</ele>
        <time>2021-07-22T14:54:24Z</time>
      </trkpt>
      <trkpt lat="47.03971" lon="6.11786">
        <ele>588</ele>
        <time>2021-07-22T14:54:38Z</time>
      </trkpt>
      <trkpt lat="47.03941" lon="6.11781">
        <ele>589</ele>
        <time>2021-07-22T14:55:08Z</time>
      </trkpt>
      <trkpt lat="47.03934" lon="6.11775">
        <ele>590</ele>
        <time>2021-07-22T14:55:15Z</time>
      </trkpt>
      <trkpt lat="47.03896" lon="6.11769">
        <ele>592</ele>
        <time>2021-07-22T14:55:43Z</time>
      </trkpt>
      <trkpt lat="47.03889" lon="6.11765">
        <ele>592</ele>
        <time>2021-07-22T14:55:49Z</time>
      </trkpt>
      <trkpt lat="47.03844" lon="6.11758">
        <ele>593</ele>
        <time>2021-07-22T14:56:28Z</time>
      </trkpt>
      <trkpt lat="47.03828" lon="6.11755">
        <ele>593</ele>
        <time>2021-07-22T14:56:40Z</time>
      </trkpt>
      <trkpt lat="47.03814" lon="6.11749">
        <ele>593</ele>
        <time>2021-07-22T14:56:49Z</time>
      </trkpt>
      <trkpt lat="47.03808" lon="6.11748">
        <ele>594</ele>
        <time>2021-07-22T14:56:53Z</time>
      </trkpt>
      <trkpt lat="47.03803" lon="6.1175">
        <ele>594</ele>
        <time>2021-07-22T14:56:57Z</time>
      </trkpt>
      <trkpt lat="47.03796" lon="6.11765">
        <ele>594</ele>
        <time>2021-07-22T14:57:07Z</time>
      </trkpt>
      <trkpt lat="47.03791" lon="6.11771">
        <ele>594</ele>
        <time>2021-07-22T14:57:12Z</time>
      </trkpt>
      <trkpt lat="47.03769" lon="6.11815">
        <ele>594</ele>
        <time>2021-07-22T14:57:43Z</time>
      </trkpt>
      <trkpt lat="47.03748" lon="6.11856">
        <ele>596</ele>
        <time>2021-07-22T14:58:18Z</time>
      </trkpt>
      <trkpt lat="47.0374" lon="6.11882">
        <ele>597</ele>
        <time>2021-07-22T14:58:32Z</time>
      </trkpt>
      <trkpt lat="47.03738" lon="6.11901">
        <ele>599</ele>
        <time>2021-07-22T14:58:45Z</time>
      </trkpt>
      <trkpt lat="47.0374" lon="6.1191">
        <ele>600</ele>
        <time>2021-07-22T14:58:51Z</time>
      </trkpt>
      <trkpt lat="47.03742" lon="6.11918">
        <ele>600</ele>
        <time>2021-07-22T14:58:56Z</time>
      </trkpt>
      <trkpt lat="47.03747" lon="6.11932">
        <ele>602</ele>
        <time>2021-07-22T14:59:09Z</time>
      </trkpt>
      <trkpt lat="47.0376" lon="6.11951">
        <ele>603</ele>
        <time>2021-07-22T14:59:23Z</time>
      </trkpt>
      <trkpt lat="47.03768" lon="6.11965">
        <ele>604</ele>
        <time>2021-07-22T14:59:32Z</time>
      </trkpt>
      <trkpt lat="47.03772" lon="6.11971">
        <ele>605</ele>
        <time>2021-07-22T14:59:38Z</time>
      </trkpt>
      <trkpt lat="47.03779" lon="6.11977">
        <ele>606</ele>
        <time>2021-07-22T14:59:48Z</time>
      </trkpt>
      <trkpt lat="47.03783" lon="6.11983">
        <ele>607</ele>
        <time>2021-07-22T14:59:53Z</time>
      </trkpt>
      <trkpt lat="47.0379" lon="6.12">
        <ele>608</ele>
        <time>2021-07-22T15:00:08Z</time>
      </trkpt>
      <trkpt lat="47.03798" lon="6.12012">
        <ele>609</ele>
        <time>2021-07-22T15:00:18Z</time>
      </trkpt>
      <trkpt lat="47.03801" lon="6.12019">
        <ele>610</ele>
        <time>2021-07-22T15:00:22Z</time>
      </trkpt>
      <trkpt lat="47.03825" lon="6.1207">
        <ele>613</ele>
        <time>2021-07-22T15:00:55Z</time>
      </trkpt>
      <trkpt lat="47.03825" lon="6.1208">
        <ele>613</ele>
        <time>2021-07-22T15:01:03Z</time>
      </trkpt>
      <trkpt lat="47.03827" lon="6.12089">
        <ele>614</ele>
        <time>2021-07-22T15:01:09Z</time>
      </trkpt>
      <trkpt lat="47.03827" lon="6.12119">
        <ele>617</ele>
        <time>2021-07-22T15:01:32Z</time>
      </trkpt>
      <trkpt lat="47.03822" lon="6.12125">
        <ele>617</ele>
        <time>2021-07-22T15:01:37Z</time>
      </trkpt>
      <trkpt lat="47.0382" lon="6.12132">
        <ele>618</ele>
        <time>2021-07-22T15:01:42Z</time>
      </trkpt>
      <trkpt lat="47.03815" lon="6.12139">
        <ele>618</ele>
        <time>2021-07-22T15:01:46Z</time>
      </trkpt>
      <trkpt lat="47.03812" lon="6.12146">
        <ele>618</ele>
        <time>2021-07-22T15:01:52Z</time>
      </trkpt>
      <trkpt lat="47.03808" lon="6.12152">
        <ele>619</ele>
        <time>2021-07-22T15:01:57Z</time>
      </trkpt>
      <trkpt lat="47.038" lon="6.12177">
        <ele>620</ele>
        <time>2021-07-22T15:02:15Z</time>
      </trkpt>
      <trkpt lat="47.03791" lon="6.1219">
        <ele>621</ele>
        <time>2021-07-22T15:02:26Z</time>
      </trkpt>
      <trkpt lat="47.03789" lon="6.12198">
        <ele>622</ele>
        <time>2021-07-22T15:02:30Z</time>
      </trkpt>
      <trkpt lat="47.03787" lon="6.12205">
        <ele>622</ele>
        <time>2021-07-22T15:02:35Z</time>
      </trkpt>
      <trkpt lat="47.03773" lon="6.12237">
        <ele>623</ele>
        <time>2021-07-22T15:03:01Z</time>
      </trkpt>
      <trkpt lat="47.03774" lon="6.12245">
        <ele>624</ele>
        <time>2021-07-22T15:03:07Z</time>
      </trkpt>
      <trkpt lat="47.03783" lon="6.12266">
        <ele>624</ele>
        <time>2021-07-22T15:03:20Z</time>
      </trkpt>
      <trkpt lat="47.03778" lon="6.12261">
        <ele>625</ele>
        <time>2021-07-22T15:04:51Z</time>
      </trkpt>
      <trkpt lat="47.03778" lon="6.1225">
        <ele>625</ele>
        <time>2021-07-22T15:05:17Z</time>
      </trkpt>
      <trkpt lat="47.0379" lon="6.1227">
        <ele>625</ele>
        <time>2021-07-22T15:06:53Z</time>
      </trkpt>
      <trkpt lat="47.03783" lon="6.12269">
        <ele>624</ele>
        <time>2021-07-22T15:07:17Z</time>
      </trkpt>
    </trkseg>
  </trk>
</gpx>